5Y8240 / N415MC 7700 Squawk Report (22nd of October, 2019)

Aircraft B744 Reg No. N415MC Age 17 years old
Model 747 Jet engines 4 First flight 19-04-02
Registered 28-02-13 Rollout 03-04-02 Delivered 28-06-02
Construction No. 32837 Line No. 1304 Series 47UF
ADSHEX A4E7C9 Airline name Atlas Air Owner US Bank NA Trustee
Airfield based New York-JFK~NY~N First tracked 2017-07-13 16:23:00

Flight history for N415MC

Route Flight No Date Playback
???? N/A 2019-11-21 22:30:00
Miami Intl (MIA) - John F Kennedy Intl (JFK) 5Y9021 2019-11-21 18:03:00
John F Kennedy Intl (JFK) - Miami Intl (MIA) 5Y9018 2019-11-18 20:02:00
Ted Stevens Anchorage Intl (ANC) - John F Kennedy Intl (JFK) 5Y555 2019-11-18 17:19:00
???? N/A 2019-11-17 22:33:00
???? N/A 2019-11-17 16:36:00
???? N/A 2019-11-16 18:18:00
???? N/A 2019-11-15 15:06:00
Ted Stevens Anchorage Intl (ANC) - John F Kennedy Intl (JFK) 5Y555 2019-11-14 18:06:00
???? N/A 2019-11-13 16:08:00
???? N/A 2019-11-11 14:00:00
???? N/A 2019-11-10 21:59:00
???? N/A 2019-11-10 15:12:00
Ted Stevens Anchorage Intl (ANC) - John F Kennedy Intl (JFK) 5Y555 2019-11-09 18:55:00
???? N/A 2019-11-08 22:17:00
???? N/A 2019-11-08 15:05:00
Ted Stevens Anchorage Intl (ANC) - John F Kennedy Intl (JFK) 5Y555 2019-11-07 18:01:00
???? N/A 2019-11-06 16:07:00
Ted Stevens Anchorage Intl (ANC) - John F Kennedy Intl (JFK) 5Y555 2019-11-04 14:11:00
???? N/A 2019-11-03 15:21:00
Time Lat Lon Altitude Heading Speed Vertical Rate
2019-10-23 07:46:18 GMT 29.237309 47.955467 0 244 0 0
2019-10-23 07:46:07 GMT 29.237297 47.955467 0 244 0 0
2019-10-23 07:45:52 GMT 29.237320 47.955482 0 244 2 0
2019-10-23 07:45:39 GMT 29.237389 47.955650 0 244 5 0
2019-10-23 07:45:24 GMT 29.237576 47.956131 0 247 8 0
2019-10-23 07:45:11 GMT 29.237732 47.956657 0 188 9 0
2019-10-23 07:44:57 GMT 29.238270 47.956524 0 157 10 0
2019-10-23 07:44:43 GMT 29.238844 47.956371 0 227 10 0
2019-10-23 07:44:29 GMT 29.239145 47.956924 0 244 8 0
2019-10-23 07:44:12 GMT 29.239332 47.957409 0 247 6 0
2019-10-23 07:43:58 GMT 29.239462 47.957745 0 253 4 0
2019-10-23 07:43:43 GMT 29.239517 47.957909 0 255 0 0
2019-10-23 07:43:33 GMT 29.239519 47.957909 0 255 0 0
2019-10-23 07:43:17 GMT 29.239519 47.957893 0 255 0 0
2019-10-23 07:42:42 GMT 29.239517 47.957897 0 255 0 0
2019-10-23 07:42:37 GMT 29.239519 47.957878 0 255 0 0
2019-10-23 07:42:22 GMT 29.239506 47.957886 0 255 0 0
2019-10-23 07:42:07 GMT 29.239494 47.957886 0 255 0 0
2019-10-23 07:41:42 GMT 29.239494 47.957878 0 255 0 0
2019-10-23 07:41:26 GMT 29.239508 47.957878 0 255 0 0
2019-10-23 07:41:11 GMT 29.239506 47.957886 0 255 0 0
2019-10-23 07:40:41 GMT 29.239494 47.957893 0 255 0 0
2019-10-23 07:40:31 GMT 29.239494 47.957897 0 255 0 0
2019-10-23 07:40:16 GMT 29.239483 47.957897 0 255 0 0
2019-10-23 07:40:01 GMT 29.239494 47.957893 0 255 0 0
2019-10-23 07:39:31 GMT 29.239494 47.957886 0 255 0 0
2019-10-23 07:38:51 GMT 29.239494 47.957878 0 255 0 0
2019-10-23 07:38:36 GMT 29.239494 47.957886 0 255 0 0
2019-10-23 07:38:11 GMT 29.239494 47.957897 0 255 0 0
2019-10-23 07:37:41 GMT 29.239483 47.957886 0 255 0 0
2019-10-23 07:37:26 GMT 29.239494 47.957886 0 255 0 0
2019-10-23 07:37:11 GMT 29.239485 47.957878 0 255 0 0
2019-10-23 07:37:01 GMT 29.239494 47.957878 0 255 0 0
2019-10-23 07:36:46 GMT 29.239494 47.957893 0 255 0 0
2019-10-23 07:36:26 GMT 29.239494 47.957886 0 255 0 0
2019-10-23 07:36:11 GMT 29.239508 47.957893 0 255 0 0
2019-10-23 07:35:56 GMT 29.239494 47.957893 0 255 0 0
2019-10-23 07:35:41 GMT 29.239494 47.957897 0 255 0 0
2019-10-23 07:35:01 GMT 29.239494 47.957893 0 255 0 0
2019-10-23 07:34:16 GMT 29.239494 47.957886 0 255 0 0
2019-10-23 07:33:37 GMT 29.239494 47.957893 0 255 0 0
2019-10-23 07:33:22 GMT 29.239494 47.957909 0 255 0 0
2019-10-23 07:33:06 GMT 29.239494 47.957897 0 255 0 0
2019-10-23 07:32:56 GMT 29.239494 47.957909 0 255 0 0
2019-10-23 07:32:26 GMT 29.239494 47.957897 0 255 0 0
2019-10-23 07:32:11 GMT 29.239494 47.957893 0 255 0 0
2019-10-23 07:31:56 GMT 29.239494 47.957897 0 255 0 0
2019-10-23 07:31:42 GMT 29.239506 47.957886 0 255 0 0
2019-10-23 07:31:32 GMT 29.239494 47.957893 0 255 0 0
2019-10-23 07:31:02 GMT 29.239506 47.957886 0 255 0 0
2019-10-23 07:30:46 GMT 29.239508 47.957878 0 255 0 0
2019-10-23 07:30:21 GMT 29.239506 47.957886 0 255 0 0
2019-10-23 07:30:06 GMT 29.239508 47.957878 0 255 0 0
2019-10-23 07:29:51 GMT 29.239508 47.957893 0 255 0 0
2019-10-23 07:29:21 GMT 29.239506 47.957897 0 255 0 0
2019-10-23 07:29:11 GMT 29.239508 47.957893 0 255 0 0
2019-10-23 07:28:56 GMT 29.239494 47.957893 0 255 0 0
2019-10-23 07:28:41 GMT 29.239494 47.957886 0 255 0 0
2019-10-23 07:28:26 GMT 29.239494 47.957897 0 255 0 0
2019-10-23 07:28:16 GMT 29.239506 47.957897 0 255 0 0
2019-10-23 07:28:01 GMT 29.239508 47.957893 0 255 0 0
2019-10-23 07:27:46 GMT 29.239506 47.957897 0 255 0 0
2019-10-23 07:27:31 GMT 29.239494 47.957897 0 255 0 0
2019-10-23 07:27:16 GMT 29.239494 47.957893 0 255 0 0
2019-10-23 07:26:46 GMT 29.239494 47.957897 0 255 0 0
2019-10-23 07:26:01 GMT 29.239508 47.957909 0 255 0 0
2019-10-23 07:25:51 GMT 29.239506 47.957897 0 255 0 0
2019-10-23 07:25:21 GMT 29.239494 47.957897 0 255 0 0
2019-10-23 07:25:06 GMT 29.239506 47.957897 0 255 0 0
2019-10-23 07:24:51 GMT 29.239508 47.957893 0 255 0 0
2019-10-23 07:24:41 GMT 29.239506 47.957897 0 255 0 0
2019-10-23 07:23:41 GMT 29.239506 47.957886 0 255 0 0
2019-10-23 07:23:26 GMT 29.239519 47.957893 0 255 0 0
2019-10-23 07:23:11 GMT 29.239508 47.957893 0 255 0 0
2019-10-23 07:22:31 GMT 29.239506 47.957897 0 255 0 0
2019-10-23 07:22:16 GMT 29.239494 47.957886 0 255 0 0
2019-10-23 07:21:05 GMT 29.239506 47.957897 0 255 0 0
2019-10-23 07:20:40 GMT 29.239508 47.957909 0 255 0 0
2019-10-23 07:20:24 GMT 29.239506 47.957897 0 255 0 0
2019-10-23 07:20:13 GMT 29.239494 47.957893 0 255 0 0
2019-10-23 07:19:59 GMT 29.239506 47.957897 0 255 0 0
2019-10-23 07:19:45 GMT 29.239531 47.957962 0 261 0 0
2019-10-23 07:19:31 GMT 29.239542 47.957989 0 264 3 0
2019-10-23 07:18:54 GMT 29.239065 47.958702 0 312 8 0
2019-10-23 07:18:45 GMT 29.238831 47.958981 0 253 8 0
2019-10-23 07:18:34 GMT 29.238991 47.959454 0 244 9 0
2019-10-23 07:16:43 GMT 29.239185 47.959930 0 244 1 0
2019-10-23 07:16:29 GMT 29.239391 47.960464 0 244 11 0
2019-10-23 07:16:15 GMT 29.239681 47.961205 0 244 11 0
2019-10-23 07:16:01 GMT 29.239597 47.961990 0 334 22 0
2019-10-23 07:15:47 GMT 29.237709 47.963009 0 334 42 0
2019-10-23 07:15:33 GMT 29.234991 47.964436 0 334 45 0
2019-10-23 07:15:19 GMT 29.232491 47.965794 0 334 48 0
2019-10-23 07:15:05 GMT 29.229103 47.967575 0 334 84 0
2019-10-23 07:14:51 GMT 29.222488 47.971062 225 335 139 -128
2019-10-23 07:14:37 GMT 29.213577 47.975842 275 336 160 -640
2019-10-23 07:14:23 GMT 29.204222 47.980797 475 336 158 -704
2019-10-23 07:14:09 GMT 29.194817 47.985806 675 336 158 -768
2019-10-23 07:13:55 GMT 29.185455 47.990765 875 336 157 -832
2019-10-23 07:13:41 GMT 29.175980 47.995781 1,050 335 156 -704
2019-10-23 07:13:28 GMT 29.167145 48.000481 1,225 336 156 -768
2019-10-23 07:13:13 GMT 29.157669 48.005501 1,400 336 158 -768
2019-10-23 07:12:59 GMT 29.148193 48.010517 1,600 336 164 -704
2019-10-23 07:12:45 GMT 29.138580 48.015640 1,775 335 165 -832
2019-10-23 07:12:34 GMT 29.128527 48.020969 1,975 336 167 -768
2019-10-23 07:12:20 GMT 29.118942 48.026047 2,175 336 169 -832
2019-10-23 07:12:03 GMT 29.108505 48.031593 2,375 336 174 -896
2019-10-23 07:11:49 GMT 29.098251 48.036980 2,575 335 178 -960
2019-10-23 07:11:35 GMT 29.087723 48.042633 2,800 336 180 -896
2019-10-23 07:11:21 GMT 29.076714 48.048328 3,000 336 184 -704
2019-10-23 07:11:07 GMT 29.065933 48.054199 3,025 334 187 64
2019-10-23 07:10:53 GMT 29.054602 48.060123 3,025 339 204 -64
2019-10-23 07:10:39 GMT 29.041382 48.064217 3,050 354 214 192
2019-10-23 07:10:26 GMT 29.027756 48.062439 3,050 16 224 -64
2019-10-23 07:10:12 GMT 29.013636 48.057537 3,025 17 229 64
2019-10-23 07:09:57 GMT 28.999065 48.052528 3,025 16 239 64
2019-10-23 07:09:43 GMT 28.983948 48.047279 3,025 16 243 -384
2019-10-23 07:09:29 GMT 28.968658 48.042000 3,175 16 244 -576
2019-10-23 07:09:15 GMT 28.953630 48.036751 3,300 16 244 -576
2019-10-23 07:09:01 GMT 28.938263 48.031433 3,450 16 243 -576
2019-10-23 07:08:47 GMT 28.922928 48.026100 3,575 16 243 -576
2019-10-23 07:08:33 GMT 28.907728 48.020863 3,725 16 243 -576
2019-10-23 07:08:19 GMT 28.892834 48.015747 3,850 16 243 -576
2019-10-23 07:08:05 GMT 28.877703 48.010632 4,000 16 243 -576
2019-10-23 07:07:51 GMT 28.862457 48.005554 4,150 16 244 -640
2019-10-23 07:07:38 GMT 28.847445 48.000614 4,300 16 248 -640
2019-10-23 07:07:24 GMT 28.831848 47.995445 4,525 16 252 -1280
2019-10-23 07:07:09 GMT 28.816086 47.990185 4,825 16 252 -1088
2019-10-23 07:06:55 GMT 28.799961 47.984726 5,000 17 254 -576
2019-10-23 07:06:40 GMT 28.783173 47.978512 5,025 18 254 0
2019-10-23 07:06:27 GMT 28.768353 47.973633 5,025 14 254 -64
2019-10-23 07:06:13 GMT 28.752756 47.968842 5,050 16 254 0
2019-10-23 07:05:59 GMT 28.737488 47.961891 5,025 33 252 0
2019-10-23 07:05:45 GMT 28.726175 47.948967 5,025 59 248 0
2019-10-23 07:05:31 GMT 28.721241 47.931625 5,050 86 244 0
2019-10-23 07:05:17 GMT 28.723755 47.914284 5,025 116 238 0
2019-10-23 07:05:03 GMT 28.733065 47.900444 5,025 143 233 0
2019-10-23 07:04:49 GMT 28.747238 47.893734 5,025 172 230 0
2019-10-23 07:04:35 GMT 28.762020 47.893715 5,025 183 230 0
2019-10-23 07:04:21 GMT 28.776451 47.894520 5,025 183 230 0
2019-10-23 07:04:07 GMT 28.791302 47.895275 5,025 183 230 0
2019-10-23 07:03:53 GMT 28.806244 47.896057 5,025 183 229 0
2019-10-23 07:03:40 GMT 28.820938 47.896851 5,025 183 230 0
2019-10-23 07:03:25 GMT 28.836182 47.897537 5,025 182 230 0
2019-10-23 07:03:11 GMT 28.850876 47.898121 5,025 183 230 -64
2019-10-23 07:02:57 GMT 28.866205 47.899635 5,025 193 229 64
2019-10-23 07:02:44 GMT 28.879211 47.906094 5,025 220 230 0
2019-10-23 07:02:29 GMT 28.888550 47.919670 5,025 248 235 0
2019-10-23 07:02:14 GMT 28.890930 47.937893 5,025 276 241 0
2019-10-23 07:02:01 GMT 28.885757 47.954002 5,025 304 246 -64
2019-10-23 07:01:47 GMT 28.874222 47.966518 5,050 333 251 64
2019-10-23 07:01:33 GMT 28.858709 47.971802 5,025 0 254 64
2019-10-23 07:01:19 GMT 28.842882 47.968731 5,025 22 254 -64
2019-10-23 07:01:05 GMT 28.827805 47.960815 5,025 24 255 -64
2019-10-23 07:00:51 GMT 28.812424 47.953209 5,025 23 254 64
2019-10-23 07:00:37 GMT 28.797215 47.945683 5,025 23 254 0
2019-10-23 07:00:23 GMT 28.781759 47.938034 5,025 23 253 -64
2019-10-23 07:00:09 GMT 28.767105 47.930759 5,025 23 253 0
2019-10-23 06:59:55 GMT 28.751678 47.922997 5,025 24 254 64
2019-10-23 06:59:41 GMT 28.736298 47.915180 5,025 24 254 -64
2019-10-23 06:59:27 GMT 28.721706 47.907768 5,050 24 254 -64
2019-10-23 06:59:13 GMT 28.706112 47.900120 5,050 20 254 64
2019-10-23 06:58:59 GMT 28.691074 47.895168 5,025 11 253 0
2019-10-23 06:58:45 GMT 28.674225 47.892361 5,025 7 253 64
2019-10-23 06:58:31 GMT 28.658249 47.890198 5,025 6 253 64
2019-10-23 06:58:17 GMT 28.642056 47.888165 5,025 6 253 -128
2019-10-23 06:58:04 GMT 28.625856 47.886227 5,050 0 252 64
2019-10-23 06:57:49 GMT 28.609982 47.889996 5,025 333 248 0
2019-10-23 06:57:35 GMT 28.597645 47.902275 5,025 304 243 -64
2019-10-23 06:57:21 GMT 28.592468 47.918243 5,050 276 237 0
2019-10-23 06:57:07 GMT 28.594666 47.936043 5,050 248 233 0
2019-10-23 06:56:53 GMT 28.603043 47.949303 5,050 222 231 0
2019-10-23 06:56:39 GMT 28.616272 47.957172 5,025 194 230 0
2019-10-23 06:56:25 GMT 28.631023 47.959362 5,050 186 231 64
2019-10-23 06:56:12 GMT 28.645500 47.961086 5,025 186 230 -64
2019-10-23 06:55:57 GMT 28.660629 47.962917 5,025 186 231 0
2019-10-23 06:55:42 GMT 28.677389 47.964855 5,025 187 231 0
2019-10-23 06:55:28 GMT 28.691528 47.966572 5,025 187 231 0
2019-10-23 06:55:15 GMT 28.705366 47.968353 5,025 187 232 0
2019-10-23 06:55:00 GMT 28.721466 47.970428 5,025 187 231 0
2019-10-23 06:54:47 GMT 28.735952 47.972393 5,025 187 231 0
2019-10-23 06:54:33 GMT 28.750849 47.974442 5,025 187 230 0
2019-10-23 06:54:19 GMT 28.765366 47.976398 5,025 187 230 0
2019-10-23 06:54:05 GMT 28.780642 47.978371 5,050 187 230 -64
2019-10-23 06:53:51 GMT 28.795532 47.979092 5,025 173 231 -64
2019-10-23 06:53:37 GMT 28.809271 47.974224 5,050 150 234 0
2019-10-23 06:53:23 GMT 28.821442 47.962505 5,025 127 237 64
2019-10-23 06:53:09 GMT 28.828032 47.947083 5,025 103 242 0
2019-10-23 06:52:55 GMT 28.828730 47.929310 5,050 80 247 -64
2019-10-23 06:52:41 GMT 28.823004 47.912617 5,050 55 252 -64
2019-10-23 06:52:26 GMT 28.810249 47.898991 5,025 28 254 128
2019-10-23 06:52:12 GMT 28.794420 47.893444 5,025 6 254 0
2019-10-23 06:51:58 GMT 28.778128 47.891453 5,050 5 253 0
2019-10-23 06:51:44 GMT 28.760696 47.889458 5,025 5 254 64
2019-10-23 06:51:30 GMT 28.745401 47.887627 5,025 6 253 -64
2019-10-23 06:51:16 GMT 28.728643 47.885635 5,025 6 253 -64
2019-10-23 06:51:02 GMT 28.712173 47.883595 5,025 6 253 64
2019-10-23 06:50:48 GMT 28.696060 47.881535 5,025 6 253 0
2019-10-23 06:50:34 GMT 28.678785 47.879227 5,025 6 252 0
2019-10-23 06:50:18 GMT 28.660126 47.876675 5,025 6 252 64
2019-10-23 06:50:06 GMT 28.646990 47.875027 5,025 6 252 0
2019-10-23 06:49:50 GMT 28.628601 47.872707 5,050 5 252 64
2019-10-23 06:49:38 GMT 28.614544 47.874165 5,025 342 249 0
2019-10-23 06:49:24 GMT 28.600021 47.882961 5,025 320 245 0
2019-10-23 06:49:10 GMT 28.590729 47.896481 5,025 295 241 0
2019-10-23 06:48:56 GMT 28.586845 47.913422 5,025 272 237 0
2019-10-23 06:48:42 GMT 28.589172 47.930393 5,025 247 234 -64
2019-10-23 06:48:28 GMT 28.597229 47.944916 5,050 226 232 0
2019-10-23 06:48:14 GMT 28.609842 47.954945 5,025 203 230 128
2019-10-23 06:47:59 GMT 28.624924 47.958714 5,025 187 231 0
2019-10-23 06:47:45 GMT 28.640844 47.960655 5,025 187 231 0
2019-10-23 06:47:32 GMT 28.654486 47.962376 5,025 187 231 0
2019-10-23 06:47:18 GMT 28.669647 47.964249 5,025 187 231 0
2019-10-23 06:47:04 GMT 28.684233 47.966038 5,025 187 232 0
2019-10-23 06:46:50 GMT 28.699036 47.967892 5,025 187 232 0
2019-10-23 06:46:36 GMT 28.714691 47.969849 5,025 187 232 0
2019-10-23 06:46:22 GMT 28.729019 47.971588 5,025 187 231 0
2019-10-23 06:46:08 GMT 28.743679 47.973415 5,025 187 231 0
2019-10-23 06:45:54 GMT 28.758774 47.975288 5,025 187 231 0
2019-10-23 06:45:39 GMT 28.774933 47.977295 5,025 187 230 0
2019-10-23 06:45:26 GMT 28.788603 47.978966 5,025 187 230 0
2019-10-23 06:45:12 GMT 28.803267 47.980797 5,025 186 230 0
2019-10-23 06:44:58 GMT 28.818350 47.982574 5,025 187 230 0
2019-10-23 06:44:44 GMT 28.833298 47.984425 5,025 187 230 0
2019-10-23 06:44:30 GMT 28.848175 47.986221 5,025 187 229 0
2019-10-23 06:44:16 GMT 28.862713 47.988010 5,025 187 229 0
2019-10-23 06:44:02 GMT 28.878113 47.989918 5,025 187 229 0
2019-10-23 06:43:48 GMT 28.892303 47.991714 5,025 187 229 0
2019-10-23 06:43:34 GMT 28.907171 47.993561 5,025 187 230 0
2019-10-23 06:43:20 GMT 28.922113 47.995552 5,050 187 229 -64
2019-10-23 06:43:06 GMT 28.937073 47.997578 5,050 187 229 64
2019-10-23 06:42:51 GMT 28.952637 47.999638 4,925 187 229 960
2019-10-23 06:42:38 GMT 28.966507 48.001328 4,650 186 227 1152
2019-10-23 06:42:23 GMT 28.982212 48.003201 4,350 187 224 1280
2019-10-23 06:42:09 GMT 28.996784 48.003090 4,000 168 226 1408
2019-10-23 06:41:55 GMT 29.010956 47.996098 3,700 148 230 1216
2019-10-23 06:41:41 GMT 29.023178 47.987526 3,425 147 231 1152
2019-10-23 06:41:27 GMT 29.035889 47.978428 3,200 148 230 896
2019-10-23 06:41:12 GMT 29.049866 47.970905 3,050 165 224 384
2019-10-23 06:40:59 GMT 29.063004 47.971008 3,025 197 213 64
2019-10-23 06:40:45 GMT 29.074713 47.978912 3,025 227 210 -128
2019-10-23 06:40:31 GMT 29.083605 47.991405 3,025 230 212 0
2019-10-23 06:40:17 GMT 29.093170 48.002014 3,125 219 197 -576
2019-10-23 06:40:03 GMT 29.102005 48.010410 2,900 230 162 1152
2019-10-23 06:39:49 GMT 29.105808 48.021400 2,775 272 162 448
2019-10-23 06:39:35 GMT 29.102179 48.032658 2,700 312 174 192
2019-10-23 06:39:21 GMT 29.092392 48.040310 2,775 336 188 -576
2019-10-23 06:39:07 GMT 29.081324 48.045959 2,925 336 190 -896
2019-10-23 06:38:53 GMT 29.070150 48.051937 3,025 335 192 64
2019-10-23 06:38:39 GMT 29.058609 48.057949 3,075 336 199 -384
2019-10-23 06:38:26 GMT 29.046921 48.064541 3,175 330 208 -576
2019-10-23 06:38:12 GMT 29.035995 48.073689 3,275 317 209 -448
2019-10-23 06:37:57 GMT 29.026062 48.085205 3,375 315 216 -320
2019-10-23 06:37:43 GMT 29.016289 48.096584 3,475 315 225 -384
2019-10-23 06:37:29 GMT 29.005737 48.108814 3,550 315 237 -256
2019-10-23 06:37:15 GMT 28.994522 48.121861 3,650 315 248 -448
2019-10-23 06:37:01 GMT 28.983261 48.135014 3,825 315 255 -960
2019-10-23 06:36:48 GMT 28.971691 48.148499 4,075 315 259 -1024
2019-10-23 06:36:33 GMT 28.959496 48.162769 4,300 315 260 -1024
2019-10-23 06:36:19 GMT 28.947647 48.176529 4,525 315 261 -960
2019-10-23 06:36:05 GMT 28.935846 48.190235 4,775 315 260 -960
2019-10-23 06:35:51 GMT 28.924164 48.203888 5,000 315 260 -1024
2019-10-23 06:35:37 GMT 28.912125 48.217831 5,225 315 260 -960
2019-10-23 06:35:23 GMT 28.900467 48.231487 5,450 315 260 -1024
2019-10-23 06:35:13 GMT 28.888641 48.245193 5,700 315 260 -960
2019-10-23 06:34:58 GMT 28.876865 48.258900 5,925 315 260 -960
2019-10-23 06:34:41 GMT 28.864838 48.272976 6,150 315 261 -1024
2019-10-23 06:34:28 GMT 28.853256 48.286392 6,375 315 262 -960
2019-10-23 06:34:13 GMT 28.841112 48.300476 6,625 315 264 -1024
2019-10-23 06:33:59 GMT 28.829178 48.314331 6,850 315 267 -960
2019-10-23 06:33:45 GMT 28.816952 48.328587 7,075 315 270 -1024
2019-10-23 06:33:26 GMT 28.800018 48.348190 7,425 315 274 -1024
2019-10-23 06:33:17 GMT 28.791580 48.357994 7,575 315 277 -1024
2019-10-23 06:32:39 GMT 28.756760 48.398418 8,275 315 282 -1088
2019-10-23 06:32:34 GMT 28.752319 48.403542 8,350 315 284 -1152
2019-10-23 06:32:20 GMT 28.739182 48.418701 8,650 315 286 -1280
2019-10-23 06:32:06 GMT 28.726873 48.432903 8,975 315 282 -1280
2019-10-23 06:31:53 GMT 28.714258 48.447552 9,325 315 279 -2112
2019-10-23 06:31:39 GMT 28.701643 48.462254 9,725 315 275 -1088
2019-10-23 06:31:22 GMT 28.687119 48.479057 10,000 315 280 -640
2019-10-23 06:31:09 GMT 28.675154 48.492897 10,000 315 288 64
2019-10-23 06:30:55 GMT 28.661654 48.508572 10,075 315 299 -448
2019-10-23 06:30:41 GMT 28.647812 48.524551 10,175 315 308 -448
2019-10-23 06:30:27 GMT 28.633713 48.540821 10,300 315 316 -512
2019-10-23 06:30:13 GMT 28.619291 48.557468 10,500 315 323 -1344
2019-10-23 06:29:58 GMT 28.603045 48.576210 10,850 315 325 -1280
2019-10-23 06:29:45 GMT 28.589359 48.592045 11,125 315 328 -1344
2019-10-23 06:29:30 GMT 28.573334 48.610542 11,450 315 330 -1408
2019-10-23 06:29:17 GMT 28.559238 48.626781 11,750 315 333 -1344
2019-10-23 06:29:03 GMT 28.544266 48.644028 12,075 315 336 -1408
2019-10-23 06:28:49 GMT 28.529022 48.661617 12,400 315 338 -1408
2019-10-23 06:28:35 GMT 28.512920 48.680096 12,725 315 340 -1408
2019-10-23 06:28:21 GMT 28.497326 48.698086 13,050 315 343 -1344
2019-10-23 06:28:07 GMT 28.481823 48.715965 13,350 315 347 -1344
2019-10-23 06:27:52 GMT 28.465210 48.735035 13,700 315 350 -1344
2019-10-23 06:27:39 GMT 28.450027 48.752476 14,000 315 354 -1408
2019-10-23 06:27:25 GMT 28.433968 48.770844 14,425 315 353 -2112
2019-10-23 06:27:11 GMT 28.417255 48.789906 15,075 315 345 -2880
2019-10-23 06:26:57 GMT 28.401520 48.808002 15,675 315 338 -2880
2019-10-23 06:26:42 GMT 28.385693 48.826260 16,325 315 331 -1792
2019-10-23 06:26:29 GMT 28.371277 48.842838 16,650 315 332 -1536
2019-10-23 06:26:15 GMT 28.355988 48.860374 17,025 315 333 -1600
2019-10-23 06:26:00 GMT 28.339977 48.878712 17,400 315 333 -1728
2019-10-23 06:25:47 GMT 28.325407 48.893414 17,800 322 334 -1792
2019-10-23 06:25:33 GMT 28.307671 48.908226 18,000 328 336 64
2019-10-23 06:25:17 GMT 28.286087 48.922859 18,050 330 339 -512
2019-10-23 06:25:05 GMT 28.269699 48.933685 18,275 330 341 -1472
2019-10-23 06:24:51 GMT 28.250931 48.946098 18,600 330 342 -1472
2019-10-23 06:24:36 GMT 28.230331 48.959621 18,975 330 342 -1472
2019-10-23 06:24:23 GMT 28.212479 48.971397 19,275 330 342 -1472
2019-10-23 06:24:08 GMT 28.191971 48.984974 19,650 330 344 -1472
2019-10-23 06:23:55 GMT 28.174206 48.996708 19,975 330 346 -1536
2019-10-23 06:23:41 GMT 28.153862 49.010063 20,350 330 347 -1536
2019-10-23 06:23:27 GMT 28.133881 49.023266 20,700 330 348 -1536
2019-10-23 06:23:12 GMT 28.112961 49.036999 21,100 330 347 -1472
2019-10-23 06:22:58 GMT 28.093597 49.049782 21,425 330 347 -1472
2019-10-23 06:22:44 GMT 28.074583 49.062248 21,775 330 349 -1536
2019-10-23 06:22:21 GMT 28.041870 49.083691 22,375 330 351 -1536
2019-10-23 06:22:14 GMT 28.032120 49.090137 22,525 330 354 -1472
2019-10-23 06:22:01 GMT 28.013647 49.102207 22,875 330 357 -1536
2019-10-23 06:21:44 GMT 27.989487 49.117989 23,300 330 359 -1600
2019-10-23 06:21:32 GMT 27.972681 49.128922 23,600 330 362 -1536
2019-10-23 06:20:53 GMT 27.915482 49.166512 24,600 330 365 -1536
2019-10-23 06:20:37 GMT 27.891214 49.182781 25,050 327 366 -1536
2019-10-23 06:19:13 GMT 27.774601 49.283718 26,000 322 418 64
2019-10-23 06:18:59 GMT 27.753387 49.302807 26,000 322 427 64
2019-10-23 06:18:52 GMT 27.743319 49.311817 26,000 322 433 0
2019-10-23 06:18:45 GMT 27.730888 49.323013 26,000 322 434 0
2019-10-23 06:18:28 GMT 27.705322 49.345974 26,000 322 434 0
2019-10-23 06:18:16 GMT 27.686783 49.362659 26,000 322 434 0
2019-10-23 06:18:07 GMT 27.672318 49.375668 26,000 322 434 0
2019-10-23 06:18:01 GMT 27.663208 49.383858 26,000 322 434 0
2019-10-23 06:17:46 GMT 27.639313 49.405312 26,000 322 434 0
2019-10-23 06:17:34 GMT 27.620407 49.422203 26,000 322 434 0
2019-10-23 06:17:26 GMT 27.608038 49.433247 26,000 322 434 0
2019-10-23 06:17:23 GMT 27.600590 49.439903 26,000 322 434 0
2019-10-23 06:17:13 GMT 27.586670 49.452366 26,000 322 434 0
2019-10-23 06:17:06 GMT 27.575729 49.462193 26,000 322 434 0
2019-10-23 06:16:57 GMT 27.560211 49.476101 26,000 322 434 0
2019-10-23 06:16:49 GMT 27.549103 49.486065 26,000 322 435 0
2019-10-23 06:16:41 GMT 27.536591 49.497349 26,000 322 435 0
2019-10-23 06:16:33 GMT 27.522400 49.510044 26,000 322 436 0
2019-10-23 06:16:23 GMT 27.509022 49.522301 26,000 320 434 0
2019-10-23 06:16:08 GMT 27.485138 49.546318 26,000 318 433 0
2019-10-23 06:16:01 GMT 27.475504 49.557003 26,000 315 432 0
2019-10-23 06:15:51 GMT 27.461792 49.573265 26,000 311 431 0
2019-10-23 06:15:20 GMT 27.420593 49.627525 26,000 311 432 0
2019-10-23 06:14:54 GMT 27.387085 49.671936 26,000 311 432 0
2019-10-23 06:14:44 GMT 27.375595 49.687225 26,000 311 432 0
2019-10-23 06:14:35 GMT 27.363079 49.703785 26,000 311 432 0
2019-10-23 06:14:25 GMT 27.349579 49.721584 26,000 311 433 0
2019-10-23 06:14:14 GMT 27.335846 49.739807 26,000 311 433 0
2019-10-23 06:14:03 GMT 27.322206 49.757820 26,000 311 432 0
2019-10-23 06:13:50 GMT 27.304564 49.781219 26,000 311 433 0
2019-10-23 06:13:40 GMT 27.292145 49.797604 26,000 311 433 0
2019-10-23 06:13:32 GMT 27.280472 49.813049 26,000 311 433 0
2019-10-23 06:13:21 GMT 27.267414 49.830341 26,000 311 434 0
2019-10-23 06:13:11 GMT 27.253496 49.848721 26,000 311 434 0
2019-10-23 06:12:59 GMT 27.239017 49.867840 26,000 311 434 0
2019-10-23 06:12:49 GMT 27.224913 49.886379 26,000 311 435 0
2019-10-23 06:12:38 GMT 27.211761 49.903687 26,000 311 435 0
2019-10-23 06:12:31 GMT 27.202606 49.915760 26,000 311 435 0
2019-10-23 06:12:28 GMT 27.198097 49.921665 26,000 311 435 0
2019-10-23 06:12:23 GMT 27.192232 49.929428 26,000 311 435 0
2019-10-23 06:12:17 GMT 27.183203 49.941311 26,000 311 435 0
2019-10-23 06:12:12 GMT 27.177750 49.948460 26,000 311 436 0
2019-10-23 06:12:06 GMT 27.169981 49.958744 26,000 311 435 0
2019-10-23 06:12:02 GMT 27.163879 49.966751 26,000 311 436 0
2019-10-23 06:11:56 GMT 27.155970 49.977123 26,000 311 436 0
2019-10-23 06:11:46 GMT 27.141678 49.995926 26,000 311 436 0
2019-10-23 06:11:38 GMT 27.133484 50.006657 26,000 311 436 0
2019-10-23 06:11:34 GMT 27.127808 50.014069 26,000 311 436 0
2019-10-23 06:11:25 GMT 27.114487 50.031685 26,000 311 436 0
2019-10-23 06:11:18 GMT 27.106297 50.042461 26,000 311 436 0
2019-10-23 06:11:07 GMT 27.092192 50.061108 26,000 311 435 0
2019-10-23 06:11:00 GMT 27.082743 50.073463 26,000 311 436 0
2019-10-23 06:10:56 GMT 27.077389 50.080544 26,000 311 436 0
2019-10-23 06:10:52 GMT 27.071732 50.088070 26,000 310 435 0
2019-10-23 06:10:41 GMT 27.058685 50.106415 26,000 308 434 0
2019-10-23 06:10:33 GMT 27.049759 50.119732 26,000 306 434 0
2019-10-23 06:10:30 GMT 27.046188 50.125225 26,000 306 433 0
2019-10-23 06:10:21 GMT 27.034653 50.143829 26,000 304 432 0
2019-10-23 06:10:12 GMT 27.025110 50.160511 26,000 302 431 0
2019-10-23 06:10:07 GMT 27.019821 50.170105 26,000 302 431 0
2019-10-23 06:09:58 GMT 27.010986 50.186325 26,000 302 431 0
2019-10-23 06:09:48 GMT 26.999817 50.206692 26,000 302 431 0
2019-10-23 06:09:37 GMT 26.988968 50.226486 26,000 302 430 0
2019-10-23 06:09:27 GMT 26.977905 50.246765 26,000 302 430 0
2019-10-23 06:09:15 GMT 26.966360 50.267838 26,000 302 430 0
2019-10-23 06:09:04 GMT 26.954910 50.288673 26,000 302 431 0
2019-10-23 06:08:54 GMT 26.943785 50.308880 26,000 302 430 0
2019-10-23 06:08:43 GMT 26.933216 50.328106 26,000 302 430 0
2019-10-23 06:08:34 GMT 26.922455 50.347752 26,000 302 430 0
2019-10-23 06:08:23 GMT 26.911652 50.367546 26,000 302 430 0
2019-10-23 06:08:12 GMT 26.900536 50.387844 26,000 302 431 0
2019-10-23 06:08:02 GMT 26.889038 50.409233 26,000 300 430 0
2019-10-23 06:07:49 GMT 26.877958 50.432106 26,000 298 428 0
2019-10-23 06:07:40 GMT 26.869812 50.450592 26,000 295 428 0
2019-10-23 06:07:28 GMT 26.860455 50.474518 26,000 292 426 0
2019-10-23 06:07:19 GMT 26.853798 50.493641 26,000 291 426 0
2019-10-23 06:07:07 GMT 26.845734 50.517262 26,000 291 426 0
2019-10-23 06:06:56 GMT 26.837645 50.540859 26,000 291 427 0
2019-10-23 06:06:45 GMT 26.829683 50.563942 26,000 291 427 0
2019-10-23 06:06:37 GMT 26.823669 50.581367 26,000 291 427 0
2019-10-23 06:06:25 GMT 26.815933 50.603855 26,000 291 426 -64
2019-10-23 06:06:21 GMT 26.812775 50.613132 26,000 291 426 0
2019-10-23 06:06:15 GMT 26.807877 50.627590 26,000 291 426 0
2019-10-23 06:06:10 GMT 26.805523 50.634720 26,000 290 426 0
2019-10-23 06:06:04 GMT 26.801102 50.648525 26,000 290 426 0
2019-10-23 06:06:01 GMT 26.799473 50.653576 26,000 290 426 0
2019-10-23 06:05:53 GMT 26.790209 50.682678 26,000 290 426 0
2019-10-23 06:05:43 GMT 26.786636 50.693974 26,000 290 426 0
2019-10-23 06:05:39 GMT 26.784576 50.700401 26,000 290 426 0
2019-10-23 06:05:31 GMT 26.779816 50.715378 26,000 290 426 0
2019-10-23 06:05:28 GMT 26.777313 50.723137 26,000 290 426 0
2019-10-23 06:05:22 GMT 26.772949 50.736935 26,000 290 425 0
2019-10-23 06:05:18 GMT 26.770615 50.744190 26,000 290 425 0
2019-10-23 06:05:10 GMT 26.765854 50.759117 26,000 290 425 0
2019-10-23 06:05:01 GMT 26.758970 50.780815 26,000 290 425 0
2019-10-23 06:04:53 GMT 26.754181 50.795807 26,000 290 425 0
2019-10-23 06:04:50 GMT 26.752081 50.802364 26,000 290 425 0
2019-10-23 06:04:45 GMT 26.748917 50.812298 26,000 290 425 0
2019-10-23 06:04:39 GMT 26.744959 50.824707 26,000 290 425 0
2019-10-23 06:04:34 GMT 26.741592 50.835140 26,000 290 425 0
2019-10-23 06:04:29 GMT 26.737743 50.847263 26,000 290 425 0
2019-10-23 06:04:23 GMT 26.734772 50.856697 26,000 290 425 0
2019-10-23 06:04:18 GMT 26.731110 50.868046 26,000 290 425 0
2019-10-23 06:04:12 GMT 26.727268 50.880169 26,000 290 425 0
2019-10-23 06:04:08 GMT 26.723969 50.890640 26,000 290 425 0
2019-10-23 06:03:56 GMT 26.717056 50.912354 26,000 290 425 0
2019-10-23 06:03:50 GMT 26.712791 50.925697 26,000 290 425 0
2019-10-23 06:03:46 GMT 26.709961 50.934689 26,000 290 425 0
2019-10-23 06:03:39 GMT 26.705521 50.948528 26,000 290 424 0
2019-10-23 06:03:36 GMT 26.702774 50.957233 26,000 290 425 0
2019-10-23 06:03:28 GMT 26.698174 50.971600 26,000 290 425 0
2019-10-23 06:03:25 GMT 26.696173 50.977829 26,000 290 425 0
2019-10-23 06:03:15 GMT 26.688858 51.000454 25,975 291 425 64
2019-10-23 06:03:04 GMT 26.681900 51.021492 25,975 291 425 64
2019-10-23 06:02:56 GMT 26.676620 51.037727 25,975 291 425 64
2019-10-23 06:02:53 GMT 26.674805 51.043156 25,975 291 425 0
2019-10-23 06:02:46 GMT 26.669861 51.058235 26,000 291 426 -448
2019-10-23 06:02:43 GMT 26.667356 51.065773 26,025 291 426 -768
2019-10-23 06:02:35 GMT 26.662189 51.081463 26,150 291 427 -1088
2019-10-23 06:02:30 GMT 26.659103 51.090881 26,250 291 427 -1152
2019-10-23 06:02:22 GMT 26.653015 51.109280 26,425 291 427 -1088
2019-10-23 06:02:11 GMT 26.645897 51.130898 26,600 291 427 -1024
2019-10-23 06:02:06 GMT 26.642731 51.140408 26,675 291 427 -896
2019-10-23 06:02:02 GMT 26.640106 51.148354 26,725 291 428 -960
2019-10-23 06:01:59 GMT 26.637909 51.154987 26,775 291 428 -1024
2019-10-23 06:01:50 GMT 26.631466 51.174580 26,925 291 428 -1088
2019-10-23 06:01:39 GMT 26.624063 51.196976 27,150 291 428 -1024
2019-10-23 06:01:29 GMT 26.616714 51.219090 27,350 291 428 -1152
2019-10-23 06:01:18 GMT 26.609344 51.241322 27,525 291 429 -896
2019-10-23 06:01:09 GMT 26.603302 51.259617 27,700 291 429 -1216
2019-10-23 06:01:06 GMT 26.601856 51.263897 27,725 291 429 -1280
2019-10-23 06:00:57 GMT 26.594782 51.285290 27,925 291 429 -896
2019-10-23 06:00:46 GMT 26.587566 51.307156 28,000 291 430 -64
2019-10-23 06:00:35 GMT 26.580093 51.329731 28,000 291 430 0
2019-10-23 06:00:25 GMT 26.572668 51.352158 28,000 291 430 0
2019-10-23 06:00:13 GMT 26.564802 51.375874 28,000 291 430 0
2019-10-23 06:00:03 GMT 26.557938 51.396584 28,000 291 430 0
2019-10-23 05:59:53 GMT 26.550659 51.418659 28,000 291 430 0
2019-10-23 05:59:42 GMT 26.543427 51.440529 28,000 291 430 0
2019-10-23 05:59:31 GMT 26.535892 51.463131 28,000 291 430 0
2019-10-23 05:59:20 GMT 26.528212 51.486263 28,000 291 430 0
2019-10-23 05:59:09 GMT 26.520437 51.509560 28,000 291 430 0
2019-10-23 05:58:58 GMT 26.513260 51.531113 28,000 291 430 0
2019-10-23 05:58:47 GMT 26.505798 51.553604 28,000 291 430 0
2019-10-23 05:58:39 GMT 26.499298 51.573139 28,000 291 430 0
2019-10-23 05:58:33 GMT 26.495811 51.583611 28,000 291 430 0
2019-10-23 05:58:27 GMT 26.491745 51.595787 28,000 291 429 0
2019-10-23 05:58:24 GMT 26.489573 51.602306 28,000 291 429 0
2019-10-23 05:58:15 GMT 26.483196 51.621429 28,000 291 430 0
2019-10-23 05:58:06 GMT 26.477144 51.639492 28,000 291 430 0
2019-10-23 05:58:03 GMT 26.475311 51.645020 28,000 291 430 0
2019-10-23 05:57:55 GMT 26.469835 51.661255 28,000 291 430 0
2019-10-23 05:57:50 GMT 26.466251 51.672081 28,000 291 429 0
2019-10-23 05:57:42 GMT 26.460339 51.689671 28,000 291 429 0
2019-10-23 05:57:31 GMT 26.452703 51.712486 28,000 291 428 0
2019-10-23 05:57:25 GMT 26.448280 51.725746 28,000 291 428 0
2019-10-23 05:57:19 GMT 26.444883 51.735886 28,000 291 429 0
2019-10-23 05:57:13 GMT 26.440508 51.748932 28,000 291 429 0
2019-10-23 05:57:09 GMT 26.437408 51.758144 28,000 291 429 0
2019-10-23 05:57:04 GMT 26.433151 51.770790 28,000 291 428 0
2019-10-23 05:56:58 GMT 26.429661 51.781258 28,000 291 429 0
2019-10-23 05:56:53 GMT 26.425690 51.793125 28,000 291 429 0
2019-10-23 05:56:47 GMT 26.422485 51.802662 28,000 291 429 0
2019-10-23 05:56:36 GMT 26.414717 51.825733 28,000 291 428 0
2019-10-23 05:56:32 GMT 26.410900 51.837090 28,000 291 429 0
2019-10-23 05:56:25 GMT 26.407362 51.847652 28,000 291 429 0
2019-10-23 05:56:20 GMT 26.403351 51.859562 28,000 291 429 0
2019-10-23 05:56:15 GMT 26.399729 51.870205 28,000 291 429 0
2019-10-23 05:56:03 GMT 26.391541 51.894596 28,000 291 429 0
2019-10-23 05:56:00 GMT 26.389345 51.901104 28,000 291 430 0
2019-10-23 05:55:52 GMT 26.383993 51.916370 28,000 292 430 0
2019-10-23 05:55:42 GMT 26.376205 51.937607 28,000 293 430 0
2019-10-23 05:55:31 GMT 26.367559 51.959995 28,000 295 432 0
2019-10-23 05:55:20 GMT 26.358389 51.982288 28,000 296 433 0
2019-10-23 05:55:09 GMT 26.348877 52.004303 28,000 296 433 0
2019-10-23 05:54:58 GMT 26.339127 52.026897 28,000 296 434 64
2019-10-23 05:54:47 GMT 26.329479 52.049210 28,000 296 436 0
2019-10-23 05:54:36 GMT 26.319843 52.071606 28,000 296 438 0
2019-10-23 05:54:24 GMT 26.309738 52.095043 28,000 296 444 0
2019-10-23 05:54:13 GMT 26.299805 52.118103 28,000 296 450 0
2019-10-23 05:54:03 GMT 26.290888 52.138893 28,000 296 457 -64
2019-10-23 05:53:53 GMT 26.281300 52.161289 28,000 296 459 0
2019-10-23 05:53:41 GMT 26.270370 52.186768 28,000 296 459 0
2019-10-23 05:53:30 GMT 26.259977 52.210995 28,000 296 459 0
2019-10-23 05:53:20 GMT 26.251328 52.231178 28,000 296 459 0
2019-10-23 05:53:08 GMT 26.240341 52.256783 28,000 296 459 0
2019-10-23 05:52:57 GMT 26.230087 52.280464 28,000 296 460 0
2019-10-23 05:52:47 GMT 26.220703 52.301712 28,000 297 460 0
2019-10-23 05:52:36 GMT 26.209887 52.325768 28,000 297 461 0
2019-10-23 05:52:23 GMT 26.197643 52.353127 28,000 297 461 0
2019-10-23 05:52:11 GMT 26.186188 52.378719 28,000 297 461 0
2019-10-23 05:52:00 GMT 26.175764 52.401932 28,000 297 460 0
2019-10-23 05:51:51 GMT 26.167107 52.421211 28,000 297 461 0
2019-10-23 05:51:41 GMT 26.157797 52.441971 28,000 297 460 0
2019-10-23 05:51:30 GMT 26.147787 52.464207 28,000 297 459 0
2019-10-23 05:51:20 GMT 26.138168 52.485420 28,000 297 459 0
2019-10-23 05:51:09 GMT 26.127594 52.508842 28,000 297 459 0
2019-10-23 05:50:58 GMT 26.116699 52.532944 28,000 297 459 0
2019-10-23 05:50:46 GMT 26.105610 52.557274 28,000 297 459 0
2019-10-23 05:50:36 GMT 26.095825 52.578648 28,000 297 458 0
2019-10-23 05:50:22 GMT 26.081869 52.609035 28,000 297 458 0
2019-10-23 05:50:14 GMT 26.074860 52.624252 28,000 298 459 0
2019-10-23 05:50:03 GMT 26.064102 52.647572 28,000 298 459 0
2019-10-23 05:49:53 GMT 26.053564 52.670361 28,000 298 459 0
2019-10-23 05:49:42 GMT 26.043228 52.692760 28,000 298 460 0
2019-10-23 05:49:27 GMT 26.029264 52.723705 28,000 296 459 0
2019-10-23 05:49:20 GMT 26.022795 52.739391 28,000 295 459 0
2019-10-23 05:49:09 GMT 26.013153 52.763187 28,000 295 460 0
2019-10-23 05:48:58 GMT 26.004032 52.785664 28,000 295 459 0
2019-10-23 05:48:47 GMT 25.993835 52.811020 28,000 295 460 0
2019-10-23 05:48:35 GMT 25.983969 52.835468 28,000 294 460 0
2019-10-23 05:48:23 GMT 25.973511 52.861496 28,000 294 460 0
2019-10-23 05:48:14 GMT 25.965302 52.881897 28,000 294 460 0
2019-10-23 05:48:02 GMT 25.954828 52.908043 28,000 294 461 0
2019-10-23 05:47:51 GMT 25.945704 52.930965 28,000 294 461 0
2019-10-23 05:47:32 GMT 25.929611 52.971409 28,000 294 461 0
2019-10-23 05:47:29 GMT 25.927048 52.977886 28,000 294 462 0
2019-10-23 05:47:20 GMT 25.918762 52.998722 28,000 294 462 0
2019-10-23 05:47:10 GMT 25.909765 53.021183 28,000 294 462 -64
2019-10-23 05:46:59 GMT 25.900177 53.044945 28,025 295 463 0
2019-10-23 05:46:47 GMT 25.889465 53.070908 28,025 295 464 -128
2019-10-23 05:46:35 GMT 25.878622 53.096661 28,050 295 463 0
2019-10-23 05:46:25 GMT 25.870056 53.117367 28,000 302 463 1024
2019-10-23 05:46:11 GMT 25.855133 53.145741 27,775 309 463 1600
2019-10-23 05:45:52 GMT 25.826857 53.177509 27,175 324 464 2112
2019-10-23 05:45:41 GMT 25.806976 53.191578 26,800 334 467 1920
2019-10-23 05:45:30 GMT 25.783981 53.201450 26,450 345 470 2048
2019-10-23 05:45:17 GMT 25.757401 53.208858 26,000 347 468 2176
2019-10-23 05:45:04 GMT 25.729841 53.216373 25,525 347 464 2048
2019-10-23 05:44:53 GMT 25.705681 53.223007 25,150 347 461 2176
2019-10-23 05:44:43 GMT 25.686035 53.228397 24,775 347 459 2304
2019-10-23 05:44:32 GMT 25.663597 53.234512 24,375 347 456 2112
2019-10-23 05:44:25 GMT 25.649073 53.238503 24,150 347 451 2048
2019-10-23 05:44:12 GMT 25.622305 53.245705 23,650 347 446 2176
2019-10-23 05:44:03 GMT 25.604755 53.250473 23,375 347 445 1856
2019-10-23 05:43:50 GMT 25.579105 53.257469 23,000 347 438 1664
2019-10-23 05:43:42 GMT 25.561798 53.262177 22,800 347 431 1216
2019-10-23 05:43:31 GMT 25.540604 53.267975 22,575 346 417 1088
2019-10-23 05:42:51 GMT 25.469149 53.287525 21,875 346 391 1152
2019-10-23 05:42:44 GMT 25.456924 53.290813 21,725 347 378 1984
2019-10-23 05:42:24 GMT 25.422226 53.300274 20,975 347 375 2240
2019-10-23 05:42:15 GMT 25.406536 53.304523 20,625 347 375 2048
2019-10-23 05:41:34 GMT 25.338638 53.322956 20,000 347 370 0
2019-10-23 05:41:31 GMT 25.333355 53.324425 20,000 347 369 0
2019-10-23 05:40:58 GMT 25.278284 53.339401 20,000 347 370 0
2019-10-23 05:40:47 GMT 25.259811 53.344421 20,000 347 370 0
2019-10-23 05:40:36 GMT 25.241272 53.349457 20,000 347 370 0
2019-10-23 05:40:25 GMT 25.223740 53.354237 20,000 347 370 0
2019-10-23 05:40:14 GMT 25.203964 53.359577 20,000 347 371 0
2019-10-23 05:40:03 GMT 25.186432 53.364307 20,000 347 370 0
2019-10-23 05:39:51 GMT 25.165768 53.369923 20,000 347 370 0
2019-10-23 05:39:40 GMT 25.148403 53.374641 20,000 347 370 0
2019-10-23 05:39:30 GMT 25.130527 53.379459 20,000 347 370 0
2019-10-23 05:39:12 GMT 25.100693 53.387554 20,000 347 370 0
2019-10-23 05:39:08 GMT 25.093872 53.389385 20,000 347 369 0
2019-10-23 05:38:54 GMT 25.070709 53.395641 20,000 347 369 0
2019-10-23 05:38:45 GMT 25.056747 53.399403 20,000 347 368 0
2019-10-23 05:38:36 GMT 25.041195 53.403606 20,000 347 368 0
2019-10-23 05:38:26 GMT 25.023970 53.408272 20,000 347 365 0
2019-10-23 05:38:14 GMT 25.004278 53.413559 20,000 347 360 0
2019-10-23 05:38:00 GMT 24.981466 53.419777 20,000 347 358 0
2019-10-23 05:37:52 GMT 24.968573 53.423248 20,000 347 357 0
2019-10-23 05:37:29 GMT 24.932877 53.432922 20,000 347 357 0
2019-10-23 05:36:44 GMT 24.860687 53.452557 20,000 347 356 0
2019-10-23 05:36:27 GMT 24.832827 53.460148 20,000 347 356 0
2019-10-23 05:36:07 GMT 24.800812 53.468781 20,000 347 356 0
2019-10-23 05:36:03 GMT 24.792938 53.470867 20,000 347 356 0
2019-10-23 05:35:53 GMT 24.778519 53.474731 20,000 347 356 0
2019-10-23 05:35:25 GMT 24.733154 53.486786 20,000 347 356 64
2019-10-23 05:35:16 GMT 24.716721 53.491108 20,000 347 356 0
2019-10-23 05:35:07 GMT 24.703272 53.494556 20,000 347 357 0
2019-10-23 05:35:01 GMT 24.692797 53.497356 20,000 346 357 0
2019-10-23 05:34:49 GMT 24.674501 53.503159 20,000 337 355 0
2019-10-23 05:34:29 GMT 24.643684 53.517151 20,000 335 353 128
2019-10-23 05:34:17 GMT 24.627529 53.525547 19,950 335 352 192
2019-10-23 05:34:00 GMT 24.601788 53.539070 19,825 335 351 512
2019-10-23 05:33:56 GMT 24.580048 53.550629 19,300 334 348 2368
2019-10-23 05:33:45 GMT 24.580048 53.550629 19,500 334 348 2112
2019-10-23 05:33:40 GMT 24.573204 53.554256 19,300 334 348 2368
2019-10-23 05:33:35 GMT 24.564545 53.558922 19,025 334 346 2880
2019-10-23 05:33:32 GMT 24.561035 53.560841 18,925 334 342 2176
2019-10-23 05:33:25 GMT 24.550232 53.566639 18,575 334 343 2496
2019-10-23 05:33:21 GMT 24.545517 53.569183 18,450 334 342 2176
2019-10-23 05:33:13 GMT 24.534348 53.575287 18,200 334 337 1664
2019-10-23 05:33:02 GMT 24.519203 53.583588 17,825 334 330 2368
2019-10-23 05:32:51 GMT 24.503748 53.592190 17,225 333 327 3392
2019-10-23 05:32:42 GMT 24.490807 53.599548 16,700 333 328 3200
2019-10-23 05:32:31 GMT 24.477724 53.607010 16,200 333 326 3072
2019-10-23 05:32:20 GMT 24.462921 53.615665 15,625 332 325 3264
2019-10-23 05:32:11 GMT 24.449158 53.623608 15,025 333 324 3648
2019-10-23 05:32:04 GMT 24.441330 53.628132 14,675 333 321 2816
2019-10-23 05:31:58 GMT 24.432770 53.633118 14,300 333 324 3392
2019-10-23 05:31:47 GMT 24.418465 53.641266 13,750 333 321 2816
2019-10-23 05:31:39 GMT 24.406174 53.648376 13,275 332 317 3072
2019-10-23 05:31:28 GMT 24.393232 53.656086 12,725 331 314 3584
2019-10-23 05:31:21 GMT 24.385391 53.660839 12,375 331 314 3776
2019-10-23 05:31:16 GMT 24.378475 53.665104 12,025 331 314 3904
2019-10-23 05:31:05 GMT 24.365023 53.673344 11,375 331 313 3456
2019-10-23 05:30:56 GMT 24.352386 53.680981 10,875 332 308 2624
2019-10-23 05:30:46 GMT 24.339157 53.688965 10,475 331 297 2176
2019-10-23 05:30:36 GMT 24.329178 53.695477 10,200 328 292 1920
2019-10-23 05:30:33 GMT 24.324429 53.699203 10,075 323 288 1408
2019-10-23 05:30:27 GMT 24.319290 53.704327 10,000 314 287 448
2019-10-23 05:30:23 GMT 24.316315 53.708241 10,000 306 286 64
2019-10-23 05:30:14 GMT 24.309860 53.721973 10,000 287 290 0
2019-10-23 05:30:04 GMT 24.307623 53.734131 10,000 275 289 -64
2019-10-23 05:29:52 GMT 24.306839 53.752239 10,000 272 289 0
2019-10-23 05:29:42 GMT 24.306381 53.767651 10,000 272 291 0
2019-10-23 05:29:31 GMT 24.305901 53.783623 10,000 272 292 0
2019-10-23 05:29:20 GMT 24.305483 53.799480 10,000 272 292 0
2019-10-23 05:29:10 GMT 24.305063 53.815285 10,000 272 292 0
2019-10-23 05:28:59 GMT 24.304596 53.830566 10,025 272 292 0
2019-10-23 05:28:47 GMT 24.304085 53.847622 10,000 272 291 0
2019-10-23 05:28:36 GMT 24.303574 53.863426 10,000 273 291 0
2019-10-23 05:28:26 GMT 24.303061 53.878765 10,000 273 291 0
2019-10-23 05:28:16 GMT 24.302504 53.894573 10,000 273 291 0
2019-10-23 05:28:05 GMT 24.301897 53.910172 10,000 273 291 0
2019-10-23 05:27:56 GMT 24.301292 53.924629 10,000 273 291 0
2019-10-23 05:27:44 GMT 24.300705 53.940174 10,000 273 291 0
2019-10-23 05:27:33 GMT 24.300129 53.957069 10,025 272 291 -64
2019-10-23 05:27:23 GMT 24.299652 53.972271 10,025 273 290 0
2019-10-23 05:27:12 GMT 24.300129 53.988007 10,000 260 289 0
2019-10-23 05:27:03 GMT 24.303955 54.001465 10,000 245 288 0
2019-10-23 05:26:50 GMT 24.313536 54.016094 10,000 226 288 0
2019-10-23 05:26:40 GMT 24.323450 54.024128 10,000 208 287 0
2019-10-23 05:26:31 GMT 24.337097 54.029438 10,000 191 285 0
2019-10-23 05:26:20 GMT 24.350235 54.029999 10,000 172 283 0
2019-10-23 05:26:09 GMT 24.363672 54.026150 10,000 154 280 0
2019-10-23 05:25:58 GMT 24.376144 54.017437 10,025 138 278 0
2019-10-23 05:25:48 GMT 24.384062 54.007389 10,000 119 275 64
2019-10-23 05:25:36 GMT 24.390066 53.992828 10,000 103 274 0
2019-10-23 05:25:25 GMT 24.391846 53.976898 10,000 92 274 0
2019-10-23 05:25:17 GMT 24.392256 53.964584 10,000 92 274 0
2019-10-23 05:25:06 GMT 24.392767 53.949970 10,000 92 275 0
2019-10-23 05:24:56 GMT 24.393265 53.934326 10,000 92 275 0
2019-10-23 05:24:44 GMT 24.393745 53.919758 10,000 92 274 0
2019-10-23 05:24:33 GMT 24.394211 53.904884 10,000 92 275 0
2019-10-23 05:24:24 GMT 24.394684 53.890888 10,000 92 275 0
2019-10-23 05:24:11 GMT 24.395235 53.874310 10,000 92 274 0
2019-10-23 05:24:02 GMT 24.395655 53.860939 10,000 91 274 0
2019-10-23 05:23:51 GMT 24.396118 53.844978 10,000 91 274 0
2019-10-23 05:23:40 GMT 24.396515 53.830463 10,000 91 274 0
2019-10-23 05:23:31 GMT 24.396957 53.816685 10,000 91 273 0
2019-10-23 05:23:19 GMT 24.397375 53.801346 10,000 91 273 0
2019-10-23 05:23:10 GMT 24.397751 53.787739 10,000 91 273 0
2019-10-23 05:22:51 GMT 24.398399 53.763306 10,000 91 273 0
2019-10-23 05:22:47 GMT 24.398586 53.757656 10,000 91 273 0
2019-10-23 05:22:38 GMT 24.398987 53.743946 10,000 91 272 0
2019-10-23 05:22:26 GMT 24.399445 53.728485 10,000 92 272 0
2019-10-23 05:22:16 GMT 24.399891 53.714802 10,000 92 272 0
2019-10-23 05:22:06 GMT 24.400452 53.699799 10,000 92 272 0
2019-10-23 05:21:54 GMT 24.401001 53.684895 10,000 92 273 0
2019-10-23 05:21:45 GMT 24.401596 53.670654 10,000 92 273 0
2019-10-23 05:21:34 GMT 24.402191 53.656109 10,000 92 274 0
2019-10-23 05:21:25 GMT 24.402649 53.644154 10,000 92 274 0
2019-10-23 05:21:22 GMT 24.402731 53.640747 10,000 92 274 0
2019-10-23 05:21:13 GMT 24.403242 53.625305 10,025 92 275 -64
2019-10-23 05:21:10 GMT 24.403290 53.623859 10,025 92 275 0
2019-10-23 05:20:59 GMT 24.403061 53.608143 10,000 77 274 0
2019-10-23 05:20:51 GMT 24.399399 53.594158 10,000 64 275 0
2019-10-23 05:20:38 GMT 24.391937 53.581493 10,000 47 276 0
2019-10-23 05:20:29 GMT 24.383926 53.573658 10,000 31 277 0
2019-10-23 05:20:26 GMT 24.380035 53.570911 10,000 31 277 0
2019-10-23 05:20:19 GMT 24.370926 53.566639 10,000 12 279 0
2019-10-23 05:20:15 GMT 24.367813 53.565674 10,000 8 279 0
2019-10-23 05:20:08 GMT 24.358429 53.564404 10,000 0 281 0
2019-10-23 05:20:03 GMT 24.352295 53.564655 10,000 356 281 0
2019-10-23 05:19:58 GMT 24.344330 53.566387 10,000 345 283 0
2019-10-23 05:19:48 GMT 24.332565 53.572186 10,000 327 285 0
2019-10-23 05:19:38 GMT 24.321808 53.582508 10,000 309 288 0
2019-10-23 05:19:30 GMT 24.316727 53.590698 10,000 301 287 64
2019-10-23 05:19:26 GMT 24.314255 53.596191 10,000 293 288 64
2019-10-23 05:19:21 GMT 24.312511 53.601982 10,000 284 288 -64
2019-10-23 05:19:16 GMT 24.311188 53.610535 10,000 275 288 0
2019-10-23 05:19:05 GMT 24.310501 53.627522 10,000 272 290 0
2019-10-23 05:19:00 GMT 24.310324 53.633492 10,000 272 290 0
2019-10-23 05:18:55 GMT 24.310091 53.641422 10,000 272 291 0
2019-10-23 05:18:45 GMT 24.309626 53.656918 10,000 272 291 0
2019-10-23 05:18:34 GMT 24.309160 53.672516 10,000 272 290 0
2019-10-23 05:18:23 GMT 24.308670 53.688404 10,000 272 290 0
2019-10-23 05:18:13 GMT 24.308167 53.704273 10,000 272 290 0
2019-10-23 05:18:01 GMT 24.307716 53.720345 10,000 272 290 0
2019-10-23 05:17:51 GMT 24.307251 53.734997 10,000 272 290 0
2019-10-23 05:17:40 GMT 24.306786 53.751026 10,000 272 289 0
2019-10-23 05:17:28 GMT 24.306320 53.768024 10,000 272 289 0
2019-10-23 05:17:20 GMT 24.305878 53.782501 10,000 272 289 0
2019-10-23 05:17:09 GMT 24.305466 53.797607 10,000 272 289 0
2019-10-23 05:16:57 GMT 24.305016 53.814507 10,000 272 289 0
2019-10-23 05:16:46 GMT 24.304504 53.831127 10,000 272 290 0
2019-10-23 05:16:37 GMT 24.304132 53.843838 10,000 272 291 0
2019-10-23 05:16:27 GMT 24.303589 53.859455 10,000 273 292 0
2019-10-23 05:16:16 GMT 24.303040 53.874969 10,000 273 292 0
2019-10-23 05:16:04 GMT 24.302399 53.892162 10,000 273 292 0
2019-10-23 05:15:55 GMT 24.301804 53.906857 10,000 273 292 0
2019-10-23 05:15:44 GMT 24.301117 53.922424 10,000 273 291 0
2019-10-23 05:15:34 GMT 24.300453 53.938416 10,000 273 291 0
2019-10-23 05:15:23 GMT 24.299881 53.953247 10,000 273 292 -64
2019-10-23 05:15:11 GMT 24.299292 53.970181 10,025 273 291 -64
2019-10-23 05:15:00 GMT 24.299570 53.986767 10,000 258 291 0
2019-10-23 05:14:50 GMT 24.302948 54.000092 10,000 246 290 0
2019-10-23 05:14:41 GMT 24.310137 54.012730 10,000 226 289 0
2019-10-23 05:14:29 GMT 24.321217 54.023090 10,000 210 288 0
2019-10-23 05:14:19 GMT 24.334259 54.029083 10,000 195 286 0
2019-10-23 05:14:09 GMT 24.348637 54.030399 10,000 175 283 0
2019-10-23 05:13:57 GMT 24.362089 54.027081 10,000 158 281 0
2019-10-23 05:13:47 GMT 24.373947 54.019623 10,025 141 278 0
2019-10-23 05:13:37 GMT 24.383469 54.008434 10,000 124 276 0
2019-10-23 05:13:26 GMT 24.389229 53.995937 10,000 107 274 64
2019-10-23 05:13:16 GMT 24.391617 53.981121 10,000 92 274 0
2019-10-23 05:13:04 GMT 24.392117 53.966503 10,000 92 274 0
2019-10-23 05:12:54 GMT 24.392624 53.952076 10,000 92 274 0
2019-10-23 05:12:44 GMT 24.393127 53.936920 10,000 92 274 0
2019-10-23 05:12:32 GMT 24.393631 53.921509 10,000 92 274 0
2019-10-23 05:12:22 GMT 24.394089 53.907776 10,000 92 274 0
2019-10-23 05:12:11 GMT 24.394630 53.891621 10,000 92 274 0
2019-10-23 05:12:00 GMT 24.395096 53.877731 10,000 91 274 0
2019-10-23 05:11:50 GMT 24.395554 53.862408 10,000 91 273 0
2019-10-23 05:11:39 GMT 24.396011 53.847046 10,000 91 273 0
2019-10-23 05:11:28 GMT 24.396423 53.833363 10,000 91 273 0
2019-10-23 05:11:22 GMT 24.396679 53.824146 10,000 91 273 0
2019-10-23 05:11:18 GMT 24.396881 53.818157 10,000 91 273 0
2019-10-23 05:11:10 GMT 24.397142 53.807980 10,000 91 272 0
2019-10-23 05:11:07 GMT 24.397284 53.803883 10,000 91 272 0
2019-10-23 05:10:57 GMT 24.397659 53.789978 10,000 91 273 0
2019-10-23 05:10:47 GMT 24.398073 53.775070 10,000 91 273 0
2019-10-23 05:10:35 GMT 24.398493 53.759212 10,000 91 272 0
2019-10-23 05:10:25 GMT 24.398895 53.745373 10,000 91 272 0
2019-10-23 05:10:14 GMT 24.399330 53.730244 10,000 92 273 0
2019-10-23 05:10:03 GMT 24.399797 53.715576 10,000 92 273 0
2019-10-23 05:09:53 GMT 24.400360 53.700306 10,000 92 272 0
2019-10-23 05:09:42 GMT 24.400909 53.686321 10,000 92 274 0
2019-10-23 05:09:32 GMT 24.401459 53.671722 10,000 92 274 0
2019-10-23 05:09:20 GMT 24.402124 53.655777 10,000 92 275 0
2019-10-23 05:09:10 GMT 24.402637 53.641731 10,000 92 275 0
2019-10-23 05:09:00 GMT 24.403149 53.626808 10,025 92 275 -64
2019-10-23 05:08:47 GMT 24.403107 53.609264 10,000 87 274 0
2019-10-23 05:08:39 GMT 24.400961 53.598667 10,000 70 273 0
2019-10-23 05:08:29 GMT 24.395048 53.585815 10,000 54 274 0
2019-10-23 05:08:18 GMT 24.385878 53.575191 10,025 36 277 0
2019-10-23 05:08:08 GMT 24.373821 53.567730 10,000 19 278 0
2019-10-23 05:07:56 GMT 24.360367 53.564411 10,000 1 281 -64
2019-10-23 05:07:45 GMT 24.345842 53.565914 10,000 273 290 0
2019-10-23 05:07:36 GMT 24.334251 53.571045 10,000 328 284 0
2019-10-23 05:07:24 GMT 24.322540 53.581646 10,000 312 286 0
2019-10-23 05:07:15 GMT 24.315170 53.593903 10,000 294 288 64
2019-10-23 05:07:03 GMT 24.311300 53.609135 10,000 275 290 0
2019-10-23 05:06:52 GMT 24.310547 53.625080 10,000 272 291 0
2019-10-23 05:06:43 GMT 24.310089 53.639679 10,000 272 291 0
2019-10-23 05:06:34 GMT 24.309717 53.651939 10,000 272 291 0
2019-10-23 05:06:31 GMT 24.309631 53.655701 10,000 272 291 0
2019-10-23 05:06:28 GMT 24.309448 53.660889 10,000 272 290 0
2019-10-23 05:06:22 GMT 24.309160 53.671268 10,000 272 290 0
2019-10-23 05:06:18 GMT 24.309019 53.675522 10,000 272 290 0
2019-10-23 05:06:10 GMT 24.308695 53.686661 10,000 272 290 0
2019-10-23 05:06:03 GMT 24.308395 53.696747 10,000 272 290 0
2019-10-23 05:06:00 GMT 24.308212 53.702496 10,000 272 290 0
2019-10-23 05:05:55 GMT 24.308029 53.708649 10,000 272 290 0
2019-10-23 05:05:50 GMT 24.307762 53.717808 10,000 272 290 0
2019-10-23 05:05:41 GMT 24.307438 53.729416 10,000 272 289 0
2019-10-23 05:05:38 GMT 24.307251 53.734791 10,000 272 289 0
2019-10-23 05:05:28 GMT 24.306831 53.749210 10,000 272 289 0
2019-10-23 05:05:22 GMT 24.306646 53.757244 10,000 272 289 0
2019-10-23 05:05:18 GMT 24.306427 53.764954 10,000 272 289 0
2019-10-23 05:05:12 GMT 24.306198 53.771820 10,000 272 289 0
2019-10-23 05:05:06 GMT 24.305948 53.780407 10,000 272 289 0
2019-10-23 05:04:57 GMT 24.305529 53.795643 10,000 272 289 0
2019-10-23 05:04:45 GMT 24.305016 53.812073 10,000 272 289 0
2019-10-23 05:04:35 GMT 24.304596 53.826496 10,000 272 289 0
2019-10-23 05:04:23 GMT 24.303991 53.845600 10,000 272 289 0
2019-10-23 05:04:13 GMT 24.303543 53.858692 10,000 273 289 0
2019-10-23 05:04:02 GMT 24.302921 53.875607 10,000 273 289 0
2019-10-23 05:03:52 GMT 24.302353 53.889160 10,000 273 290 0
2019-10-23 05:03:42 GMT 24.301710 53.904678 10,000 273 290 0
2019-10-23 05:03:32 GMT 24.301014 53.920536 10,000 273 290 64
2019-10-23 05:03:20 GMT 24.300407 53.935822 10,000 273 291 0
2019-10-23 05:03:10 GMT 24.299835 53.950958 10,000 273 292 0
2019-10-23 05:02:59 GMT 24.299286 53.967236 10,025 267 291 64
2019-10-23 05:02:47 GMT 24.299292 53.984848 10,000 266 292 0
2019-10-23 05:02:38 GMT 24.302362 53.998684 10,000 249 291 0
2019-10-23 05:02:27 GMT 24.309952 54.012501 10,000 231 291 0
2019-10-23 05:02:16 GMT 24.320518 54.022575 10,000 212 289 64
2019-10-23 05:02:07 GMT 24.333321 54.028740 10,000 194 286 0
2019-10-23 05:01:55 GMT 24.347122 54.030407 10,000 177 283 0
2019-10-23 05:01:44 GMT 24.361019 54.027447 10,000 160 281 0
2019-10-23 05:01:35 GMT 24.372528 54.020741 10,000 141 278 -64
2019-10-23 05:01:24 GMT 24.382278 54.010212 10,025 125 276 0
2019-10-23 05:01:13 GMT 24.388905 53.996975 10,000 106 274 0
2019-10-23 05:01:01 GMT 24.391663 53.980152 10,000 93 273 0
2019-10-23 05:00:51 GMT 24.392120 53.967640 10,000 92 273 0
2019-10-23 05:00:41 GMT 24.392578 53.953400 10,000 92 273 0
2019-10-23 05:00:31 GMT 24.393093 53.937794 10,000 92 273 0
2019-10-23 05:00:19 GMT 24.393585 53.923492 10,000 92 273 0
2019-10-23 05:00:09 GMT 24.394043 53.908947 10,000 92 273 0
2019-10-23 04:59:59 GMT 24.394501 53.894299 10,000 92 272 0
2019-10-23 04:59:47 GMT 24.395048 53.878353 10,000 92 273 0
2019-10-23 04:59:38 GMT 24.395462 53.864746 10,000 91 272 0
2019-10-23 04:59:29 GMT 24.395782 53.854218 10,000 91 272 0
2019-10-23 04:59:26 GMT 24.395933 53.849487 10,000 91 272 0
2019-10-23 04:59:15 GMT 24.396399 53.834667 10,000 91 273 0
2019-10-23 04:59:05 GMT 24.396790 53.820904 10,000 91 273 0
2019-10-23 04:58:51 GMT 24.397339 53.801220 10,000 91 274 0
2019-10-23 04:58:48 GMT 24.397430 53.797863 10,000 91 274 0
2019-10-23 04:58:45 GMT 24.397610 53.791550 10,000 91 274 0
2019-10-23 04:58:33 GMT 24.398026 53.776501 10,000 91 274 0
2019-10-23 04:58:23 GMT 24.398438 53.761494 10,000 91 274 0
2019-10-23 04:58:11 GMT 24.398912 53.745739 10,000 91 274 0
2019-10-23 04:58:06 GMT 24.399078 53.739117 10,000 91 274 0
2019-10-23 04:58:01 GMT 24.399330 53.731125 10,000 91 274 0
2019-10-23 04:57:55 GMT 24.399582 53.723297 10,000 92 274 0
2019-10-23 04:57:47 GMT 24.399937 53.712936 10,000 92 274 0
2019-10-23 04:57:41 GMT 24.400309 53.701847 10,000 92 274 0
2019-10-23 04:57:29 GMT 24.400818 53.688049 10,000 92 274 0
2019-10-23 04:57:18 GMT 24.401426 53.672565 10,000 92 274 0
2019-10-23 04:57:08 GMT 24.402008 53.657887 10,000 92 274 0
2019-10-23 04:56:57 GMT 24.402542 53.642666 10,000 92 274 0
2019-10-23 04:56:47 GMT 24.403015 53.629253 10,025 92 274 -64
2019-10-23 04:56:37 GMT 24.403381 53.613331 10,000 86 273 0
2019-10-23 04:56:25 GMT 24.400955 53.598480 10,025 71 274 0
2019-10-23 04:56:14 GMT 24.394350 53.584625 10,000 54 275 64
2019-10-23 04:56:05 GMT 24.386215 53.575287 10,000 35 277 -64
2019-10-23 04:55:53 GMT 24.373308 53.567211 10,025 20 279 0
2019-10-23 04:55:44 GMT 24.360693 53.564156 10,000 4 279 0
2019-10-23 04:55:33 GMT 24.346355 53.565395 10,000 347 282 0
2019-10-23 04:55:21 GMT 24.333553 53.570995 10,000 329 284 0
2019-10-23 04:55:10 GMT 24.322586 53.580830 10,000 312 287 0
2019-10-23 04:55:01 GMT 24.314804 53.593548 10,000 296 288 64
2019-10-23 04:54:49 GMT 24.310835 53.608772 10,000 277 289 -64
2019-10-23 04:54:40 GMT 24.310091 53.623749 10,000 272 291 0
2019-10-23 04:54:25 GMT 24.309448 53.644562 10,000 272 290 0
2019-10-23 04:54:18 GMT 24.309160 53.655048 10,000 272 291 0
2019-10-23 04:54:11 GMT 24.308853 53.664143 10,000 272 291 0
2019-10-23 04:54:08 GMT 24.308695 53.670235 10,000 272 291 0
2019-10-23 04:53:57 GMT 24.308229 53.686142 10,000 272 290 0
2019-10-23 04:53:46 GMT 24.307755 53.701527 10,000 272 290 0
2019-10-23 04:53:36 GMT 24.307299 53.717186 10,000 272 290 0
2019-10-23 04:53:27 GMT 24.306925 53.729675 10,000 272 291 0
2019-10-23 04:53:24 GMT 24.306786 53.733509 10,000 272 291 0
2019-10-23 04:53:14 GMT 24.306335 53.749493 10,000 272 291 0
2019-10-23 04:53:07 GMT 24.306061 53.759205 10,000 272 291 0
2019-10-23 04:53:04 GMT 24.305923 53.764496 10,000 272 291 0
2019-10-23 04:52:53 GMT 24.305466 53.780109 10,000 272 290 0
2019-10-23 04:52:42 GMT 24.305008 53.795929 10,000 272 290 0
2019-10-23 04:52:32 GMT 24.304550 53.811863 10,000 272 290 0
2019-10-23 04:52:20 GMT 24.304047 53.828583 10,000 272 290 0
2019-10-23 04:52:10 GMT 24.303543 53.843231 10,000 273 290 0
2019-10-23 04:51:59 GMT 24.302994 53.859814 10,000 273 289 0
2019-10-23 04:51:49 GMT 24.302490 53.874004 10,000 273 289 0
2019-10-23 04:51:38 GMT 24.301851 53.890064 10,000 273 289 0
2019-10-23 04:51:28 GMT 24.301163 53.905689 10,000 273 290 0
2019-10-23 04:51:16 GMT 24.300522 53.921253 10,000 273 290 0
2019-10-23 04:51:06 GMT 24.299881 53.936665 10,000 273 290 64
2019-10-23 04:50:56 GMT 24.299286 53.952129 10,000 273 292 0
2019-10-23 04:50:45 GMT 24.298782 53.967793 10,025 273 292 0
2019-10-23 04:50:34 GMT 24.298691 53.983715 10,000 266 290 0
2019-10-23 04:50:24 GMT 24.302084 53.999203 10,000 248 290 0
2019-10-23 04:50:13 GMT 24.310181 54.013470 10,000 229 290 0
2019-10-23 04:50:02 GMT 24.320332 54.022938 10,000 211 289 0
2019-10-23 04:49:50 GMT 24.334064 54.029312 10,000 195 287 0
2019-10-23 04:49:40 GMT 24.348963 54.030556 10,000 176 284 0
2019-10-23 04:49:30 GMT 24.361679 54.027405 10,000 158 281 0
2019-10-23 04:49:19 GMT 24.373680 54.019981 10,000 140 278 0
2019-10-23 04:49:11 GMT 24.383410 54.008633 10,000 123 275 64
2019-10-23 04:48:58 GMT 24.389328 53.995667 10,000 105 273 0
2019-10-23 04:48:50 GMT 24.391371 53.984745 10,000 94 272 0
2019-10-23 04:48:47 GMT 24.391663 53.980408 10,000 92 272 0
2019-10-23 04:48:36 GMT 24.392166 53.965912 10,000 92 272 0
2019-10-23 04:48:27 GMT 24.392534 53.954945 10,000 92 272 0
2019-10-23 04:48:24 GMT 24.392673 53.950905 10,000 92 272 0
2019-10-23 04:48:18 GMT 24.392990 53.941040 10,000 92 272 0
2019-10-23 04:48:11 GMT 24.393265 53.932495 10,000 92 272 0
2019-10-23 04:48:03 GMT 24.393677 53.920238 10,000 92 272 0
2019-10-23 04:47:57 GMT 24.393978 53.911362 10,000 91 272 0
2019-10-23 04:47:53 GMT 24.394135 53.905994 10,000 92 273 0
2019-10-23 04:47:45 GMT 24.394455 53.896893 10,000 92 273 0
2019-10-23 04:47:41 GMT 24.394630 53.890324 10,000 92 273 0
2019-10-23 04:47:34 GMT 24.394913 53.881836 10,000 91 273 0
2019-10-23 04:47:30 GMT 24.395096 53.876072 10,000 91 273 0
2019-10-23 04:47:25 GMT 24.395374 53.867210 10,000 91 273 0
2019-10-23 04:47:21 GMT 24.395561 53.861561 10,000 91 273 0
2019-10-23 04:47:13 GMT 24.395840 53.852234 10,000 91 274 0
2019-10-23 04:47:07 GMT 24.396103 53.843182 10,000 91 274 0
2019-10-23 04:47:03 GMT 24.396259 53.837826 10,000 91 274 0
2019-10-23 04:46:59 GMT 24.396423 53.832195 10,000 91 274 0
2019-10-23 04:46:52 GMT 24.396744 53.821056 10,000 91 274 0
2019-10-23 04:46:48 GMT 24.396864 53.816944 10,000 91 274 0
2019-10-23 04:46:41 GMT 24.397156 53.807171 10,000 91 274 0
2019-10-23 04:46:37 GMT 24.397329 53.801395 10,000 91 274 0
2019-10-23 04:46:31 GMT 24.397562 53.792377 10,000 91 274 64
2019-10-23 04:46:25 GMT 24.397751 53.786213 10,000 91 274 0
2019-10-23 04:46:20 GMT 24.397980 53.778584 10,000 91 273 0
2019-10-23 04:46:15 GMT 24.398214 53.770302 10,000 91 274 0
2019-10-23 04:46:08 GMT 24.398438 53.761951 10,000 91 273 0
2019-10-23 04:46:04 GMT 24.398586 53.756725 10,000 91 274 0
2019-10-23 04:46:00 GMT 24.398849 53.749340 10,000 91 274 0
2019-10-23 04:45:54 GMT 24.399052 53.742317 10,000 92 274 0
2019-10-23 04:45:50 GMT 24.399193 53.737293 10,000 92 274 0
2019-10-23 04:45:47 GMT 24.399353 53.732807 10,000 92 274 0
2019-10-23 04:45:43 GMT 24.399611 53.725632 10,000 92 274 0
2019-10-23 04:45:35 GMT 24.399902 53.716125 10,000 92 274 0
2019-10-23 04:45:32 GMT 24.400040 53.712208 10,000 92 274 0
2019-10-23 04:45:26 GMT 24.400450 53.702209 10,000 92 273 0
2019-10-23 04:45:22 GMT 24.400589 53.697968 10,000 92 273 0
2019-10-23 04:45:16 GMT 24.400955 53.689068 10,000 92 274 0
2019-10-23 04:45:12 GMT 24.401184 53.682709 10,000 92 274 0
2019-10-23 04:45:04 GMT 24.401566 53.673447 10,000 92 274 0
2019-10-23 04:45:00 GMT 24.401779 53.667957 10,000 92 274 0
2019-10-23 04:44:56 GMT 24.402031 53.660957 10,000 92 274 0
2019-10-23 04:44:49 GMT 24.402357 53.652615 10,000 92 274 0
2019-10-23 04:44:43 GMT 24.402683 53.644169 10,000 92 274 0
2019-10-23 04:44:39 GMT 24.402868 53.637482 10,000 92 274 0
2019-10-23 04:44:34 GMT 24.403103 53.631210 10,025 92 274 -64
2019-10-23 04:44:27 GMT 24.403427 53.621521 10,025 92 274 0
2019-10-23 04:44:23 GMT 24.403519 53.614197 10,025 88 274 0
2019-10-23 04:44:16 GMT 24.402777 53.605869 10,000 78 273 0
2019-10-23 04:44:13 GMT 24.401962 53.601887 10,000 73 273 0
2019-10-23 04:44:07 GMT 24.399471 53.594109 10,000 59 275 0
2019-10-23 04:44:01 GMT 24.395374 53.586075 10,025 58 275 0
2019-10-23 04:43:57 GMT 24.392120 53.581493 10,025 45 276 0
2019-10-23 04:43:54 GMT 24.390839 53.579914 10,025 41 277 0
2019-10-23 04:43:49 GMT 24.385784 53.574829 10,000 34 277 0
2019-10-23 04:43:44 GMT 24.380310 53.570759 10,000 20 279 0
2019-10-23 04:43:40 GMT 24.375824 53.568268 10,000 23 279 0
2019-10-23 04:43:33 GMT 24.367165 53.565140 10,000 12 280 0
2019-10-23 04:43:29 GMT 24.360880 53.564049 10,000 1 282 0
2019-10-23 04:43:24 GMT 24.354034 53.563995 10,000 355 282 0
2019-10-23 04:43:20 GMT 24.349457 53.564556 10,000 350 283 0
2019-10-23 04:43:11 GMT 24.339418 53.567677 10,000 334 284 0
2019-10-23 04:43:07 GMT 24.333832 53.570629 10,000 327 285 0
2019-10-23 04:43:03 GMT 24.329269 53.573895 10,000 321 286 -64
2019-10-23 04:42:58 GMT 24.324097 53.578747 10,000 313 287 0
2019-10-23 04:42:47 GMT 24.316050 53.590324 10,000 299 287 128
2019-10-23 04:42:41 GMT 24.312698 53.598225 10,000 289 289 0
2019-10-23 04:42:37 GMT 24.311022 53.605247 10,000 281 290 -128
2019-10-23 04:42:30 GMT 24.310091 53.614006 10,000 273 291 0
2019-10-23 04:42:26 GMT 24.309814 53.621319 10,000 272 291 0
2019-10-23 04:42:19 GMT 24.309580 53.630383 10,000 272 291 0
2019-10-23 04:42:15 GMT 24.309357 53.636932 10,000 272 291 0
2019-10-23 04:42:09 GMT 24.309067 53.647430 10,000 272 291 0
2019-10-23 04:42:05 GMT 24.308945 53.651936 10,000 272 290 0
2019-10-23 04:41:58 GMT 24.308647 53.661995 10,000 272 290 0
2019-10-23 04:41:54 GMT 24.308395 53.669689 10,000 272 290 0
2019-10-23 04:41:47 GMT 24.308134 53.678577 10,000 272 290 0
2019-10-23 04:41:44 GMT 24.307997 53.682880 10,000 272 290 0
2019-10-23 04:41:38 GMT 24.307716 53.692413 10,000 272 290 0
2019-10-23 04:41:34 GMT 24.307484 53.699150 10,000 272 290 0
2019-10-23 04:41:26 GMT 24.307251 53.708427 10,000 272 290 0
2019-10-23 04:41:22 GMT 24.307064 53.714439 10,000 272 290 0
2019-10-23 04:41:15 GMT 24.306740 53.725063 10,000 272 290 0
2019-10-23 04:41:12 GMT 24.306599 53.729568 10,000 272 290 0
2019-10-23 04:41:05 GMT 24.306335 53.740082 10,000 272 290 0
2019-10-23 04:41:01 GMT 24.306133 53.746464 10,000 272 290 0
2019-10-23 04:40:55 GMT 24.305832 53.755543 10,000 272 291 0
2019-10-23 04:40:50 GMT 24.305668 53.761803 10,000 272 291 0
2019-10-23 04:40:43 GMT 24.305342 53.772739 10,000 272 291 0
2019-10-23 04:40:40 GMT 24.305202 53.777142 10,000 272 291 0
2019-10-23 04:40:32 GMT 24.304916 53.788250 10,000 272 290 0
2019-10-23 04:40:28 GMT 24.304737 53.794815 10,000 272 290 0
2019-10-23 04:40:23 GMT 24.304504 53.802795 10,000 272 290 0
2019-10-23 04:40:19 GMT 24.304367 53.807781 10,000 272 290 0
2019-10-23 04:40:11 GMT 24.304001 53.819122 10,000 272 290 0
2019-10-23 04:40:08 GMT 24.303589 53.833973 10,000 272 291 0
2019-10-23 04:40:01 GMT 24.303589 53.833973 10,000 272 290 0
2019-10-23 04:39:56 GMT 24.303341 53.840679 10,000 272 290 0
2019-10-23 04:39:50 GMT 24.302994 53.851471 10,000 272 291 0
2019-10-23 04:39:46 GMT 24.302876 53.855240 10,025 273 291 0
2019-10-23 04:39:40 GMT 24.302504 53.865967 10,000 273 291 0
2019-10-23 04:39:37 GMT 24.302362 53.870373 10,000 273 291 0
2019-10-23 04:39:28 GMT 24.301895 53.882092 10,000 273 290 0
2019-10-23 04:39:23 GMT 24.301573 53.889961 10,000 273 290 0
2019-10-23 04:39:15 GMT 24.301105 53.901829 10,000 273 290 0
2019-10-23 04:39:08 GMT 24.300640 53.913021 10,000 273 290 0
2019-10-23 04:39:05 GMT 24.300407 53.917583 10,000 273 290 0
2019-10-23 04:38:56 GMT 24.299942 53.928879 10,000 273 290 64
2019-10-23 04:38:52 GMT 24.299652 53.936005 10,000 273 290 0
2019-10-23 04:38:45 GMT 24.299292 53.945930 10,000 273 291 0
2019-10-23 04:38:42 GMT 24.299149 53.950603 10,000 273 291 0
2019-10-23 04:38:36 GMT 24.298824 53.959923 10,025 273 291 -64
2019-10-23 04:38:30 GMT 24.298546 53.969353 10,025 273 291 -64
2019-10-23 04:38:24 GMT 24.298313 53.977020 10,025 271 291 64
2019-10-23 04:38:20 GMT 24.298407 53.982773 10,000 265 291 64
2019-10-23 04:38:12 GMT 24.300222 53.994228 10,000 257 291 0
2019-10-23 04:38:09 GMT 24.301300 53.997803 10,000 251 292 0
2019-10-23 04:38:04 GMT 24.304970 54.006145 10,000 239 292 64
2019-10-23 04:38:01 GMT 24.307251 54.009907 10,000 232 292 0
2019-10-23 04:37:53 GMT 24.314001 54.018066 10,000 221 291 0
2019-10-23 04:37:49 GMT 24.317276 54.020996 10,000 216 290 0
2019-10-23 04:37:42 GMT 24.326384 54.026718 10,000 203 288 0
2019-10-23 04:37:39 GMT 24.329502 54.028069 10,000 199 287 0
2019-10-23 04:37:29 GMT 24.343460 54.030914 10,000 181 285 0
2019-10-23 04:37:20 GMT 24.353758 54.030037 10,000 166 282 0
2019-10-23 04:37:17 GMT 24.357714 54.028999 10,000 163 282 0
2019-10-23 04:37:10 GMT 24.367117 54.024803 10,000 150 279 0
2019-10-23 04:37:05 GMT 24.371658 54.021709 10,000 145 278 0
2019-10-23 04:37:00 GMT 24.378197 54.015682 10,000 132 276 0
2019-10-23 04:36:57 GMT 24.380814 54.012501 10,000 128 275 0
2019-10-23 04:36:48 GMT 24.385971 54.004177 10,000 114 273 64
2019-10-23 04:36:43 GMT 24.388763 53.997494 10,000 111 273 64
2019-10-23 04:36:35 GMT 24.391277 53.986195 10,000 95 272 -64
2019-10-23 04:36:28 GMT 24.391891 53.975422 10,000 92 272 0
2019-10-23 04:36:24 GMT 24.392075 53.969727 10,000 92 272 0
2019-10-23 04:36:16 GMT 24.392395 53.960114 10,000 92 272 0
2019-10-23 04:36:13 GMT 24.392534 53.955879 10,000 92 272 0
2019-10-23 04:36:08 GMT 24.392715 53.949890 10,000 92 272 0
2019-10-23 04:36:02 GMT 24.393036 53.940327 10,000 92 273 0
2019-10-23 04:35:56 GMT 24.393280 53.933079 10,000 92 273 0
2019-10-23 04:35:53 GMT 24.393467 53.927273 10,000 92 273 0
2019-10-23 04:35:41 GMT 24.394024 53.910118 10,000 92 273 0
2019-10-23 04:35:30 GMT 24.394444 53.896957 10,000 91 273 0
2019-10-23 04:35:26 GMT 24.394630 53.891514 10,000 92 273 0
2019-10-23 04:35:21 GMT 24.394913 53.882751 10,000 91 273 0
2019-10-23 04:35:16 GMT 24.395096 53.876801 10,000 91 273 0
2019-10-23 04:35:09 GMT 24.395374 53.866901 10,000 91 273 0
2019-10-23 04:34:56 GMT 24.395920 53.849743 10,000 91 274 0
2019-10-23 04:34:47 GMT 24.396259 53.837620 10,000 91 273 0
2019-10-23 04:34:38 GMT 24.396679 53.823059 10,000 91 273 0
2019-10-23 04:34:29 GMT 24.396973 53.812305 10,000 91 273 0
2019-10-23 04:34:24 GMT 24.397156 53.805798 10,000 91 273 0
2019-10-23 04:34:15 GMT 24.397522 53.792774 10,000 91 273 0
2019-10-23 04:34:05 GMT 24.397934 53.778076 10,000 91 274 0
2019-10-23 04:34:01 GMT 24.398117 53.773193 10,000 91 274 0
2019-10-23 04:33:54 GMT 24.398447 53.761597 10,000 91 274 0
2019-10-23 04:33:44 GMT 24.398849 53.749340 10,000 92 274 0
2019-10-23 04:33:33 GMT 24.399424 53.732731 10,000 92 274 0
2019-10-23 04:33:20 GMT 24.400076 53.714645 10,025 92 274 0
2019-10-23 04:33:12 GMT 24.400450 53.704697 10,000 92 274 0
2019-10-23 04:33:04 GMT 24.400867 53.694538 10,000 92 274 0
2019-10-23 04:33:01 GMT 24.401093 53.689472 10,000 92 274 0
2019-10-23 04:32:54 GMT 24.401459 53.680725 10,000 92 274 0
2019-10-23 04:32:50 GMT 24.401752 53.673706 10,000 92 274 0
2019-10-23 04:32:38 GMT 24.402374 53.658092 10,000 92 274 64
2019-10-23 04:32:30 GMT 24.402878 53.644867 10,000 92 274 0
2019-10-23 04:32:23 GMT 24.403107 53.637085 10,000 91 274 0
2019-10-23 04:32:18 GMT 24.403288 53.630329 10,025 92 275 -64
2019-10-23 04:32:11 GMT 24.403610 53.620808 10,025 91 275 0
2019-10-23 04:32:07 GMT 24.403662 53.615044 10,000 88 275 0
2019-10-23 04:31:58 GMT 24.401752 53.600586 10,000 73 274 0
2019-10-23 04:31:51 GMT 24.399353 53.593597 10,000 64 275 0
2019-10-23 04:31:47 GMT 24.396011 53.587036 10,000 56 275 0
2019-10-23 04:31:40 GMT 24.391571 53.580730 10,025 45 276 0
2019-10-23 04:31:35 GMT 24.386765 53.575695 10,000 39 277 0
2019-10-23 04:31:30 GMT 24.381134 53.571270 10,000 13 280 0
2019-10-23 04:31:24 GMT 24.374542 53.567707 10,000 21 279 0
2019-10-23 04:31:15 GMT 24.362183 53.564308 10,025 2 281 0
2019-10-23 04:31:07 GMT 24.353485 53.564148 10,025 337 284 0
2019-10-23 04:31:03 GMT 24.347534 53.565063 10,000 347 282 0
2019-10-23 04:30:53 GMT 24.335136 53.570011 10,000 332 285 0
2019-10-23 04:30:43 GMT 24.324102 53.578976 10,000 315 287 -64
2019-10-23 04:30:30 GMT 24.314747 53.593433 10,000 299 288 128
2019-10-23 04:30:20 GMT 24.310602 53.609604 10,000 277 289 -64
2019-10-23 04:30:10 GMT 24.309998 53.621979 10,000 272 290 0
2019-10-23 04:30:01 GMT 24.309586 53.636524 10,000 272 290 0
2019-10-23 04:29:50 GMT 24.309036 53.652752 10,000 272 291 0
2019-10-23 04:29:39 GMT 24.308533 53.668621 10,000 272 290 0
2019-10-23 04:29:28 GMT 24.308088 53.684120 10,000 272 290 0
2019-10-23 04:29:17 GMT 24.307623 53.699982 10,000 272 290 0
2019-10-23 04:29:07 GMT 24.307114 53.715363 10,000 272 291 0
2019-10-23 04:28:57 GMT 24.306656 53.731079 10,000 272 290 0
2019-10-23 04:28:46 GMT 24.306198 53.746540 10,000 272 290 0
2019-10-23 04:28:35 GMT 24.305740 53.762665 10,000 272 289 0
2019-10-23 04:28:25 GMT 24.305248 53.778282 10,000 272 290 0
2019-10-23 04:28:13 GMT 24.304779 53.794353 10,000 272 290 0
2019-10-23 04:28:02 GMT 24.304317 53.810570 10,000 272 290 0
2019-10-23 04:27:52 GMT 24.303864 53.825939 10,000 272 291 0
2019-10-23 04:27:40 GMT 24.303341 53.842800 10,000 272 291 0
2019-10-23 04:27:31 GMT 24.302902 53.855846 10,000 272 291 0
2019-10-23 04:27:20 GMT 24.302399 53.871460 10,000 273 290 0
2019-10-23 04:27:09 GMT 24.301804 53.887939 10,025 273 291 0
2019-10-23 04:26:58 GMT 24.301247 53.904057 10,000 273 291 0
2019-10-23 04:26:48 GMT 24.300688 53.919811 10,000 273 291 0
2019-10-23 04:26:37 GMT 24.300129 53.935307 10,000 273 292 0
2019-10-23 04:26:28 GMT 24.299196 53.965725 10,025 273 291 -64
2019-10-23 04:26:17 GMT 24.299196 53.965725 10,025 273 291 -64
2019-10-23 04:26:06 GMT 24.298782 53.981731 10,000 269 291 0
2019-10-23 04:25:55 GMT 24.301163 53.996937 10,000 251 291 0
2019-10-23 04:25:44 GMT 24.307390 54.011742 10,000 239 291 0
2019-10-23 04:25:35 GMT 24.315216 54.023846 10,000 232 291 0
2019-10-23 04:25:23 GMT 24.324568 54.036255 10,000 232 292 0
2019-10-23 04:25:13 GMT 24.333088 54.049053 10,025 237 292 -64
2019-10-23 04:25:02 GMT 24.341839 54.062321 10,000 229 291 0
2019-10-23 04:24:51 GMT 24.352432 54.071095 10,000 206 288 0
2019-10-23 04:24:40 GMT 24.366714 54.075214 10,000 182 285 0
2019-10-23 04:24:30 GMT 24.380943 54.072685 10,000 160 281 0
2019-10-23 04:24:20 GMT 24.391617 54.065449 10,000 133 276 64
2019-10-23 04:24:05 GMT 24.400864 54.047901 9,975 97 272 -64
2019-10-23 04:23:56 GMT 24.402008 54.036205 10,000 92 272 0
2019-10-23 04:23:53 GMT 24.402191 54.031933 10,000 92 272 0
2019-10-23 04:23:48 GMT 24.402466 54.024761 10,000 92 272 0
2019-10-23 04:23:38 GMT 24.403103 54.009567 10,000 92 272 0
2019-10-23 04:23:26 GMT 24.403708 53.994228 10,000 92 272 0
2019-10-23 04:23:15 GMT 24.404266 53.979198 10,000 92 272 0
2019-10-23 04:23:06 GMT 24.404778 53.965103 10,000 92 272 0
2019-10-23 04:22:55 GMT 24.405336 53.951164 10,000 92 272 -64
2019-10-23 04:22:43 GMT 24.405943 53.935410 10,000 92 273 0
2019-10-23 04:22:33 GMT 24.406540 53.921356 10,000 92 273 0
2019-10-23 04:22:22 GMT 24.407246 53.905354 10,000 92 273 0
2019-10-23 04:22:15 GMT 24.407639 53.895874 10,000 92 273 0
2019-10-23 04:22:10 GMT 24.407913 53.889515 10,000 92 273 0
2019-10-23 04:22:01 GMT 24.408463 53.877460 10,000 92 273 0
2019-10-23 04:21:50 GMT 24.409155 53.861820 10,000 92 274 0
2019-10-23 04:21:43 GMT 24.409561 53.852283 10,000 92 274 0
2019-10-23 04:21:40 GMT 24.409836 53.845776 10,000 92 274 0
2019-10-23 04:21:34 GMT 24.410131 53.839485 10,000 92 274 0
2019-10-23 04:21:30 GMT 24.410385 53.833263 10,000 92 274 0
2019-10-23 04:21:21 GMT 24.410875 53.821400 10,000 92 274 0
2019-10-23 04:21:18 GMT 24.411026 53.817852 10,000 92 274 0
2019-10-23 04:21:11 GMT 24.411482 53.807358 10,000 92 274 0
2019-10-23 04:21:08 GMT 24.411621 53.804039 10,000 92 273 0
2019-10-23 04:20:55 GMT 24.412413 53.786003 10,000 92 273 0
2019-10-23 04:20:47 GMT 24.412926 53.773983 10,000 92 273 0
2019-10-23 04:20:37 GMT 24.413498 53.758953 10,000 92 274 0
2019-10-23 04:20:23 GMT 24.414228 53.740402 10,000 92 274 0
2019-10-23 04:20:14 GMT 24.414825 53.726452 10,000 92 274 0
2019-10-23 04:20:07 GMT 24.415146 53.719074 10,025 92 274 0
2019-10-23 04:20:01 GMT 24.415558 53.709919 10,000 92 274 0
2019-10-23 04:19:53 GMT 24.416183 53.695110 10,000 92 274 0
2019-10-23 04:19:43 GMT 24.416601 53.685108 10,000 92 274 0
2019-10-23 04:19:34 GMT 24.417114 53.672791 10,000 92 275 0
2019-10-23 04:19:31 GMT 24.417252 53.669025 10,000 92 275 0
2019-10-23 04:19:23 GMT 24.417767 53.656296 10,000 91 275 0
2019-10-23 04:19:14 GMT 24.418579 53.629047 10,025 92 275 0
2019-10-23 04:19:02 GMT 24.418579 53.629047 10,025 92 275 0
2019-10-23 04:18:51 GMT 24.419357 53.613941 10,000 96 274 0
2019-10-23 04:18:40 GMT 24.422701 53.598148 10,000 110 274 0
2019-10-23 04:18:36 GMT 24.424667 53.593700 10,000 119 275 0
2019-10-23 04:18:28 GMT 24.432337 53.582603 10,000 135 277 0
2019-10-23 04:18:19 GMT 24.440598 53.575794 10,000 150 279 0
2019-10-23 04:18:06 GMT 24.455887 53.569843 10,000 166 281 0
2019-10-23 04:17:57 GMT 24.467066 53.569542 10,025 191 284 0
2019-10-23 04:17:46 GMT 24.480881 53.573559 10,000 206 287 0
2019-10-23 04:17:37 GMT 24.492599 53.581898 10,000 226 289 64
2019-10-23 04:17:26 GMT 24.501467 53.593693 10,000 245 290 -64
2019-10-23 04:17:15 GMT 24.506775 53.607841 10,000 256 291 64
2019-10-23 04:17:05 GMT 24.508730 53.623749 10,000 274 290 128
2019-10-23 04:16:52 GMT 24.506029 53.641060 10,000 289 288 0
2019-10-23 04:16:43 GMT 24.499878 53.654072 10,025 304 288 -64
2019-10-23 04:16:33 GMT 24.491547 53.666584 10,000 307 287 0
2019-10-23 04:16:21 GMT 24.482895 53.679199 10,025 307 287 0
2019-10-23 04:16:11 GMT 24.474327 53.691738 10,000 307 287 0
2019-10-23 04:15:59 GMT 24.465574 53.704594 10,000 307 287 0
2019-10-23 04:15:49 GMT 24.457987 53.715683 10,000 307 287 0
2019-10-23 04:15:39 GMT 24.449701 53.727810 10,000 307 288 0
2019-10-23 04:15:28 GMT 24.440531 53.741283 10,025 307 287 0
2019-10-23 04:15:18 GMT 24.432220 53.753559 10,000 307 288 0
2019-10-23 04:15:08 GMT 24.424713 53.764545 10,000 307 287 0
2019-10-23 04:14:58 GMT 24.416107 53.777161 10,000 307 288 0
2019-10-23 04:14:47 GMT 24.407959 53.789112 10,000 307 288 0
2019-10-23 04:14:36 GMT 24.399261 53.801830 10,000 307 287 0
2019-10-23 04:14:29 GMT 24.394072 53.809326 10,000 307 287 0
2019-10-23 04:14:26 GMT 24.390701 53.814289 10,000 308 287 0
2019-10-23 04:14:14 GMT 24.381866 53.827057 10,000 308 287 0
2019-10-23 04:14:04 GMT 24.372984 53.839848 10,000 308 286 0
2019-10-23 04:13:53 GMT 24.364883 53.851471 10,000 308 286 0
2019-10-23 04:13:43 GMT 24.356876 53.862961 10,000 308 286 0
2019-10-23 04:13:33 GMT 24.347939 53.875656 10,000 308 287 0
2019-10-23 04:13:21 GMT 24.339186 53.888145 10,000 308 287 0
2019-10-23 04:13:10 GMT 24.329411 53.902241 10,025 307 289 -64
2019-10-23 04:13:00 GMT 24.322357 53.912457 10,025 308 288 -64
2019-10-23 04:12:50 GMT 24.314209 53.924915 10,000 301 288 0
2019-10-23 04:12:38 GMT 24.308508 53.940590 10,025 282 292 -64
2019-10-23 04:12:27 GMT 24.307892 53.958233 10,025 265 293 0
2019-10-23 04:12:19 GMT 24.310867 53.970337 10,025 248 292 0
2019-10-23 04:12:07 GMT 24.318237 53.983761 10,025 228 290 0
2019-10-23 04:11:57 GMT 24.328766 53.993885 10,000 213 289 0
2019-10-23 04:11:47 GMT 24.341606 54.000084 10,025 193 286 0
2019-10-23 04:11:36 GMT 24.355665 54.001740 10,000 176 284 0
2019-10-23 04:11:26 GMT 24.369919 53.998718 10,000 159 289 64
2019-10-23 04:11:14 GMT 24.382154 53.991741 9,975 142 299 -64
2019-10-23 04:11:04 GMT 24.392673 53.980183 10,100 127 310 -960
2019-10-23 04:10:54 GMT 24.402264 53.966396 10,350 126 318 -1664
2019-10-23 04:10:43 GMT 24.411482 53.952820 10,650 126 323 -1728
2019-10-23 04:10:32 GMT 24.421444 53.938259 11,000 126 328 -1792
2019-10-23 04:10:26 GMT 24.426910 53.930256 11,175 126 333 -1856
2019-10-23 04:10:22 GMT 24.430984 53.924305 11,300 126 335 -1856
2019-10-23 04:10:14 GMT 24.437737 53.914421 11,525 126 338 -1920
2019-10-23 04:10:10 GMT 24.441462 53.909031 11,650 126 340 -1920
2019-10-23 04:10:01 GMT 24.451263 53.894756 11,975 126 346 -1920
2019-10-23 04:09:53 GMT 24.457428 53.885761 12,200 127 350 -2176
2019-10-23 04:09:49 GMT 24.461851 53.879391 12,375 127 351 -2560
2019-10-23 04:09:39 GMT 24.471907 53.864880 12,850 127 350 -2944
2019-10-23 04:09:29 GMT 24.482286 53.849747 13,175 126 355 -640
2019-10-23 04:09:17 GMT 24.493195 53.833973 13,400 127 361 -1984
2019-10-23 04:09:06 GMT 24.504089 53.818104 13,775 126 363 -2048
2019-10-23 04:08:56 GMT 24.514618 53.802692 14,125 126 365 -2112
2019-10-23 04:08:46 GMT 24.525284 53.787231 14,475 126 367 -2176
2019-10-23 04:08:36 GMT 24.536102 53.771442 14,825 126 370 -1664
2019-10-23 04:08:24 GMT 24.547577 53.754627 15,075 126 377 -960
2019-10-23 04:08:14 GMT 24.558912 53.738068 15,275 126 382 -1216
2019-10-23 04:08:04 GMT 24.569916 53.721924 15,475 126 384 -1280
2019-10-23 04:07:52 GMT 24.581268 53.705292 15,700 126 387 -1280
2019-10-23 04:07:43 GMT 24.593033 53.688099 15,925 126 393 -1280
2019-10-23 04:07:34 GMT 24.601456 53.675842 16,100 126 392 -1280
2019-10-23 04:07:30 GMT 24.605164 53.670452 16,175 126 393 -1280
2019-10-23 04:07:16 GMT 24.621460 53.646545 16,475 126 395 -1344
2019-10-23 04:07:10 GMT 24.627157 53.638206 16,600 126 399 -1280
2019-10-23 04:06:59 GMT 24.639633 53.619965 16,850 126 402 -1280
2019-10-23 04:06:49 GMT 24.651876 53.602036 17,075 126 406 -1344
2019-10-23 04:06:38 GMT 24.663712 53.584698 17,300 126 409 -1344
2019-10-23 04:06:27 GMT 24.676254 53.566284 17,550 126 413 -1344
2019-10-23 04:06:17 GMT 24.687195 53.550312 17,750 126 414 -1344
2019-10-23 04:06:08 GMT 24.697964 53.534512 18,050 126 417 -1344
2019-10-23 04:06:05 GMT 24.701385 53.529510 18,050 126 417 -1344
2019-10-23 04:05:57 GMT 24.711836 53.514042 18,250 126 419 -1344
2019-10-23 04:05:45 GMT 24.724405 53.495541 18,500 126 421 -1344
2019-10-23 04:05:31 GMT 24.740791 53.471497 18,750 126 424 -1344
2019-10-23 04:05:23 GMT 24.750381 53.457401 19,875 126 428 -1408
2019-10-23 04:05:07 GMT 24.777893 53.417030 19,200 126 424 -1344
2019-10-23 04:05:00 GMT 24.777893 53.417030 19,550 126 423 -1408
2019-10-23 04:04:53 GMT 24.785706 53.405560 19,775 126 426 -1344
2019-10-23 04:04:49 GMT 24.794815 53.392181 19,875 126 428 -1408
2019-10-23 04:04:40 GMT 24.801086 53.382923 20,000 126 428 -1408
2019-10-23 04:04:31 GMT 24.811644 53.367435 20,225 126 430 -1408
2019-10-23 04:04:18 GMT 24.827147 53.344532 20,700 126 438 -1408
2019-10-23 04:04:09 GMT 24.838039 53.328465 20,725 126 433 -1344
2019-10-23 04:03:58 GMT 24.851120 53.309174 20,975 126 436 -1408
2019-10-23 04:03:48 GMT 24.863846 53.290405 21,225 126 439 -1408
2019-10-23 04:03:36 GMT 24.877657 53.269958 21,500 126 442 -1472
2019-10-23 04:03:27 GMT 24.889160 53.253021 21,875 126 446 -1536
2019-10-23 04:03:17 GMT 24.901932 53.234150 21,975 126 451 -1472
2019-10-23 04:03:06 GMT 24.915829 53.213730 22,250 126 455 -1472
2019-10-23 04:02:55 GMT 24.929581 53.193512 22,500 126 459 -1536
2019-10-23 04:02:42 GMT 24.945740 53.169659 22,775 126 459 -960
2019-10-23 04:02:33 GMT 24.957001 53.152973 22,950 126 456 -1216
2019-10-23 04:02:21 GMT 24.972748 53.129627 23,325 126 456 -1984
2019-10-23 04:02:11 GMT 24.985472 53.110813 23,575 126 459 -1600
2019-10-23 04:02:01 GMT 24.997528 53.092934 23,850 126 461 -1472
2019-10-23 04:01:50 GMT 25.011400 53.072308 24,125 126 464 -1536
2019-10-23 04:01:40 GMT 25.024841 53.052368 24,375 126 466 -1472
2019-10-23 04:01:22 GMT 25.048096 53.017780 24,650 126 470 -1536
2019-10-23 04:01:17 GMT 25.054276 53.008568 24,950 126 474 -1536
2019-10-23 04:01:07 GMT 25.066936 52.989704 25,200 126 475 -1536
2019-10-23 04:00:56 GMT 25.081322 52.968197 25,475 126 477 -1408
2019-10-23 04:00:46 GMT 25.095016 52.947693 25,650 126 477 -896
2019-10-23 04:00:34 GMT 25.110462 52.924667 25,875 126 479 -1216
2019-10-23 04:00:24 GMT 25.123444 52.905224 26,075 126 482 -1024
2019-10-23 04:00:17 GMT 25.133087 52.890827 26,275 126 484 -2560
2019-10-23 04:00:12 GMT 25.139372 52.881500 26,450 126 484 -2560
2019-10-23 04:00:02 GMT 25.152786 52.861530 26,825 126 487 -1600
2019-10-23 03:59:51 GMT 25.168327 52.838432 27,100 126 489 -1216
2019-10-23 03:59:45 GMT 25.176224 52.826641 27,225 126 490 -1280
2019-10-23 03:59:42 GMT 25.180252 52.820637 27,300 126 489 -1280
2019-10-23 03:59:27 GMT 25.199936 52.791340 27,600 126 489 -1280
2019-10-23 03:59:18 GMT 25.211714 52.773762 27,775 126 489 -1216
2019-10-23 03:59:09 GMT 25.224289 52.754974 27,950 126 489 -960
2019-10-23 03:58:58 GMT 25.239367 52.732197 28,100 125 493 -1024
2019-10-23 03:58:47 GMT 25.253769 52.709553 28,325 124 495 -1280
2019-10-23 03:58:37 GMT 25.266541 52.688396 28,525 122 499 -1344
2019-10-23 03:58:26 GMT 25.279774 52.665348 28,800 121 503 -1472
2019-10-23 03:58:16 GMT 25.291626 52.643482 28,950 120 509 -448
2019-10-23 03:58:03 GMT 25.307465 52.612560 29,025 119 513 -576
2019-10-23 03:57:55 GMT 25.316690 52.594353 29,175 119 513 -1280
2019-10-23 03:57:44 GMT 25.329346 52.569324 29,450 119 513 -1920
2019-10-23 03:57:33 GMT 25.341969 52.544445 29,825 119 516 -2048
2019-10-23 03:57:23 GMT 25.354248 52.520092 30,200 119 519 -2048
2019-10-23 03:57:12 GMT 25.366837 52.494965 30,575 118 521 -2240
2019-10-23 03:57:01 GMT 25.379396 52.469303 30,900 117 523 -1280
2019-10-23 03:56:50 GMT 25.391327 52.443745 31,000 116 523 0
2019-10-23 03:56:40 GMT 25.402533 52.418724 31,000 116 522 0
2019-10-23 03:56:29 GMT 25.414356 52.392452 31,000 116 521 0
2019-10-23 03:56:18 GMT 25.425293 52.368214 31,000 116 521 0
2019-10-23 03:56:07 GMT 25.436966 52.342175 31,000 116 521 0
2019-10-23 03:55:57 GMT 25.448502 52.317150 31,000 117 524 -64
2019-10-23 03:55:46 GMT 25.461096 52.290932 31,050 118 528 -576
2019-10-23 03:55:35 GMT 25.474182 52.264912 31,225 119 536 -1408
2019-10-23 03:55:24 GMT 25.487640 52.239227 31,550 120 540 -2112
2019-10-23 03:55:13 GMT 25.501831 52.213440 31,925 121 544 -2112
2019-10-23 03:55:02 GMT 25.516632 52.187237 32,325 122 548 -2112
2019-10-23 03:54:51 GMT 25.531435 52.161324 32,725 122 551 -2048
2019-10-23 03:54:40 GMT 25.546612 52.134792 33,100 122 554 -2112
2019-10-23 03:54:30 GMT 25.560425 52.110596 33,450 122 557 -2112
2019-10-23 03:54:20 GMT 25.574203 52.086384 33,825 122 559 -2112
2019-10-23 03:54:09 GMT 25.589813 52.059223 34,225 122 562 -2304
2019-10-23 03:53:59 GMT 25.604279 52.034252 34,675 122 563 -2752
2019-10-23 03:53:48 GMT 25.619186 52.008450 35,275 122 559 -3520
2019-10-23 03:53:38 GMT 25.633713 51.983288 35,825 122 556 -2880
2019-10-23 03:53:27 GMT 25.648840 51.957039 36,275 122 554 -2240
2019-10-23 03:53:15 GMT 25.664337 51.930134 36,650 122 554 -1600
2019-10-23 03:53:04 GMT 25.679169 51.903942 36,875 121 554 -1024
2019-10-23 03:52:54 GMT 25.692553 51.879566 36,975 120 554 -320
2019-10-23 03:52:44 GMT 25.705866 51.853966 37,000 119 555 0
2019-10-23 03:52:32 GMT 25.720779 51.824951 37,000 119 555 0
2019-10-23 03:52:22 GMT 25.733519 51.800072 37,000 119 554 0
2019-10-23 03:52:12 GMT 25.746693 51.774315 37,000 119 555 0
2019-10-23 03:52:01 GMT 25.760101 51.747894 37,000 119 557 0
2019-10-23 03:51:51 GMT 25.773134 51.721767 37,000 118 558 0
2019-10-23 03:51:38 GMT 25.788437 51.690472 37,000 118 558 0
2019-10-23 03:51:29 GMT 25.799530 51.667664 37,000 118 558 0
2019-10-23 03:51:19 GMT 25.812332 51.641338 37,000 118 558 0
2019-10-23 03:51:14 GMT 25.818420 51.628773 37,000 118 558 0
2019-10-23 03:51:08 GMT 25.825516 51.614124 37,000 118 558 0
2019-10-23 03:51:05 GMT 25.830551 51.603767 37,000 118 558 0
2019-10-23 03:50:57 GMT 25.838402 51.587521 37,000 118 558 0
2019-10-23 03:50:54 GMT 25.842171 51.579700 37,000 118 558 0
2019-10-23 03:50:44 GMT 25.855764 51.551708 37,000 118 559 0
2019-10-23 03:50:36 GMT 25.865028 51.532482 37,000 118 558 0
2019-10-23 03:50:25 GMT 25.877426 51.506912 37,000 118 558 0
2019-10-23 03:50:19 GMT 25.885838 51.489643 37,000 118 558 0
2019-10-23 03:50:15 GMT 25.904297 51.451359 37,000 118 558 0
2019-10-23 03:50:03 GMT 25.904297 51.451359 37,000 118 558 0
2019-10-23 03:49:53 GMT 25.916700 51.425735 37,000 118 558 0
2019-10-23 03:49:45 GMT 25.927368 51.403629 37,000 118 558 0
2019-10-23 03:49:41 GMT 25.931925 51.394150 37,000 118 558 0
2019-10-23 03:49:31 GMT 25.945238 51.366577 37,000 118 558 0
2019-10-23 03:49:20 GMT 25.957436 51.341331 37,000 118 559 0
2019-10-23 03:49:09 GMT 25.971493 51.312279 37,000 118 558 0
2019-10-23 03:49:00 GMT 25.981783 51.291100 37,000 118 558 0
2019-10-23 03:48:56 GMT 25.986670 51.281010 37,000 118 558 0
2019-10-23 03:48:49 GMT 25.996262 51.261169 37,000 118 558 0
2019-10-23 03:48:37 GMT 26.009766 51.233444 37,000 118 558 0
2019-10-23 03:48:28 GMT 26.021805 51.208519 37,000 118 557 0
2019-10-23 03:48:18 GMT 26.033594 51.184139 37,000 118 557 0
2019-10-23 03:48:07 GMT 26.047668 51.155041 37,000 118 557 0
2019-10-23 03:47:54 GMT 26.062550 51.123768 37,000 117 557 0
2019-10-23 03:47:46 GMT 26.072233 51.102852 37,000 116 559 0
2019-10-23 03:47:35 GMT 26.084894 51.074806 37,000 116 560 0
2019-10-23 03:47:23 GMT 26.098114 51.044659 37,000 115 561 0
2019-10-23 03:47:13 GMT 26.109009 51.018799 37,000 114 562 0
2019-10-23 03:47:03 GMT 26.120461 50.991089 37,000 114 562 0
2019-10-23 03:46:53 GMT 26.131634 50.963993 37,000 114 562 0
2019-10-23 03:46:42 GMT 26.142714 50.937160 37,000 114 562 0
2019-10-23 03:46:32 GMT 26.154190 50.909401 37,000 114 562 0
2019-10-23 03:46:20 GMT 26.166594 50.879269 37,000 114 562 0
2019-10-23 03:46:09 GMT 26.178885 50.849533 37,000 114 562 0
2019-10-23 03:45:59 GMT 26.189173 50.824551 37,000 114 563 0
2019-10-23 03:45:48 GMT 26.200809 50.796082 37,000 114 562 0
2019-10-23 03:45:38 GMT 26.212355 50.767612 37,000 114 563 0
2019-10-23 03:45:27 GMT 26.223993 50.739193 37,000 114 562 0
2019-10-23 03:45:19 GMT 26.233210 50.715584 37,000 111 563 0
2019-10-23 03:45:16 GMT 26.234793 50.711254 37,000 111 564 0
2019-10-23 03:45:05 GMT 26.244873 50.681175 37,000 108 566 0
2019-10-23 03:44:58 GMT 26.252855 50.653259 37,000 105 568 0
2019-10-23 03:44:44 GMT 26.260210 50.622414 37,000 103 570 0
2019-10-23 03:44:37 GMT 26.264772 50.599224 37,000 100 571 -64
2019-10-23 03:44:33 GMT 26.266216 50.590561 37,000 99 571 -64
2019-10-23 03:44:23 GMT 26.270554 50.559601 37,000 98 572 0
2019-10-23 03:44:15 GMT 26.273849 50.533836 37,000 98 572 0
2019-10-23 03:44:12 GMT 26.274408 50.529449 37,000 98 572 0
2019-10-23 03:44:02 GMT 26.278290 50.499332 37,000 98 571 0
2019-10-23 03:43:53 GMT 26.281857 50.472088 37,000 98 571 0
2019-10-23 03:43:50 GMT 26.282696 50.465698 37,000 98 571 0
2019-10-23 03:43:41 GMT 26.286392 50.437351 37,000 98 571 0
2019-10-23 03:43:37 GMT 26.287724 50.426983 37,000 98 571 64
2019-10-23 03:43:34 GMT 26.289398 50.414200 37,000 98 571 0
2019-10-23 03:43:29 GMT 26.290924 50.402992 37,000 99 571 0
2019-10-23 03:43:23 GMT 26.293716 50.385063 37,000 100 570 0
2019-10-23 03:43:18 GMT 26.295822 50.373108 37,000 101 570 0
2019-10-23 03:43:13 GMT 26.299314 50.355042 37,000 103 569 0
2019-10-23 03:43:08 GMT 26.301922 50.343052 37,000 103 569 0
2019-10-23 03:43:01 GMT 26.306625 50.323135 37,000 105 569 0
2019-10-23 03:42:58 GMT 26.314863 50.292454 37,000 108 567 0
2019-10-23 03:42:51 GMT 26.314863 50.292454 37,000 107 567 0
2019-10-23 03:42:47 GMT 26.317337 50.284008 37,000 108 567 0
2019-10-23 03:42:41 GMT 26.322601 50.267220 37,000 110 566 -64
2019-10-23 03:42:35 GMT 26.328037 50.251305 37,000 111 565 0
2019-10-23 03:42:31 GMT 26.332947 50.237679 37,000 111 564 0
2019-10-23 03:42:25 GMT 26.337395 50.225426 37,000 111 564 0
2019-10-23 03:42:19 GMT 26.343353 50.208946 37,000 111 565 0
2019-10-23 03:42:13 GMT 26.349243 50.192646 37,000 111 565 0
2019-10-23 03:42:10 GMT 26.353088 50.182129 37,000 111 565 0
2019-10-23 03:42:04 GMT 26.357941 50.168602 37,000 111 565 0
2019-10-23 03:41:58 GMT 26.363892 50.152122 37,000 111 566 0
2019-10-23 03:41:53 GMT 26.368444 50.139542 37,000 111 566 0
2019-10-23 03:41:46 GMT 26.375519 50.119942 37,000 111 566 0
2019-10-23 03:41:43 GMT 26.378593 50.111389 37,000 111 566 0
2019-10-23 03:41:37 GMT 26.384445 50.095272 37,000 111 566 0
2019-10-23 03:41:32 GMT 26.389254 50.081863 37,000 111 566 0
2019-10-23 03:41:27 GMT 26.394234 50.068077 37,000 111 567 0
2019-10-23 03:41:21 GMT 26.399734 50.052727 37,000 111 567 0
2019-10-23 03:41:17 GMT 26.404724 50.038891 37,000 111 567 0
2019-10-23 03:41:09 GMT 26.411957 50.018833 37,000 111 567 0
2019-10-23 03:41:06 GMT 26.414532 50.011665 37,000 111 567 0
2019-10-23 03:41:00 GMT 26.420563 49.994995 37,000 111 567 0
2019-10-23 03:40:57 GMT 26.424681 49.983463 37,000 111 567 0
2019-10-23 03:40:49 GMT 26.431849 49.963337 37,000 111 567 0
2019-10-23 03:40:45 GMT 26.434780 49.955204 37,000 111 567 0
2019-10-23 03:40:39 GMT 26.441019 49.937561 37,000 111 567 0
2019-10-23 03:40:36 GMT 26.444883 49.926682 37,000 111 567 0
2019-10-23 03:40:28 GMT 26.451508 49.907726 37,000 111 567 0
2019-10-23 03:40:25 GMT 26.454758 49.898502 37,000 111 567 -64
2019-10-23 03:40:20 GMT 26.459290 49.885704 37,000 111 567 64
2019-10-23 03:40:15 GMT 26.465179 49.869320 37,000 111 567 64
2019-10-23 03:40:07 GMT 26.471786 49.850048 37,000 109 569 0
2019-10-23 03:40:04 GMT 26.474489 49.841328 37,000 108 569 0
2019-10-23 03:39:59 GMT 26.478653 49.826885 37,000 106 571 0
2019-10-23 03:39:54 GMT 26.482731 49.810585 37,000 104 573 0
2019-10-23 03:39:48 GMT 26.485523 49.797962 37,000 102 573 0
2019-10-23 03:39:43 GMT 26.488689 49.781166 37,000 100 575 0
2019-10-23 03:39:33 GMT 26.493118 49.750240 37,000 96 577 64
2019-10-23 03:39:22 GMT 26.495636 49.719406 37,000 93 579 -64
2019-10-23 03:39:12 GMT 26.496092 49.687569 37,000 89 581 0
2019-10-23 03:39:06 GMT 26.495857 49.673840 37,000 88 581 0
2019-10-23 03:39:01 GMT 26.495579 49.656460 37,000 88 581 0
2019-10-23 03:38:56 GMT 26.495346 49.642410 37,000 88 581 0
2019-10-23 03:38:51 GMT 26.495020 49.623238 37,000 88 581 0
2019-10-23 03:38:46 GMT 26.494787 49.611565 37,000 88 581 0
2019-10-23 03:38:40 GMT 26.494509 49.593605 37,000 88 581 0
2019-10-23 03:38:35 GMT 26.494228 49.579239 37,000 88 581 0
2019-10-23 03:38:30 GMT 26.493942 49.562073 37,000 88 581 0
2019-10-23 03:38:25 GMT 26.493759 49.548599 37,000 88 581 0
2019-10-23 03:38:19 GMT 26.493439 49.531239 37,000 88 581 0
2019-10-23 03:38:14 GMT 26.493158 49.516121 37,000 88 581 0
2019-10-23 03:38:09 GMT 26.492889 49.499523 37,000 88 581 0
2019-10-23 03:38:04 GMT 26.492661 49.487553 37,000 88 581 0
2019-10-23 03:37:57 GMT 26.492294 49.467499 37,000 88 581 0
2019-10-23 03:37:54 GMT 26.492111 49.457027 37,000 88 581 0
2019-10-23 03:37:48 GMT 26.491669 49.435097 37,000 88 580 0
2019-10-23 03:37:42 GMT 26.491425 49.420856 37,000 88 580 0
2019-10-23 03:37:36 GMT 26.491110 49.404305 37,000 88 580 0
2019-10-23 03:37:33 GMT 26.490923 49.394108 37,000 88 580 0
2019-10-23 03:37:26 GMT 26.490509 49.371262 37,000 88 581 0
2019-10-23 03:37:21 GMT 26.490225 49.358246 37,000 88 581 0
2019-10-23 03:37:12 GMT 26.489714 49.331360 37,000 88 581 0
2019-10-23 03:37:05 GMT 26.489246 49.306801 37,000 88 581 0
2019-10-23 03:37:01 GMT 26.489061 49.299034 37,000 88 581 0
2019-10-23 03:36:54 GMT 26.488678 49.279175 37,000 88 581 0
2019-10-23 03:36:49 GMT 26.488312 49.261814 37,000 88 581 0
2019-10-23 03:36:44 GMT 26.487991 49.244453 37,000 88 580 0
2019-10-23 03:36:39 GMT 26.487759 49.233540 37,000 88 580 0
2019-10-23 03:36:33 GMT 26.487396 49.214603 37,000 88 580 0
2019-10-23 03:36:24 GMT 26.486801 49.184391 37,000 88 580 0
2019-10-23 03:36:13 GMT 26.486206 49.154854 37,000 88 580 0
2019-10-23 03:36:02 GMT 26.485519 49.121376 37,000 88 580 0
2019-10-23 03:35:51 GMT 26.484873 49.089870 37,000 88 580 0
2019-10-23 03:35:40 GMT 26.484221 49.057652 37,000 88 579 0
2019-10-23 03:35:30 GMT 26.483290 49.014709 37,000 88 579 0
2019-10-23 03:35:19 GMT 26.482910 48.994255 37,000 88 579 0
2019-10-23 03:35:07 GMT 26.482178 48.958809 37,000 88 579 0
2019-10-23 03:34:58 GMT 26.481613 48.932419 37,000 88 579 0
2019-10-23 03:34:49 GMT 26.481033 48.905121 37,000 88 579 0
2019-10-23 03:34:46 GMT 26.480804 48.895897 37,000 88 579 0
2019-10-23 03:34:38 GMT 26.480301 48.871124 37,000 88 579 0
2019-10-23 03:34:26 GMT 26.479519 48.834599 37,000 88 579 0
2019-10-23 03:34:18 GMT 26.478958 48.810776 37,000 88 579 0
2019-10-23 03:34:15 GMT 26.478790 48.804638 37,000 88 579 0
2019-10-23 03:34:03 GMT 26.477888 48.766041 37,000 88 579 0
2019-10-23 03:33:53 GMT 26.477003 48.736832 37,000 87 579 0
2019-10-23 03:33:43 GMT 26.475468 48.708836 37,000 85 579 0
2019-10-23 03:33:29 GMT 26.471790 48.667213 37,000 83 580 0
2019-10-23 03:33:26 GMT 26.470276 48.653732 37,000 82 580 0
2019-10-23 03:33:22 GMT 26.469131 48.644558 37,000 81 579 0
2019-10-23 03:33:11 GMT 26.464481 48.612232 37,000 79 581 0
2019-10-23 03:33:05 GMT 26.460983 48.591805 37,000 78 580 0
2019-10-23 03:32:58 GMT 26.457870 48.575741 37,000 77 580 0
2019-10-23 03:32:49 GMT 26.452469 48.548584 37,000 77 580 0
2019-10-23 03:32:38 GMT 26.445953 48.515732 37,000 77 580 0
2019-10-23 03:32:30 GMT 26.441483 48.493134 37,000 77 580 0
2019-10-23 03:32:27 GMT 26.439856 48.485096 37,000 77 580 0
2019-10-23 03:32:23 GMT 26.436831 48.469936 37,000 77 580 0
2019-10-23 03:32:18 GMT 26.434296 48.457272 37,000 77 580 0
2019-10-23 03:32:09 GMT 26.429054 48.430851 37,000 77 580 0
2019-10-23 03:31:59 GMT 26.422911 48.400215 37,000 77 580 0
2019-10-23 03:31:56 GMT 26.421515 48.393246 37,000 77 580 0
2019-10-23 03:31:49 GMT 26.417372 48.372486 37,000 77 580 0
2019-10-23 03:31:40 GMT 26.409737 48.334297 37,000 77 580 0
2019-10-23 03:31:28 GMT 26.403671 48.304085 37,000 77 580 0
2019-10-23 03:31:17 GMT 26.398796 48.279736 37,000 77 580 0
2019-10-23 03:31:07 GMT 26.392960 48.250710 37,000 77 580 0
2019-10-23 03:30:57 GMT 26.387054 48.221275 37,000 77 580 0
2019-10-23 03:30:49 GMT 26.382706 48.199715 37,000 77 581 0
2019-10-23 03:30:46 GMT 26.380642 48.189362 37,000 77 581 0
2019-10-23 03:30:35 GMT 26.374374 48.158310 37,000 77 581 0
2019-10-23 03:30:29 GMT 26.370941 48.141365 37,000 77 581 0
2019-10-23 03:30:25 GMT 26.368103 48.127373 37,000 77 581 0
2019-10-23 03:30:21 GMT 26.365997 48.117165 37,000 77 581 0
2019-10-23 03:30:14 GMT 26.361923 48.097004 37,000 77 581 0
2019-10-23 03:30:10 GMT 26.359320 48.084042 37,000 77 581 0
2019-10-23 03:30:04 GMT 26.355736 48.066505 37,000 77 581 0
2019-10-23 03:29:58 GMT 26.352198 48.049023 37,000 77 581 0
2019-10-23 03:29:48 GMT 26.346588 48.021397 37,000 77 582 0
2019-10-23 03:29:42 GMT 26.343121 48.004337 37,000 77 581 0
2019-10-23 03:29:33 GMT 26.337479 47.976776 37,000 77 581 0
2019-10-23 03:29:22 GMT 26.331249 47.946236 37,000 77 581 0
2019-10-23 03:29:12 GMT 26.324982 47.915730 37,000 77 581 0
2019-10-23 03:29:05 GMT 26.320770 47.895054 37,000 77 582 0
2019-10-23 03:29:00 GMT 26.318024 47.881580 37,000 77 582 0
2019-10-23 03:28:51 GMT 26.312393 47.853855 37,000 77 582 0
2019-10-23 03:28:43 GMT 26.307861 47.831364 37,000 77 582 0
2019-10-23 03:28:40 GMT 26.305925 47.821903 37,000 77 582 0
2019-10-23 03:28:34 GMT 26.302505 47.805088 37,000 77 581 0
2019-10-23 03:28:30 GMT 26.299873 47.792110 37,000 77 581 0
2019-10-23 03:28:23 GMT 26.295963 47.772835 37,000 81 582 0
2019-10-23 03:28:20 GMT 26.294266 47.763580 37,000 78 581 0
2019-10-23 03:28:09 GMT 26.289165 47.730999 37,000 81 582 0
2019-10-23 03:27:59 GMT 26.285614 47.701134 37,000 83 582 0
2019-10-23 03:27:48 GMT 26.283005 47.669834 37,000 85 582 64
2019-10-23 03:27:38 GMT 26.281624 47.640099 37,000 88 582 0
2019-10-23 03:27:28 GMT 26.281439 47.609570 37,000 90 581 0
2019-10-23 03:27:18 GMT 26.282043 47.578056 37,000 91 581 0
2019-10-23 03:27:07 GMT 26.282648 47.547455 37,000 91 581 0
2019-10-23 03:26:57 GMT 26.283279 47.515041 37,000 91 581 0
2019-10-23 03:26:46 GMT 26.283859 47.484074 37,000 91 581 0
2019-10-23 03:26:36 GMT 26.284470 47.454357 37,000 91 581 0
2019-10-23 03:26:26 GMT 26.285065 47.423054 37,000 91 581 0
2019-10-23 03:26:15 GMT 26.285660 47.391705 37,000 91 580 0
2019-10-23 03:26:04 GMT 26.286255 47.359158 37,000 91 580 0
2019-10-23 03:25:54 GMT 26.286804 47.329620 37,000 91 581 0
2019-10-23 03:25:47 GMT 26.287210 47.307392 37,000 91 581 0
2019-10-23 03:25:44 GMT 26.287354 47.297073 37,000 91 581 0
2019-10-23 03:25:33 GMT 26.287903 47.266914 37,000 91 581 0
2019-10-23 03:25:23 GMT 26.288422 47.235718 37,000 90 581 0
2019-10-23 03:25:12 GMT 26.288910 47.203899 37,000 90 581 0
2019-10-23 03:25:06 GMT 26.289120 47.185802 37,000 90 581 0
2019-10-23 03:25:02 GMT 26.289307 47.174183 37,000 90 581 0
2019-10-23 03:24:51 GMT 26.289818 47.141014 37,000 90 581 0
2019-10-23 03:24:41 GMT 26.290237 47.111172 37,000 90 580 0
2019-10-23 03:24:31 GMT 26.290655 47.081062 37,000 90 580 0
2019-10-23 03:24:21 GMT 26.291075 47.049690 37,000 90 580 0
2019-10-23 03:24:10 GMT 26.291540 47.016308 37,000 90 580 0
2019-10-23 03:24:00 GMT 26.291931 46.987801 37,000 90 580 0
2019-10-23 03:23:49 GMT 26.292343 46.955307 37,000 90 580 0
2019-10-23 03:23:39 GMT 26.292704 46.925934 37,000 90 580 0
2019-10-23 03:23:29 GMT 26.293121 46.894157 37,000 90 580 0
2019-10-23 03:23:17 GMT 26.293543 46.860600 37,000 90 580 0
2019-10-23 03:23:08 GMT 26.293900 46.832436 37,000 90 580 0
2019-10-23 03:23:00 GMT 26.294220 46.808857 37,000 90 580 0
2019-10-23 03:22:57 GMT 26.294287 46.801231 37,000 90 580 0
2019-10-23 03:22:47 GMT 26.294678 46.770042 37,000 90 580 0
2019-10-23 03:22:37 GMT 26.295033 46.739746 37,000 90 581 0
2019-10-23 03:22:26 GMT 26.295357 46.708427 37,000 90 581 0
2019-10-23 03:22:15 GMT 26.295731 46.674095 37,000 90 581 0
2019-10-23 03:22:05 GMT 26.296009 46.645412 37,000 90 581 0
2019-10-23 03:21:54 GMT 26.296429 46.611080 37,000 90 581 0
2019-10-23 03:21:45 GMT 26.296707 46.584831 37,000 90 581 64
2019-10-23 03:21:34 GMT 26.297012 46.553322 37,000 90 581 0
2019-10-23 03:21:24 GMT 26.297266 46.521767 37,000 90 581 -64
2019-10-23 03:21:13 GMT 26.297607 46.489063 37,000 90 581 0
2019-10-23 03:21:03 GMT 26.297882 46.458279 37,000 90 581 0
2019-10-23 03:20:53 GMT 26.298197 46.428539 37,000 90 581 0
2019-10-23 03:20:41 GMT 26.298475 46.394470 37,000 90 581 0
2019-10-23 03:20:31 GMT 26.298710 46.365475 37,000 90 581 0
2019-10-23 03:20:21 GMT 26.298988 46.334362 37,000 90 581 0
2019-10-23 03:20:11 GMT 26.299210 46.303123 37,000 90 582 0
2019-10-23 03:20:00 GMT 26.299501 46.271877 37,000 90 582 0
2019-10-23 03:19:50 GMT 26.299759 46.240368 37,000 90 581 0
2019-10-23 03:19:40 GMT 26.299967 46.210926 37,000 90 581 0
2019-10-23 03:19:29 GMT 26.300217 46.179684 37,000 90 581 0
2019-10-23 03:19:19 GMT 26.300432 46.148811 37,000 90 581 0
2019-10-23 03:19:08 GMT 26.300674 46.117031 37,000 90 580 0
2019-10-23 03:18:58 GMT 26.300858 46.085987 37,000 90 580 0
2019-10-23 03:18:48 GMT 26.301083 46.055691 37,000 90 580 0
2019-10-23 03:18:37 GMT 26.301315 46.024368 37,000 90 579 64
2019-10-23 03:18:26 GMT 26.301544 45.991463 37,000 90 579 0
2019-10-23 03:18:16 GMT 26.301689 45.961514 37,000 90 579 0
2019-10-23 03:18:06 GMT 26.301874 45.931408 37,000 90 579 0
2019-10-23 03:17:55 GMT 26.302107 45.898975 37,000 90 579 0
2019-10-23 03:17:45 GMT 26.302246 45.868553 37,000 90 579 0
2019-10-23 03:17:34 GMT 26.302414 45.836880 37,000 90 579 0
2019-10-23 03:17:24 GMT 26.302597 45.805889 37,000 90 579 0
2019-10-23 03:17:14 GMT 26.302734 45.774899 37,000 90 579 0
2019-10-23 03:17:03 GMT 26.302872 45.743649 37,000 90 579 0
2019-10-23 03:16:53 GMT 26.302992 45.712845 37,000 90 579 0
2019-10-23 03:16:43 GMT 26.303131 45.683319 37,000 90 579 0
2019-10-23 03:16:32 GMT 26.303238 45.652184 37,000 90 579 0
2019-10-23 03:16:21 GMT 26.303364 45.618088 37,000 90 579 0
2019-10-23 03:16:11 GMT 26.303505 45.589195 37,000 90 580 0
2019-10-23 03:16:01 GMT 26.303596 45.557873 37,000 90 580 0
2019-10-23 03:15:50 GMT 26.303696 45.526722 37,000 90 580 0
2019-10-23 03:15:40 GMT 26.303787 45.496613 37,000 90 580 0
2019-10-23 03:15:30 GMT 26.303829 45.465755 37,000 90 580 0
2019-10-23 03:15:19 GMT 26.303923 45.434383 37,000 90 580 0
2019-10-23 03:15:09 GMT 26.303970 45.402744 37,000 90 581 0
2019-10-23 03:14:58 GMT 26.304064 45.371368 37,000 90 581 0
2019-10-23 03:14:48 GMT 26.304110 45.340260 37,000 90 582 0
2019-10-23 03:14:37 GMT 26.304153 45.309326 37,000 90 582 0
2019-10-23 03:14:27 GMT 26.304199 45.276627 37,000 90 583 0
2019-10-23 03:14:17 GMT 26.304249 45.247139 37,000 90 583 0
2019-10-23 03:14:05 GMT 26.304291 45.211540 37,000 90 584 0
2019-10-23 03:13:56 GMT 26.304291 45.185162 37,000 90 584 0
2019-10-23 03:13:46 GMT 26.304245 45.153652 37,000 90 584 0
2019-10-23 03:13:35 GMT 26.304245 45.122402 37,000 90 584 0
2019-10-23 03:13:25 GMT 26.304249 45.090744 37,000 90 584 0
2019-10-23 03:13:15 GMT 26.304249 45.061058 37,000 90 583 0
2019-10-23 03:13:04 GMT 26.304249 45.029842 37,000 90 583 0
2019-10-23 03:12:54 GMT 26.304201 44.998680 37,000 89 583 0
2019-10-23 03:12:43 GMT 26.304201 44.966934 37,000 89 582 0
2019-10-23 03:12:33 GMT 26.304153 44.935638 37,000 89 582 0
2019-10-23 03:12:23 GMT 26.304110 44.905296 37,000 89 581 0
2019-10-23 03:12:12 GMT 26.304062 44.874073 37,000 89 581 0
2019-10-23 03:12:01 GMT 26.304016 44.840904 37,000 89 581 0
2019-10-23 03:11:51 GMT 26.303970 44.811054 37,000 89 581 0
2019-10-23 03:11:41 GMT 26.303879 44.780895 37,000 89 581 0
2019-10-23 03:11:31 GMT 26.303787 44.749542 37,000 89 581 0
2019-10-23 03:11:20 GMT 26.303690 44.717735 37,000 89 581 0
2019-10-23 03:11:10 GMT 26.303596 44.687576 37,000 89 582 0
2019-10-23 03:10:59 GMT 26.303513 44.656574 37,000 89 582 0
2019-10-23 03:10:49 GMT 26.303421 44.625427 37,000 89 583 0
2019-10-23 03:10:38 GMT 26.303270 44.593559 37,000 89 583 0
2019-10-23 03:10:28 GMT 26.303131 44.562923 37,000 89 583 0
2019-10-23 03:10:18 GMT 26.303009 44.531578 37,000 89 584 0
2019-10-23 03:10:07 GMT 26.302917 44.500069 37,000 89 584 0
2019-10-23 03:09:57 GMT 26.302759 44.468697 37,000 89 584 0
2019-10-23 03:09:46 GMT 26.302620 44.435047 37,000 89 584 0
2019-10-23 03:09:37 GMT 26.302481 44.408005 37,000 89 584 0
2019-10-23 03:09:26 GMT 26.302322 44.375385 37,000 89 585 0
2019-10-23 03:09:16 GMT 26.302185 44.344707 37,000 89 585 0
2019-10-23 03:09:05 GMT 26.302013 44.313885 37,000 89 585 0
2019-10-23 03:08:55 GMT 26.301865 44.282158 37,000 89 585 0
2019-10-23 03:08:44 GMT 26.301689 44.250446 37,000 89 585 0
2019-10-23 03:08:34 GMT 26.301498 44.218727 37,000 89 584 0
2019-10-23 03:08:23 GMT 26.301315 44.187168 37,000 89 584 0
2019-10-23 03:08:14 GMT 26.301086 44.158356 37,000 89 584 0
2019-10-23 03:08:03 GMT 26.300903 44.126484 37,000 89 584 0
2019-10-23 03:07:53 GMT 26.300665 44.095741 37,000 89 584 0
2019-10-23 03:07:42 GMT 26.300400 44.064968 37,000 89 583 0
2019-10-23 03:07:32 GMT 26.300171 44.033463 37,000 89 583 0
2019-10-23 03:07:21 GMT 26.299919 44.001827 37,000 89 583 0
2019-10-23 03:07:11 GMT 26.299667 43.969307 37,000 89 583 0
2019-10-23 03:07:01 GMT 26.299438 43.940857 37,000 89 583 0
2019-10-23 03:06:50 GMT 26.299210 43.907845 37,000 89 583 0
2019-10-23 03:06:38 GMT 26.298935 43.870949 37,000 89 584 0
2019-10-23 03:06:30 GMT 26.298943 43.847069 37,000 90 584 0
2019-10-23 03:06:19 GMT 26.299360 43.813793 37,000 91 583 0
2019-10-23 03:06:09 GMT 26.300245 43.784107 37,000 92 582 0
We lost coverage of the aircraft here for a total of 118 minutes
2019-10-23 01:07:46 GMT 32.909546 25.967340 35,000 131 528 0
We lost coverage of the aircraft here for a total of 8 minutes
2019-10-23 00:59:22 GMT 33.720978 24.844236 35,000 130 533 0
2019-10-23 00:58:41 GMT 33.786312 24.752312 35,000 130 532 0
2019-10-23 00:56:36 GMT 33.983551 24.470421 35,000 124 528 0
2019-10-23 00:56:27 GMT 33.996643 24.448055 35,000 123 528 0
2019-10-23 00:56:16 GMT 34.010605 24.422159 35,000 121 526 0
2019-10-23 00:56:05 GMT 34.024284 24.394341 35,000 119 525 0
2019-10-23 00:55:56 GMT 34.035225 24.369907 35,000 117 524 0
2019-10-23 00:55:43 GMT 34.049843 24.336605 35,000 117 524 0
2019-10-23 00:55:35 GMT 34.074554 24.280291 35,000 117 523 0
2019-10-23 00:55:21 GMT 34.074554 24.280291 35,000 117 523 0
2019-10-23 00:55:12 GMT 34.085083 24.256298 35,000 117 523 0
2019-10-23 00:55:04 GMT 34.093781 24.236456 35,000 117 523 0
2019-10-23 00:54:54 GMT 34.105007 24.210835 35,000 117 522 0
2019-10-23 00:54:43 GMT 34.116898 24.183655 35,000 117 522 0
2019-10-23 00:54:32 GMT 34.129074 24.155674 35,000 117 522 0
2019-10-23 00:54:23 GMT 34.139782 24.131241 35,000 117 522 0
2019-10-23 00:54:12 GMT 34.151562 24.104176 35,000 117 522 0
2019-10-23 00:54:02 GMT 34.163151 24.077625 35,000 117 522 0
2019-10-23 00:53:59 GMT 34.166969 24.068871 35,000 117 521 0
2019-10-23 00:53:52 GMT 34.174789 24.050846 35,000 117 521 0
2019-10-23 00:53:40 GMT 34.188309 24.019814 35,000 117 522 0
2019-10-23 00:53:31 GMT 34.209045 23.972113 35,000 117 522 0
2019-10-23 00:53:21 GMT 34.209045 23.972113 35,000 117 522 0
2019-10-23 00:53:10 GMT 34.221588 23.943245 35,000 117 522 -64
2019-10-23 00:53:01 GMT 34.232143 23.918896 35,000 117 521 0
2019-10-23 00:52:53 GMT 34.240753 23.899040 35,000 117 521 0
2019-10-23 00:52:50 GMT 34.255280 23.865566 35,000 117 521 0
2019-10-23 00:52:40 GMT 34.255280 23.865566 35,000 117 521 0
2019-10-23 00:52:29 GMT 34.266953 23.838650 35,000 117 520 0
2019-10-23 00:52:16 GMT 34.282276 23.803253 35,000 117 520 0
2019-10-23 00:52:08 GMT 34.291122 23.782766 35,000 117 519 0
2019-10-23 00:51:58 GMT 34.302715 23.755875 35,000 117 519 0
2019-10-23 00:51:48 GMT 34.314331 23.728954 35,000 117 519 0
2019-10-23 00:51:33 GMT 34.329857 23.692818 35,000 117 519 0
2019-10-23 00:51:20 GMT 34.343674 23.660740 35,000 117 519 0
2019-10-23 00:51:07 GMT 34.359928 23.623009 35,000 117 520 0
2019-10-23 00:50:43 GMT 34.385651 23.563040 35,000 117 520 0
2019-10-23 00:50:36 GMT 34.393158 23.545494 35,000 117 520 -64
2019-10-23 00:50:26 GMT 34.405174 23.517494 35,000 117 520 0
2019-10-23 00:50:15 GMT 34.416115 23.491974 35,000 117 519 -64
2019-10-23 00:50:04 GMT 34.427895 23.464451 35,000 117 518 0
2019-10-23 00:49:54 GMT 34.438705 23.439108 35,000 117 517 0
2019-10-23 00:49:45 GMT 34.450012 23.412649 35,000 117 516 64
2019-10-23 00:49:34 GMT 34.460899 23.387089 35,000 117 516 0
2019-10-23 00:49:23 GMT 34.473049 23.358650 35,000 117 515 -64
2019-10-23 00:49:13 GMT 34.483990 23.333015 35,000 117 515 0
2019-10-23 00:49:04 GMT 34.495533 23.305950 35,000 117 514 64
2019-10-23 00:48:53 GMT 34.505859 23.281767 35,000 117 514 0
2019-10-23 00:48:42 GMT 34.517506 23.254509 35,000 117 515 0
2019-10-23 00:48:32 GMT 34.529003 23.227615 35,000 117 515 64
2019-10-23 00:48:23 GMT 34.540039 23.201752 35,000 117 515 0
2019-10-23 00:48:11 GMT 34.551407 23.174931 34,975 117 517 128
2019-10-23 00:48:02 GMT 34.562073 23.149876 34,975 117 520 192
2019-10-23 00:47:51 GMT 34.573563 23.122688 34,850 117 519 896
2019-10-23 00:47:41 GMT 34.584457 23.096682 34,675 117 521 960
2019-10-23 00:47:31 GMT 34.595947 23.069439 34,500 116 521 1024
2019-10-23 00:47:21 GMT 34.606377 23.043308 34,325 114 520 1024
2019-10-23 00:47:11 GMT 34.616337 23.015900 34,175 112 519 1024
2019-10-23 00:47:01 GMT 34.625366 22.988319 33,975 110 518 1216
2019-10-23 00:46:50 GMT 34.633514 22.960682 33,750 108 518 1408
2019-10-23 00:46:39 GMT 34.641403 22.930317 33,500 106 518 1472
2019-10-23 00:46:19 GMT 34.654587 22.873983 33,025 105 521 768
2019-10-23 00:46:09 GMT 34.661026 22.846012 33,000 105 520 0
2019-10-23 00:45:57 GMT 34.668755 22.812939 33,000 105 520 0
2019-10-23 00:45:48 GMT 34.674683 22.787270 33,000 105 519 0
2019-10-23 00:45:38 GMT 34.681091 22.759523 33,000 105 518 0
2019-10-23 00:45:29 GMT 34.687820 22.730433 33,000 105 517 0
2019-10-23 00:45:17 GMT 34.694550 22.701397 33,000 105 517 0
2019-10-23 00:45:06 GMT 34.701920 22.669334 33,000 105 517 -64
2019-10-23 00:44:57 GMT 34.707367 22.645624 33,000 105 516 0
2019-10-23 00:44:48 GMT 34.714142 22.616085 33,000 105 515 64
2019-10-23 00:44:37 GMT 34.720596 22.587948 33,000 105 515 0
2019-10-23 00:44:26 GMT 34.727318 22.558823 33,000 105 516 0
2019-10-23 00:44:17 GMT 34.733826 22.530548 33,000 105 514 0
2019-10-23 00:44:05 GMT 34.740555 22.501064 33,000 105 514 0
2019-10-23 00:43:56 GMT 34.746872 22.473488 33,000 105 514 0
2019-10-23 00:43:45 GMT 34.753418 22.444843 33,000 105 514 0
2019-10-23 00:43:36 GMT 34.759964 22.416201 33,000 105 514 64
2019-10-23 00:43:25 GMT 34.766281 22.388248 33,000 105 514 -64
2019-10-23 00:43:14 GMT 34.772892 22.359066 33,000 105 513 -64
2019-10-23 00:43:04 GMT 34.779224 22.331314 33,000 105 513 0
2019-10-23 00:42:55 GMT 34.785736 22.302526 33,000 105 512 0
2019-10-23 00:42:44 GMT 34.792213 22.274094 33,000 105 512 0
2019-10-23 00:42:34 GMT 34.798542 22.246113 33,000 105 512 0
2019-10-23 00:42:23 GMT 34.805008 22.217718 33,000 105 512 0
2019-10-23 00:42:13 GMT 34.812057 22.186384 33,000 105 512 -64
2019-10-23 00:42:03 GMT 34.817909 22.160454 33,000 105 512 0
2019-10-23 00:41:39 GMT 34.833084 22.093105 33,000 105 511 0
2019-10-23 00:41:32 GMT 34.837555 22.073271 33,000 105 511 0
2019-10-23 00:41:22 GMT 34.843414 22.046982 33,000 105 510 0
2019-10-23 00:41:11 GMT 34.850121 22.017002 33,000 105 509 0
2019-10-23 00:41:02 GMT 34.856506 21.988352 33,000 105 509 0
2019-10-23 00:40:51 GMT 34.862507 21.961670 33,000 105 509 0
2019-10-23 00:38:40 GMT 34.942528 21.600780 33,000 104 508 0
2019-10-23 00:38:25 GMT 34.952633 21.554661 33,000 104 507 0
2019-10-23 00:36:33 GMT 35.020065 21.246044 33,000 104 508 0
We lost coverage of the aircraft here for a total of 17 minutes
2019-10-23 00:19:05 GMT 35.610180 18.342669 33,000 103 502 0
2019-10-23 00:18:42 GMT 35.622253 18.278790 33,000 103 501 0
2019-10-23 00:18:38 GMT 35.624428 18.267282 33,000 103 501 0
2019-10-23 00:18:23 GMT 35.632233 18.226147 33,000 103 501 0
2019-10-23 00:17:44 GMT 35.653198 18.114853 33,000 102 500 0
2019-10-23 00:17:40 GMT 35.655289 18.103657 33,000 102 500 0
2019-10-23 00:16:46 GMT 35.682987 17.955576 33,000 102 500 0
2019-10-23 00:16:39 GMT 35.687164 17.933292 33,000 102 500 0
2019-10-23 00:15:25 GMT 35.724560 17.731407 33,000 102 502 0
2019-10-23 00:15:01 GMT 35.736755 17.664846 33,000 102 503 0
2019-10-23 00:14:54 GMT 35.740128 17.646618 33,000 102 503 0
2019-10-23 00:14:38 GMT 35.749279 17.596592 33,000 102 503 0
2019-10-23 00:14:34 GMT 35.750862 17.588001 33,000 102 503 0
2019-10-23 00:14:23 GMT 35.756149 17.559128 33,000 102 503 0
2019-10-23 00:14:14 GMT 35.761414 17.530174 33,000 102 503 0
2019-10-23 00:13:56 GMT 35.770248 17.481651 33,000 102 503 0
2019-10-23 00:13:52 GMT 35.771942 17.472439 33,000 102 503 0
2019-10-23 00:13:41 GMT 35.777344 17.442570 33,000 102 502 0
2019-10-23 00:13:31 GMT 35.782654 17.413273 33,000 102 503 0
2019-10-23 00:13:21 GMT 35.788055 17.383690 33,000 102 503 0
2019-10-23 00:13:11 GMT 35.792862 17.357140 33,000 102 503 0
2019-10-23 00:13:04 GMT 35.795929 17.340088 33,000 102 503 0
2019-10-23 00:13:00 GMT 35.798172 17.327785 33,000 102 503 0
2019-10-23 00:12:51 GMT 35.803513 17.298033 33,000 102 503 0
2019-10-23 00:12:39 GMT 35.809113 17.267132 33,000 102 503 0
2019-10-23 00:12:34 GMT 35.811401 17.254257 33,000 102 503 0
2019-10-23 00:12:29 GMT 35.813847 17.240646 33,000 102 504 0
2019-10-23 00:12:19 GMT 35.818954 17.212257 33,000 102 504 0
2019-10-23 00:12:08 GMT 35.824276 17.182734 33,000 102 504 0
2019-10-23 00:11:58 GMT 35.829529 17.153435 33,000 102 504 0
2019-10-23 00:11:51 GMT 35.832840 17.134815 33,000 102 504 0
2019-10-23 00:11:48 GMT 35.834747 17.124121 33,000 102 505 0
2019-10-23 00:11:41 GMT 35.837635 17.107876 33,000 102 505 0
2019-10-23 00:11:37 GMT 35.840195 17.093557 33,000 102 504 0
2019-10-23 00:11:31 GMT 35.843082 17.077253 33,000 102 504 0
2019-10-23 00:11:28 GMT 35.844944 17.066910 33,000 102 505 0
2019-10-23 00:11:16 GMT 35.850346 17.036581 33,000 102 505 0
2019-10-23 00:11:10 GMT 35.853603 17.018349 33,000 102 505 0
2019-10-23 00:11:06 GMT 35.855804 17.005806 33,000 102 505 0
2019-10-23 00:11:00 GMT 35.858303 16.991642 33,000 102 505 0
2019-10-23 00:10:57 GMT 35.860538 16.979019 33,000 102 505 0
2019-10-23 00:10:49 GMT 35.863983 16.959677 33,000 102 505 0
2019-10-23 00:10:46 GMT 35.865417 16.951389 33,000 102 505 0
2019-10-23 00:10:39 GMT 35.868851 16.931992 33,000 102 505 0
2019-10-23 00:10:33 GMT 35.872009 16.914024 33,000 102 505 0
2019-10-23 00:10:26 GMT 35.875809 16.892530 33,000 102 505 0
2019-10-23 00:10:17 GMT 35.879391 16.872078 33,000 102 505 0
2019-10-23 00:10:14 GMT 35.880936 16.863499 33,000 102 505 0
2019-10-23 00:10:08 GMT 35.884235 16.844847 33,000 102 505 0
2019-10-23 00:10:04 GMT 35.886234 16.833334 33,000 102 505 0
2019-10-23 00:09:55 GMT 35.891190 16.805363 33,000 102 505 0
2019-10-23 00:09:46 GMT 35.894760 16.784878 33,000 102 505 0
2019-10-23 00:09:43 GMT 35.896317 16.775894 33,000 102 505 0
2019-10-23 00:09:34 GMT 35.901600 16.745970 33,000 102 504 0
2019-10-23 00:09:23 GMT 35.906708 16.716957 33,000 102 504 0
2019-10-23 00:09:16 GMT 35.909958 16.698132 33,000 102 504 64
2019-10-23 00:09:13 GMT 35.911793 16.687590 33,000 102 504 0
2019-10-23 00:09:06 GMT 35.914810 16.670322 33,000 102 504 0
2019-10-23 00:09:03 GMT 35.916725 16.659246 33,000 102 504 0
2019-10-23 00:08:58 GMT 35.918449 16.649429 33,000 102 504 0
2019-10-23 00:08:52 GMT 35.921585 16.631355 33,000 102 504 0
2019-10-23 00:08:48 GMT 35.923618 16.619978 33,000 102 504 0
2019-10-23 00:08:45 GMT 35.925110 16.611385 33,000 102 504 0
2019-10-23 00:08:41 GMT 35.926968 16.600576 33,000 102 504 0
2019-10-23 00:08:38 GMT 35.928680 16.590900 33,000 102 504 0
2019-10-23 00:08:31 GMT 35.932617 16.568184 33,000 102 504 0
2019-10-23 00:08:27 GMT 35.933670 16.562004 33,000 102 504 0
2019-10-23 00:08:24 GMT 35.935135 16.553593 33,000 102 504 0
2019-10-23 00:08:18 GMT 35.938889 16.532249 33,000 102 504 0
2019-10-23 00:08:11 GMT 35.942146 16.513269 33,000 101 503 0
2019-10-23 00:08:07 GMT 35.943649 16.504440 33,000 101 503 0
2019-10-23 00:07:59 GMT 35.947357 16.483097 33,000 101 503 0
2019-10-23 00:07:56 GMT 35.948822 16.474400 33,000 101 503 0
2019-10-23 00:07:53 GMT 35.950199 16.466402 33,000 102 504 0
2019-10-23 00:07:49 GMT 35.952118 16.455288 33,000 102 504 0
2019-10-23 00:07:46 GMT 35.953644 16.446474 33,000 101 503 0
2019-10-23 00:07:40 GMT 35.957413 16.424561 33,000 101 503 0
2019-10-23 00:07:37 GMT 35.958710 16.417122 33,000 102 504 0
2019-10-23 00:07:32 GMT 35.960403 16.407280 33,000 102 504 0
2019-10-23 00:07:26 GMT 35.963604 16.388563 33,000 102 504 0
2019-10-23 00:07:22 GMT 35.965141 16.379856 33,000 102 504 0
2019-10-23 00:07:16 GMT 35.968353 16.361038 33,000 101 504 0
2019-10-23 00:07:11 GMT 35.970474 16.348801 33,000 101 504 0
2019-10-23 00:07:06 GMT 35.973175 16.333065 33,000 101 504 0
2019-10-23 00:07:01 GMT 35.975189 16.321278 33,000 101 504 0
2019-10-23 00:06:56 GMT 35.978256 16.303253 33,000 101 504 0
2019-10-23 00:06:51 GMT 35.980225 16.291752 33,000 101 505 0
2019-10-23 00:06:48 GMT 35.982365 16.279224 33,000 101 504 0
2019-10-23 00:06:41 GMT 35.985031 16.263599 33,000 101 504 0
2019-10-23 00:06:35 GMT 35.988136 16.245447 33,025 102 504 0
2019-10-23 00:06:30 GMT 35.990250 16.233215 33,000 101 503 0
2019-10-23 00:06:27 GMT 35.992001 16.222950 33,000 102 504 0
2019-10-23 00:06:24 GMT 35.993214 16.215937 33,000 101 503 0
2019-10-23 00:06:20 GMT 35.995075 16.205009 33,000 101 503 0
2019-10-23 00:06:15 GMT 35.998077 16.187439 33,000 101 503 0
2019-10-23 00:06:10 GMT 36.000008 16.176083 33,000 101 503 0
2019-10-23 00:06:04 GMT 36.002804 16.159546 33,000 101 502 0
2019-10-23 00:05:59 GMT 36.004944 16.146921 33,000 101 502 0
2019-10-23 00:05:54 GMT 36.007599 16.131203 33,000 101 502 0
2019-10-23 00:05:49 GMT 36.009796 16.118145 33,000 101 502 0
2019-10-23 00:05:46 GMT 36.011856 16.105843 33,000 101 502 0
2019-10-23 00:05:43 GMT 36.012817 16.100235 33,000 101 502 0
2019-10-23 00:05:39 GMT 36.014488 16.090296 33,000 101 502 0
2019-10-23 00:05:34 GMT 36.017715 16.071053 33,000 101 502 0
2019-10-23 00:05:28 GMT 36.019886 16.058331 33,000 101 502 0
2019-10-23 00:05:23 GMT 36.022018 16.045589 33,000 101 502 0
2019-10-23 00:05:18 GMT 36.024261 16.032267 33,000 101 502 0
2019-10-23 00:05:13 GMT 36.027149 16.015436 33,000 101 502 -64
2019-10-23 00:05:07 GMT 36.029617 16.000671 33,000 101 503 0
2019-10-23 00:05:03 GMT 36.031944 15.987094 33,000 101 503 64
2019-10-23 00:04:56 GMT 36.034836 15.969772 33,000 101 504 0
2019-10-23 00:04:53 GMT 36.036831 15.957817 33,000 101 504 -64
2019-10-23 00:04:47 GMT 36.038925 15.945428 33,000 101 504 -64
2019-10-23 00:04:42 GMT 36.041534 15.930234 33,000 101 504 0
2019-10-23 00:04:36 GMT 36.044186 15.914456 33,000 101 505 0
2019-10-23 00:04:32 GMT 36.046555 15.900192 33,000 101 505 0
2019-10-23 00:04:26 GMT 36.049118 15.884972 33,000 101 505 0
2019-10-23 00:04:21 GMT 36.051407 15.871410 33,000 101 505 0
2019-10-23 00:04:16 GMT 36.053871 15.856602 33,000 101 505 64
2019-10-23 00:04:11 GMT 36.056351 15.841770 33,000 101 506 0
2019-10-23 00:04:02 GMT 36.061272 15.812248 33,000 101 506 0
2019-10-23 00:03:55 GMT 36.063538 15.798512 33,000 101 506 0
2019-10-23 00:03:50 GMT 36.065926 15.784256 33,000 101 506 0
2019-10-23 00:03:44 GMT 36.068768 15.767251 33,000 101 507 0
2019-10-23 00:03:40 GMT 36.070999 15.753765 33,000 101 507 0
2019-10-23 00:03:34 GMT 36.073517 15.738616 33,000 101 507 0
2019-10-23 00:03:30 GMT 36.075935 15.724182 33,000 101 508 0
2019-10-23 00:03:21 GMT 36.080338 15.697632 33,000 101 508 0
2019-10-23 00:03:14 GMT 36.082966 15.681873 33,000 101 508 0
2019-10-23 00:03:10 GMT 36.085152 15.668549 33,000 101 508 0
2019-10-23 00:03:04 GMT 36.087753 15.652771 33,000 101 508 0
2019-10-23 00:02:59 GMT 36.090462 15.636408 33,000 101 509 0
2019-10-23 00:02:53 GMT 36.092930 15.621331 33,000 101 509 0
2019-10-23 00:02:50 GMT 36.094894 15.609570 33,000 101 509 0
2019-10-23 00:02:43 GMT 36.097824 15.591888 33,000 101 509 0
2019-10-23 00:02:39 GMT 36.099884 15.579357 33,000 101 509 0
2019-10-23 00:02:32 GMT 36.102722 15.562019 33,000 101 510 0
2019-10-23 00:02:28 GMT 36.104828 15.549145 33,000 101 510 0
2019-10-23 00:02:22 GMT 36.107391 15.533524 33,000 101 510 0
2019-10-23 00:02:18 GMT 36.109909 15.518074 33,000 101 510 0
2019-10-23 00:02:11 GMT 36.112701 15.500965 33,000 101 510 0
2019-10-23 00:02:08 GMT 36.114201 15.492008 33,000 101 510 0
2019-10-23 00:01:59 GMT 36.121765 15.445576 33,000 101 510 -64
2019-10-23 00:01:51 GMT 36.121765 15.445576 33,000 101 511 -64
2019-10-23 00:01:48 GMT 36.125381 15.423260 33,000 101 510 0
2019-10-23 00:01:40 GMT 36.126801 15.414391 33,025 101 510 0
2019-10-23 00:01:37 GMT 36.128220 15.405807 33,000 101 510 0
2019-10-23 00:01:30 GMT 36.131744 15.383778 33,000 101 510 0
2019-10-23 00:01:27 GMT 36.135429 15.361049 33,000 101 510 0
2019-10-23 00:01:19 GMT 36.136780 15.352517 33,000 101 510 -64
2019-10-23 00:01:16 GMT 36.138290 15.343208 33,000 101 510 -64
2019-10-23 00:01:08 GMT 36.141815 15.321465 33,000 101 510 0
2019-10-23 00:01:05 GMT 36.143623 15.310500 33,000 101 511 0
2019-10-23 00:00:59 GMT 36.146164 15.294914 33,000 101 510 0
2019-10-23 00:00:55 GMT 36.148361 15.281754 33,000 101 511 0
2019-10-23 00:00:48 GMT 36.151302 15.263925 33,000 101 511 0
2019-10-23 00:00:44 GMT 36.153259 15.251770 33,000 101 510 0
2019-10-23 00:00:39 GMT 36.155411 15.238323 33,000 101 511 64
2019-10-23 00:00:35 GMT 36.157543 15.225298 33,000 101 510 0
2019-10-23 00:00:28 GMT 36.161034 15.206831 33,000 104 511 0
2019-10-23 00:00:25 GMT 36.163147 15.196781 33,000 105 511 0
2019-10-23 00:00:18 GMT 36.167366 15.178723 33,000 107 510 0
2019-10-23 00:00:14 GMT 36.170609 15.166340 33,000 108 511 0
2019-10-23 00:00:08 GMT 36.174911 15.151234 33,000 110 510 64
2019-10-23 00:00:03 GMT 36.179516 15.136355 33,000 111 510 64
2019-10-22 23:59:58 GMT 36.183792 15.123596 33,000 113 510 0
2019-10-22 23:59:53 GMT 36.189522 15.108071 33,000 115 509 -64
2019-10-22 23:59:48 GMT 36.193863 15.097275 33,000 117 509 -64
2019-10-22 23:59:45 GMT 36.197159 15.089493 33,000 118 510 0
2019-10-22 23:59:41 GMT 36.201534 15.079378 33,000 118 510 0
2019-10-22 23:59:37 GMT 36.205856 15.069523 33,000 118 510 0
2019-10-22 23:59:32 GMT 36.212147 15.055010 33,000 118 509 0
2019-10-22 23:59:27 GMT 36.217392 15.043144 33,000 118 510 0
2019-10-22 23:59:23 GMT 36.223133 15.029940 33,000 118 509 0
2019-10-22 23:59:17 GMT 36.228424 15.017738 33,000 118 509 0
2019-10-22 23:59:14 GMT 36.231995 15.009556 33,000 118 509 0
2019-10-22 23:59:11 GMT 36.235336 15.001831 33,000 118 509 0
2019-10-22 23:59:04 GMT 36.243484 14.983120 33,000 118 509 0
2019-10-22 23:59:01 GMT 36.246414 14.976482 33,000 118 509 0
2019-10-22 23:58:54 GMT 36.253860 14.959464 33,000 118 509 0
2019-10-22 23:58:51 GMT 36.258499 14.948788 33,000 118 509 0
2019-10-22 23:58:44 GMT 36.266418 14.930592 33,000 118 509 0
2019-10-22 23:58:39 GMT 36.271179 14.919605 33,000 118 509 0
2019-10-22 23:58:35 GMT 36.275272 14.910200 33,000 118 509 0
2019-10-22 23:58:30 GMT 36.281185 14.896643 33,000 118 509 0
2019-10-22 23:58:23 GMT 36.288940 14.878807 33,000 118 509 0
2019-10-22 23:58:19 GMT 36.292915 14.869644 33,000 118 509 0
2019-10-22 23:58:16 GMT 36.300598 14.851938 33,000 118 509 0
2019-10-22 23:58:12 GMT 36.300598 14.851938 33,000 118 509 0
2019-10-22 23:58:06 GMT 36.307892 14.835091 33,000 118 510 0
2019-10-22 23:58:00 GMT 36.316097 14.816174 33,000 118 510 0
2019-10-22 23:57:52 GMT 36.323547 14.798935 33,000 118 510 0
2019-10-22 23:57:46 GMT 36.330414 14.783134 33,000 118 510 0
2019-10-22 23:57:43 GMT 36.338722 14.763930 33,000 118 510 0
2019-10-22 23:57:38 GMT 36.338722 14.763930 33,000 118 511 0
2019-10-22 23:57:35 GMT 36.342270 14.755783 33,000 118 511 0
2019-10-22 23:57:29 GMT 36.350418 14.736958 33,000 118 511 0
2019-10-22 23:57:25 GMT 36.353249 14.730387 33,000 118 511 0
2019-10-22 23:57:22 GMT 36.358337 14.718590 33,000 118 511 0
2019-10-22 23:57:15 GMT 36.364655 14.704031 33,000 118 512 0
2019-10-22 23:57:10 GMT 36.369587 14.692636 33,000 118 512 0
2019-10-22 23:57:05 GMT 36.375916 14.678020 33,000 118 512 0
2019-10-22 23:57:00 GMT 36.381821 14.664288 33,000 118 512 0
2019-10-22 23:56:54 GMT 36.387371 14.651496 33,000 118 512 0
2019-10-22 23:56:51 GMT 36.392490 14.639574 33,000 118 513 0
2019-10-22 23:56:44 GMT 36.398804 14.624920 33,000 117 514 0
2019-10-22 23:56:41 GMT 36.403896 14.613102 33,000 117 514 0
2019-10-22 23:56:34 GMT 36.410339 14.598141 33,000 118 514 0
2019-10-22 23:56:30 GMT 36.414509 14.588383 33,000 118 514 0
2019-10-22 23:56:24 GMT 36.421494 14.572254 33,000 118 514 0
2019-10-22 23:56:20 GMT 36.425674 14.562492 33,000 118 514 0
2019-10-22 23:56:16 GMT 36.431828 14.548353 33,000 118 514 0
2019-10-22 23:56:09 GMT 36.438492 14.532852 33,000 118 515 0
2019-10-22 23:56:03 GMT 36.444721 14.518374 33,000 118 515 0
2019-10-22 23:55:59 GMT 36.451427 14.502771 33,000 118 515 0
2019-10-22 23:55:53 GMT 36.456455 14.491025 33,000 118 515 0
2019-10-22 23:55:48 GMT 36.461807 14.478520 33,000 118 515 0
2019-10-22 23:55:42 GMT 36.468185 14.463676 33,000 118 515 0
2019-10-22 23:55:39 GMT 36.472000 14.454794 33,000 118 515 0
2019-10-22 23:55:33 GMT 36.478939 14.438606 33,000 117 514 0
2019-10-22 23:55:28 GMT 36.484058 14.426627 33,000 117 514 0
2019-10-22 23:55:23 GMT 36.490112 14.412543 33,000 117 514 0
2019-10-22 23:55:17 GMT 36.496307 14.398041 33,000 118 515 0
2019-10-22 23:55:12 GMT 36.501377 14.386188 33,000 117 514 0
2019-10-22 23:55:06 GMT 36.508255 14.370117 33,000 117 514 0
2019-10-22 23:55:02 GMT 36.512550 14.360066 33,000 118 515 0
2019-10-22 23:54:55 GMT 36.520523 14.341393 33,000 117 515 0
2019-10-22 23:54:52 GMT 36.524837 14.331314 33,000 117 516 0
2019-10-22 23:54:47 GMT 36.529774 14.319861 33,000 117 516 0
2019-10-22 23:54:43 GMT 36.534393 14.309006 33,000 117 516 0
2019-10-22 23:54:38 GMT 36.541782 14.291577 33,000 117 516 0
2019-10-22 23:54:33 GMT 36.545788 14.282168 33,000 117 515 0
2019-10-22 23:54:24 GMT 36.555679 14.258995 33,000 117 515 0
2019-10-22 23:54:21 GMT 36.560265 14.248099 33,000 117 516 0
2019-10-22 23:54:17 GMT 36.563690 14.240112 33,000 117 515 0
2019-10-22 23:54:11 GMT 36.570786 14.223347 33,000 117 516 0
2019-10-22 23:54:07 GMT 36.575134 14.213161 33,000 117 516 0
2019-10-22 23:54:00 GMT 36.583054 14.194565 33,000 117 516 0
2019-10-22 23:53:56 GMT 36.586304 14.186954 33,000 117 516 0
2019-10-22 23:53:51 GMT 36.594086 14.168587 33,000 117 516 0
2019-10-22 23:53:46 GMT 36.598484 14.158221 33,000 117 516 0
2019-10-22 23:53:40 GMT 36.604980 14.142838 33,000 117 516 0
2019-10-22 23:53:36 GMT 36.609100 14.133110 33,000 117 516 0
2019-10-22 23:53:30 GMT 36.617157 14.114227 33,000 117 516 -64
2019-10-22 23:53:26 GMT 36.620411 14.106504 33,000 117 516 0
2019-10-22 23:53:19 GMT 36.628326 14.087862 33,000 117 516 0
2019-10-22 23:53:15 GMT 36.632652 14.077577 33,000 117 516 0
2019-10-22 23:53:08 GMT 36.640476 14.059227 33,000 117 516 0
2019-10-22 23:53:05 GMT 36.643295 14.052544 33,000 117 516 64
2019-10-22 23:53:01 GMT 36.650158 14.036378 33,000 117 516 0
2019-10-22 23:52:58 GMT 36.652451 14.031029 33,000 117 516 0
2019-10-22 23:52:55 GMT 36.655045 14.024866 33,000 117 516 0
2019-10-22 23:52:50 GMT 36.660553 14.011860 33,000 117 516 0
2019-10-22 23:52:47 GMT 36.664124 14.003302 33,000 117 516 0
2019-10-22 23:52:44 GMT 36.666264 13.998335 33,000 117 516 0
2019-10-22 23:52:37 GMT 36.675156 13.977298 33,000 117 516 0
2019-10-22 23:52:34 GMT 36.678452 13.969574 33,000 117 516 0
2019-10-22 23:52:28 GMT 36.684219 13.955898 33,000 117 516 0
2019-10-22 23:52:24 GMT 36.689262 13.943929 33,000 117 516 0
2019-10-22 23:52:18 GMT 36.695572 13.929119 33,000 117 515 0
2019-10-22 23:52:14 GMT 36.700928 13.916531 33,000 117 515 0
2019-10-22 23:52:07 GMT 36.707184 13.901679 33,000 117 515 0
2019-10-22 23:52:03 GMT 36.711933 13.890400 33,000 117 515 0
2019-10-22 23:51:57 GMT 36.718506 13.874760 33,000 117 515 0
2019-10-22 23:51:54 GMT 36.723450 13.862972 33,000 117 514 0
2019-10-22 23:51:47 GMT 36.729401 13.848782 33,000 117 514 0
2019-10-22 23:51:43 GMT 36.735580 13.834133 33,000 117 514 64
2019-10-22 23:51:39 GMT 36.738373 13.827553 33,000 117 513 0
2019-10-22 23:51:36 GMT 36.741577 13.819942 33,000 117 513 0
2019-10-22 23:51:32 GMT 36.746475 13.808295 33,000 117 513 0
2019-10-22 23:51:28 GMT 36.750992 13.797601 33,000 117 513 0
2019-10-22 23:51:25 GMT 36.755630 13.786469 33,000 117 513 0
2019-10-22 23:51:22 GMT 36.758530 13.779485 33,000 117 513 0
2019-10-22 23:51:19 GMT 36.760895 13.773880 33,000 117 513 0
2019-10-22 23:51:16 GMT 36.763699 13.767213 33,000 117 513 -64
2019-10-22 23:51:13 GMT 36.768772 13.755117 33,000 117 513 0
2019-10-22 23:51:06 GMT 36.775246 13.739689 33,000 117 513 0
2019-10-22 23:51:02 GMT 36.779663 13.729134 33,025 117 512 0
2019-10-22 23:50:56 GMT 36.786324 13.713275 33,000 117 512 -64
2019-10-22 23:50:51 GMT 36.791443 13.701003 33,025 117 512 64
2019-10-22 23:50:45 GMT 36.797916 13.685634 33,000 117 512 0
2019-10-22 23:50:41 GMT 36.802849 13.673888 33,000 117 510 0
2019-10-22 23:50:35 GMT 36.809319 13.658460 33,025 117 510 -64
2019-10-22 23:50:32 GMT 36.814114 13.647006 33,000 117 510 0
2019-10-22 23:50:24 GMT 36.821285 13.629767 33,000 117 510 64
2019-10-22 23:50:21 GMT 36.824356 13.622521 33,000 117 510 0
2019-10-22 23:50:16 GMT 36.830841 13.606968 33,000 117 510 -64
2019-10-22 23:50:13 GMT 36.832581 13.602791 33,000 117 509 0
2019-10-22 23:50:10 GMT 36.836552 13.593302 33,000 117 509 0
2019-10-22 23:50:06 GMT 36.840088 13.584824 33,000 117 510 64
2019-10-22 23:50:03 GMT 36.844025 13.575439 33,000 117 510 0
2019-10-22 23:50:00 GMT 36.847305 13.567531 33,000 117 510 0
2019-10-22 23:49:56 GMT 36.851486 13.557480 33,000 117 510 0
2019-10-22 23:49:51 GMT 36.858524 13.540649 33,000 117 509 0
2019-10-22 23:49:46 GMT 36.863506 13.528648 33,000 117 510 0
2019-10-22 23:49:40 GMT 36.868721 13.516109 33,000 117 510 0
2019-10-22 23:49:36 GMT 36.874329 13.502665 33,000 117 510 0
2019-10-22 23:49:32 GMT 36.877487 13.495068 33,000 117 510 -64
2019-10-22 23:49:29 GMT 36.880779 13.487151 33,000 117 510 0
2019-10-22 23:49:25 GMT 36.885544 13.475783 33,000 117 511 0
2019-10-22 23:49:22 GMT 36.888737 13.468044 33,000 117 511 0
2019-10-22 23:49:18 GMT 36.893860 13.455744 33,000 117 511 0
2019-10-22 23:49:15 GMT 36.897118 13.447922 33,000 117 511 -64
2019-10-22 23:49:09 GMT 36.903217 13.433294 33,000 117 511 0
2019-10-22 23:49:05 GMT 36.907654 13.422663 33,000 117 511 0
2019-10-22 23:49:02 GMT 36.910431 13.415978 33,000 117 511 0
2019-10-22 23:48:59 GMT 36.914108 13.407082 33,000 117 511 0
2019-10-22 23:48:54 GMT 36.918346 13.396872 33,000 117 511 0
2019-10-22 23:48:48 GMT 36.925690 13.379244 33,000 117 511 0
2019-10-22 23:48:45 GMT 36.929565 13.369943 33,000 117 511 0
2019-10-22 23:48:38 GMT 36.940247 13.344181 33,000 117 510 0
2019-10-22 23:48:35 GMT 36.940247 13.344181 33,000 117 510 0
2019-10-22 23:48:29 GMT 36.946976 13.327994 33,000 117 510 64
2019-10-22 23:48:25 GMT 36.952194 13.315430 33,000 117 510 0
2019-10-22 23:48:19 GMT 36.956703 13.304563 33,000 117 510 0
2019-10-22 23:48:16 GMT 36.960381 13.295666 33,000 117 510 0
2019-10-22 23:48:13 GMT 36.963867 13.287146 33,000 117 510 0
2019-10-22 23:48:08 GMT 36.969955 13.272536 33,000 117 510 0
2019-10-22 23:48:02 GMT 36.974907 13.260617 33,000 117 511 0
2019-10-22 23:47:57 GMT 36.980713 13.246590 33,000 117 510 0
2019-10-22 23:47:53 GMT 36.986172 13.233390 33,000 117 510 0
2019-10-22 23:47:48 GMT 36.992039 13.219240 33,000 117 510 0
2019-10-22 23:47:44 GMT 36.995296 13.211358 33,000 117 510 0
2019-10-22 23:47:37 GMT 37.002914 13.192885 33,000 117 510 0
2019-10-22 23:47:34 GMT 37.006073 13.185288 33,000 117 510 0
2019-10-22 23:47:28 GMT 37.012527 13.169569 33,000 117 510 0
2019-10-22 23:47:24 GMT 37.025463 13.138215 33,000 117 510 0
2019-10-22 23:47:16 GMT 37.025463 13.138215 33,000 117 510 0
2019-10-22 23:47:11 GMT 37.030930 13.124981 33,000 117 510 0
2019-10-22 23:47:07 GMT 37.036789 13.110839 33,000 117 510 0
2019-10-22 23:47:03 GMT 37.039169 13.105053 33,000 117 510 0
2019-10-22 23:46:55 GMT 37.047855 13.083941 33,000 117 510 0
2019-10-22 23:46:47 GMT 37.056793 13.062147 33,000 117 511 0
2019-10-22 23:46:44 GMT 37.060795 13.052415 33,000 117 511 0
2019-10-22 23:46:35 GMT 37.075928 13.015526 33,000 117 511 0
2019-10-22 23:46:26 GMT 37.079136 13.007753 33,000 117 512 0
2019-10-22 23:46:23 GMT 37.082611 12.999164 33,000 117 512 0
2019-10-22 23:46:14 GMT 37.091938 12.976406 33,000 116 514 0
2019-10-22 23:46:05 GMT 37.103020 12.949239 33,000 117 512 0
2019-10-22 23:45:53 GMT 37.114655 12.920698 33,000 116 514 0
2019-10-22 23:45:43 GMT 37.126480 12.891560 33,000 116 513 0
2019-10-22 23:45:32 GMT 37.136955 12.865826 33,000 116 515 0
2019-10-22 23:45:23 GMT 37.147614 12.839554 33,000 116 515 0
2019-10-22 23:45:12 GMT 37.158966 12.811520 33,000 116 515 -64
2019-10-22 23:45:01 GMT 37.170284 12.783429 33,000 116 515 0
2019-10-22 23:44:52 GMT 37.181030 12.756705 33,000 116 512 0
2019-10-22 23:44:41 GMT 37.191833 12.729882 33,000 116 513 0
2019-10-22 23:44:30 GMT 37.204082 12.699479 33,000 116 512 0
2019-10-22 23:44:24 GMT 37.210835 12.682820 33,000 116 512 0
2019-10-22 23:44:21 GMT 37.213299 12.676730 33,000 116 511 0
2019-10-22 23:44:11 GMT 37.224194 12.650160 33,000 117 510 0
2019-10-22 23:44:04 GMT 37.233410 12.627829 33,000 117 510 0
2019-10-22 23:44:00 GMT 37.235550 12.622707 33,000 117 509 0
2019-10-22 23:43:50 GMT 37.247131 12.594715 33,025 116 508 0
2019-10-22 23:43:39 GMT 37.258987 12.565613 33,000 118 507 64
2019-10-22 23:43:34 GMT 37.264984 12.552698 33,000 126 503 0
2019-10-22 23:43:28 GMT 37.271988 12.539900 33,000 126 504 0
2019-10-22 23:43:18 GMT 37.287689 12.516992 33,000 134 500 0
2019-10-22 23:43:10 GMT 37.302246 12.500513 33,000 141 497 64
2019-10-22 23:43:07 GMT 37.305862 12.496948 33,000 143 496 128
2019-10-22 23:42:57 GMT 37.326645 12.480118 33,000 153 494 -192
2019-10-22 23:42:46 GMT 37.349075 12.467963 33,025 158 492 64
2019-10-22 23:42:39 GMT 37.371140 12.457795 32,925 159 493 832
2019-10-22 23:42:28 GMT 37.387665 12.450139 32,775 159 493 1344
2019-10-22 23:42:25 GMT 37.393318 12.447510 32,725 159 493 1344
2019-10-22 23:42:15 GMT 37.415314 12.437400 32,500 159 494 1216
2019-10-22 23:42:07 GMT 37.433491 12.429000 32,325 159 494 1344
2019-10-22 23:42:04 GMT 37.437881 12.426940 32,275 159 495 1344
2019-10-22 23:41:57 GMT 37.454350 12.419327 32,075 159 495 1408
2019-10-22 23:41:44 GMT 37.482285 12.406428 31,775 159 497 1472
2019-10-22 23:41:37 GMT 37.499924 12.398250 31,575 159 498 1408
2019-10-22 23:41:31 GMT 37.509232 12.393951 31,475 159 498 1408
2019-10-22 23:41:26 GMT 37.521469 12.388254 31,300 159 499 1536
2019-10-22 23:41:23 GMT 37.527328 12.385507 31,275 159 499 1536
2019-10-22 23:41:16 GMT 37.543682 12.377950 31,075 159 499 1024
2019-10-22 23:41:13 GMT 37.549129 12.375442 31,050 159 499 832
2019-10-22 23:41:06 GMT 37.566257 12.367501 31,000 159 498 64
2019-10-22 23:41:02 GMT 37.571892 12.364873 31,000 159 498 64
2019-10-22 23:40:55 GMT 37.588978 12.356932 31,000 159 498 0
2019-10-22 23:40:52 GMT 37.595493 12.353887 31,000 159 498 0
2019-10-22 23:40:44 GMT 37.610855 12.346782 31,000 159 498 0
2019-10-22 23:40:41 GMT 37.617645 12.343666 31,000 159 498 0
2019-10-22 23:40:34 GMT 37.632568 12.336711 31,000 159 498 0
2019-10-22 23:40:31 GMT 37.639526 12.333439 31,000 159 498 0
2019-10-22 23:40:24 GMT 37.655407 12.326063 31,000 159 498 0
2019-10-22 23:40:21 GMT 37.661690 12.323137 31,000 159 497 0
2019-10-22 23:40:14 GMT 37.677109 12.315966 31,000 159 497 0
2019-10-22 23:40:11 GMT 37.683945 12.312808 31,000 159 497 0
2019-10-22 23:40:03 GMT 37.700043 12.305330 31,000 159 498 0
2019-10-22 23:40:00 GMT 37.707500 12.301881 31,000 159 498 0
2019-10-22 23:39:50 GMT 37.728973 12.291831 31,000 159 497 0
2019-10-22 23:39:42 GMT 37.746231 12.283767 31,000 159 497 0
2019-10-22 23:39:32 GMT 37.768574 12.273341 31,000 159 497 0
2019-10-22 23:39:19 GMT 37.795528 12.260742 31,000 159 497 0
2019-10-22 23:39:09 GMT 37.817966 12.250234 31,000 159 497 0
2019-10-22 23:39:01 GMT 37.835239 12.242173 31,000 159 497 0
2019-10-22 23:38:56 GMT 37.846985 12.236666 31,000 159 498 0
2019-10-22 23:38:51 GMT 37.855865 12.232517 31,000 159 498 0
2019-10-22 23:38:48 GMT 37.863308 12.229037 31,000 159 498 0
2019-10-22 23:38:40 GMT 37.881363 12.220595 31,000 159 498 0
2019-10-22 23:38:37 GMT 37.885895 12.218492 31,000 159 498 0
2019-10-22 23:38:32 GMT 37.900459 12.211602 31,000 159 498 0
2019-10-22 23:38:27 GMT 37.907814 12.208199 31,000 159 498 0
2019-10-22 23:38:21 GMT 37.921967 12.201545 31,000 159 498 0
2019-10-22 23:38:18 GMT 37.927368 12.199032 31,000 159 498 -64
2019-10-22 23:38:08 GMT 37.948746 12.188980 31,000 159 498 0
2019-10-22 23:38:01 GMT 37.965492 12.181151 31,000 159 498 0
2019-10-22 23:37:58 GMT 37.971039 12.178520 31,000 159 498 0
2019-10-22 23:37:47 GMT 37.993610 12.167955 31,000 159 497 0
2019-10-22 23:37:44 GMT 38.001801 12.164074 31,000 159 497 0
2019-10-22 23:37:37 GMT 38.016048 12.157387 31,000 159 497 0
2019-10-22 23:37:34 GMT 38.021446 12.154879 31,000 159 497 0
2019-10-22 23:37:30 GMT 38.031548 12.150103 31,000 159 497 0
2019-10-22 23:37:27 GMT 38.038147 12.146964 31,000 159 497 0
2019-10-22 23:37:24 GMT 38.044647 12.143925 31,000 159 497 0
2019-10-22 23:37:18 GMT 38.056915 12.138139 31,000 159 497 0
2019-10-22 23:37:14 GMT 38.066322 12.133743 31,000 159 497 0
2019-10-22 23:37:06 GMT 38.083237 12.125751 31,000 159 497 0
2019-10-22 23:37:03 GMT 38.088715 12.123174 31,000 159 497 0
2019-10-22 23:36:59 GMT 38.099094 12.118278 31,000 159 497 0
2019-10-22 23:36:56 GMT 38.104683 12.115651 31,000 159 497 0
2019-10-22 23:36:52 GMT 38.112457 12.112009 31,000 159 497 0
2019-10-22 23:36:48 GMT 38.121906 12.107531 31,000 159 496 0
2019-10-22 23:36:43 GMT 38.132893 12.102396 31,000 159 496 0
2019-10-22 23:36:39 GMT 38.142288 12.097934 31,000 159 496 0
2019-10-22 23:36:33 GMT 38.154865 12.091947 31,000 159 496 0
2019-10-22 23:36:30 GMT 38.161652 12.088759 31,000 159 497 0
2019-10-22 23:36:25 GMT 38.171768 12.083967 31,000 159 497 0
2019-10-22 23:36:20 GMT 38.184723 12.077890 31,000 159 496 0
2019-10-22 23:36:14 GMT 38.194382 12.073332 31,000 159 496 0
2019-10-22 23:36:08 GMT 38.212280 12.064858 31,000 159 496 0
2019-10-22 23:36:03 GMT 38.218094 12.062112 31,000 159 496 0
2019-10-22 23:35:59 GMT 38.227627 12.057615 31,000 159 496 0
2019-10-22 23:35:52 GMT 38.241219 12.051226 31,000 159 496 0
2019-10-22 23:35:46 GMT 38.257980 12.043285 31,000 159 496 0
2019-10-22 23:35:43 GMT 38.261307 12.041658 31,000 159 496 0
2019-10-22 23:35:40 GMT 38.269272 12.037918 31,000 159 495 0
2019-10-22 23:35:33 GMT 38.292568 12.026805 31,000 159 496 0
2019-10-22 23:35:29 GMT 38.292568 12.026805 31,000 159 496 0
2019-10-22 23:35:26 GMT 38.297836 12.024302 31,000 159 496 0
2019-10-22 23:35:20 GMT 38.315689 12.015887 31,000 159 496 0
2019-10-22 23:35:16 GMT 38.320965 12.013371 31,000 159 495 0
2019-10-22 23:35:12 GMT 38.327728 12.010160 31,000 159 495 0
2019-10-22 23:35:09 GMT 38.334511 12.006982 31,000 159 495 0
2019-10-22 23:35:05 GMT 38.343727 12.002563 31,000 159 495 0
2019-10-22 23:35:02 GMT 38.350067 11.999583 31,000 159 495 0
2019-10-22 23:34:55 GMT 38.365952 11.991986 31,000 159 495 0
2019-10-22 23:34:52 GMT 38.371307 11.989473 31,000 159 495 0
2019-10-22 23:34:49 GMT 38.379807 11.985427 31,000 159 495 0
2019-10-22 23:34:46 GMT 38.387302 11.981845 31,000 159 495 0
2019-10-22 23:34:43 GMT 38.390327 11.980412 31,000 159 495 0
2019-10-22 23:34:39 GMT 38.401154 11.975273 31,000 159 495 0
2019-10-22 23:34:35 GMT 38.408890 11.971591 31,000 159 495 0
2019-10-22 23:34:31 GMT 38.416397 11.968052 31,000 159 495 0
2019-10-22 23:34:26 GMT 38.426697 11.963156 31,000 159 495 0
2019-10-22 23:34:20 GMT 38.438736 11.957424 31,000 159 495 0
2019-10-22 23:34:16 GMT 38.447632 11.953186 31,000 159 495 0
2019-10-22 23:34:10 GMT 38.460617 11.947035 31,000 159 495 0
2019-10-22 23:34:05 GMT 38.472427 11.941422 31,000 159 494 0
2019-10-22 23:34:00 GMT 38.483059 11.936340 31,000 159 494 0
2019-10-22 23:33:57 GMT 38.490234 11.932884 31,000 159 494 0
2019-10-22 23:33:54 GMT 38.495773 11.930257 31,000 159 494 0
2019-10-22 23:33:48 GMT 38.507767 11.924465 31,000 159 494 0
2019-10-22 23:33:42 GMT 38.522255 11.917542 31,000 159 494 0
2019-10-22 23:33:36 GMT 38.535645 11.911150 31,000 159 494 0
2019-10-22 23:33:29 GMT 38.548836 11.904907 31,000 159 494 0
2019-10-22 23:33:25 GMT 38.561142 11.899029 31,000 159 494 0
2019-10-22 23:33:19 GMT 38.571259 11.894193 31,000 159 494 0
2019-10-22 23:33:08 GMT 38.593201 11.883728 31,000 159 494 0
2019-10-22 23:33:02 GMT 38.607540 11.876831 31,000 159 494 0
2019-10-22 23:32:58 GMT 38.615570 11.872996 31,000 159 494 0
2019-10-22 23:32:55 GMT 38.622208 11.869832 31,000 159 494 0
2019-10-22 23:32:48 GMT 38.637817 11.862309 31,000 159 494 0
2019-10-22 23:32:44 GMT 38.646503 11.858215 31,000 159 494 0
2019-10-22 23:32:36 GMT 38.666615 11.848572 31,000 159 493 0
2019-10-22 23:32:29 GMT 38.677414 11.843381 31,000 159 493 0
2019-10-22 23:32:25 GMT 38.685886 11.839355 31,000 159 493 0
2019-10-22 23:32:19 GMT 38.699760 11.832703 31,000 159 493 0
2019-10-22 23:32:15 GMT 38.709274 11.828096 31,000 159 493 0
2019-10-22 23:32:06 GMT 38.726395 11.819916 31,000 159 493 0
2019-10-22 23:31:58 GMT 38.742962 11.811890 31,000 159 493 0
2019-10-22 23:31:54 GMT 38.753723 11.806720 31,000 159 493 0
2019-10-22 23:31:48 GMT 38.764980 11.801331 31,000 159 493 0
2019-10-22 23:31:45 GMT 38.774986 11.796448 31,000 159 493 0
2019-10-22 23:31:37 GMT 38.788147 11.790121 31,000 159 493 0
2019-10-22 23:31:33 GMT 38.796890 11.785942 31,000 159 493 0
2019-10-22 23:31:27 GMT 38.810276 11.779541 31,000 159 493 0
2019-10-22 23:31:24 GMT 38.816116 11.776687 31,000 159 493 0
2019-10-22 23:31:17 GMT 38.830673 11.769761 31,000 159 493 0
2019-10-22 23:31:14 GMT 38.836948 11.766724 31,000 159 492 0
2019-10-22 23:31:04 GMT 38.858826 11.756147 31,000 159 492 0
2019-10-22 23:30:54 GMT 38.880756 11.745605 31,000 159 493 0
2019-10-22 23:30:46 GMT 38.903149 11.734802 31,000 159 492 0
2019-10-22 23:30:43 GMT 38.903149 11.734802 31,000 159 492 0
2019-10-22 23:30:36 GMT 38.919579 11.726807 31,000 159 491 0
2019-10-22 23:30:33 GMT 38.925770 11.723816 31,000 159 493 0
2019-10-22 23:30:26 GMT 38.947277 11.713379 31,000 159 491 0
2019-10-22 23:30:23 GMT 38.947277 11.713379 31,000 159 492 0
2019-10-22 23:30:16 GMT 38.969669 11.702637 31,000 159 491 0
2019-10-22 23:30:05 GMT 38.984379 11.695496 31,000 159 492 0
2019-10-22 23:30:02 GMT 38.991119 11.692259 31,000 159 491 0
2019-10-22 23:29:55 GMT 39.013569 11.681396 31,000 159 491 0
2019-10-22 23:29:52 GMT 39.013569 11.681396 31,000 159 491 0
2019-10-22 23:29:42 GMT 39.034790 11.671123 31,000 159 491 0
2019-10-22 23:29:34 GMT 39.051926 11.662781 31,000 159 492 0
2019-10-22 23:29:31 GMT 39.058304 11.659668 31,000 159 492 0
2019-10-22 23:29:26 GMT 39.068436 11.654763 31,000 159 491 0
2019-10-22 23:29:23 GMT 39.075577 11.651245 31,000 159 492 0
2019-10-22 23:29:20 GMT 39.080696 11.648804 31,000 159 491 0
2019-10-22 23:29:14 GMT 39.095032 11.641806 31,000 159 491 0
2019-10-22 23:29:10 GMT 39.103134 11.637865 31,000 159 491 0
2019-10-22 23:29:06 GMT 39.111649 11.633745 31,000 159 491 0
2019-10-22 23:29:03 GMT 39.118172 11.630615 31,000 159 491 0
2019-10-22 23:28:59 GMT 39.126343 11.626580 31,000 159 491 0
2019-10-22 23:28:53 GMT 39.137833 11.621027 31,000 159 491 0
2019-10-22 23:28:49 GMT 39.147629 11.616251 31,000 159 491 0
2019-10-22 23:28:45 GMT 39.155415 11.612488 31,000 159 491 0
2019-10-22 23:28:42 GMT 39.161087 11.609743 31,000 159 491 0
2019-10-22 23:28:38 GMT 39.170124 11.605347 31,000 159 491 0
2019-10-22 23:28:35 GMT 39.183655 11.598756 31,000 159 491 0
2019-10-22 23:28:25 GMT 39.204803 11.588501 31,000 159 491 0
2019-10-22 23:28:17 GMT 39.215046 11.583557 31,000 159 491 0
2019-10-22 23:28:14 GMT 39.221741 11.580247 31,000 159 491 0
2019-10-22 23:28:11 GMT 39.228104 11.577142 31,000 159 492 0
2019-10-22 23:28:04 GMT 39.242981 11.569857 31,000 159 492 0
2019-10-22 23:28:01 GMT 39.249077 11.566895 31,000 159 491 0
2019-10-22 23:27:54 GMT 39.264343 11.559448 31,000 159 491 0
2019-10-22 23:27:50 GMT 39.272552 11.555468 31,000 159 491 0
2019-10-22 23:27:45 GMT 39.282639 11.550537 31,000 159 491 0
2019-10-22 23:27:40 GMT 39.294434 11.544780 31,000 159 490 0
2019-10-22 23:27:33 GMT 39.307964 11.538208 31,000 159 490 0
2019-10-22 23:27:29 GMT 39.317509 11.533508 31,000 159 491 0
2019-10-22 23:27:24 GMT 39.330368 11.527226 31,000 159 490 0
2019-10-22 23:27:18 GMT 39.340458 11.522278 31,000 159 490 0
2019-10-22 23:27:15 GMT 39.352890 11.516239 31,000 159 490 0
2019-10-22 23:27:07 GMT 39.362869 11.511343 31,000 159 490 0
2019-10-22 23:27:02 GMT 39.374256 11.505798 31,000 159 490 0
2019-10-22 23:26:57 GMT 39.384750 11.500655 31,000 159 490 0
2019-10-22 23:26:54 GMT 39.392269 11.496948 31,000 159 490 0
2019-10-22 23:26:46 GMT 39.407585 11.489441 31,000 159 491 0
2019-10-22 23:26:42 GMT 39.416058 11.485291 31,000 159 491 0
2019-10-22 23:26:33 GMT 39.435192 11.475891 31,000 159 491 0
2019-10-22 23:26:30 GMT 39.444855 11.471160 31,000 159 491 0
2019-10-22 23:26:23 GMT 39.457493 11.464966 31,000 159 490 0
2019-10-22 23:26:19 GMT 39.467033 11.460266 31,000 159 490 0
2019-10-22 23:26:14 GMT 39.475433 11.456173 31,000 159 490 0
2019-10-22 23:26:09 GMT 39.487747 11.450142 31,000 159 490 0
2019-10-22 23:26:06 GMT 39.494408 11.446838 31,000 159 490 0
2019-10-22 23:26:02 GMT 39.501938 11.443156 31,000 159 489 0
2019-10-22 23:25:59 GMT 39.509487 11.439453 31,000 159 489 0
2019-10-22 23:25:51 GMT 39.524826 11.431931 31,000 159 489 0
2019-10-22 23:25:46 GMT 39.536911 11.425960 31,000 159 489 0
2019-10-22 23:25:41 GMT 39.546127 11.421448 31,000 159 490 0
2019-10-22 23:25:36 GMT 39.557159 11.416016 31,000 159 490 0
2019-10-22 23:25:31 GMT 39.567959 11.410706 31,000 159 490 0
2019-10-22 23:25:20 GMT 39.591156 11.399271 31,000 159 490 0
2019-10-22 23:25:11 GMT 39.610741 11.389587 31,000 159 490 0
2019-10-22 23:25:00 GMT 39.632759 11.378723 31,000 159 490 0
2019-10-22 23:24:50 GMT 39.654594 11.367920 31,000 159 490 0
2019-10-22 23:24:39 GMT 39.677582 11.356520 31,000 159 490 0
2019-10-22 23:24:29 GMT 39.699238 11.345764 31,000 158 489 0
2019-10-22 23:24:21 GMT 39.716949 11.336995 31,000 159 489 0
2019-10-22 23:24:18 GMT 39.721489 11.334717 31,000 159 489 0
2019-10-22 23:24:09 GMT 39.741970 11.324524 31,000 159 489 0
2019-10-22 23:23:58 GMT 39.765247 11.312988 31,000 159 489 0
2019-10-22 23:23:53 GMT 39.775909 11.307738 31,000 159 489 0
2019-10-22 23:23:50 GMT 39.782272 11.304573 31,000 158 488 0
2019-10-22 23:23:47 GMT 39.788361 11.301528 31,000 158 488 0
2019-10-22 23:23:44 GMT 39.794724 11.298423 31,000 158 488 0
2019-10-22 23:23:40 GMT 39.804199 11.293647 31,000 158 488 0
2019-10-22 23:23:37 GMT 39.808640 11.291438 31,000 159 488 0
2019-10-22 23:23:33 GMT 39.820553 11.285583 31,000 159 488 0
2019-10-22 23:23:28 GMT 39.828735 11.281705 31,000 160 487 0
2019-10-22 23:23:25 GMT 39.833176 11.279615 31,000 160 488 0
2019-10-22 23:23:22 GMT 39.839584 11.276690 31,000 161 487 0
2019-10-22 23:23:17 GMT 39.850250 11.271973 31,000 161 487 0
2019-10-22 23:23:14 GMT 39.857468 11.268921 31,000 161 487 0
2019-10-22 23:23:10 GMT 39.866364 11.265226 31,000 162 487 0
2019-10-22 23:23:07 GMT 39.871948 11.262957 31,000 162 487 0
2019-10-22 23:23:02 GMT 39.885132 11.257762 31,000 163 487 0
2019-10-22 23:22:57 GMT 39.894569 11.254272 31,000 164 487 0
2019-10-22 23:22:51 GMT 39.906830 11.250060 31,000 165 486 0
2019-10-22 23:22:47 GMT 39.916542 11.246887 31,000 165 486 0
2019-10-22 23:22:41 GMT 39.929306 11.242676 31,000 165 486 0
2019-10-22 23:22:36 GMT 39.939377 11.239380 31,000 165 486 0
2019-10-22 23:22:32 GMT 39.949402 11.236084 31,000 165 486 0
2019-10-22 23:22:26 GMT 39.962627 11.231773 31,000 165 486 0
2019-10-22 23:22:21 GMT 39.972977 11.228394 31,000 165 486 0
2019-10-22 23:22:16 GMT 39.984787 11.224548 31,000 165 486 0
2019-10-22 23:22:12 GMT 39.995773 11.220974 31,000 165 486 0
2019-10-22 23:22:05 GMT 40.007366 11.217166 31,000 165 486 0
2019-10-22 23:21:59 GMT 40.020126 11.213013 31,000 165 486 0
2019-10-22 23:21:55 GMT 40.032455 11.208989 31,000 165 486 0
2019-10-22 23:21:48 GMT 40.045441 11.204773 31,000 165 486 0
2019-10-22 23:21:45 GMT 40.051987 11.202637 31,000 165 486 0
2019-10-22 23:21:38 GMT 40.066067 11.198002 31,000 165 486 0
2019-10-22 23:21:35 GMT 40.074589 11.195193 31,000 165 486 0
2019-10-22 23:21:31 GMT 40.090508 11.189950 31,000 165 486 0
2019-10-22 23:21:27 GMT 40.097538 11.187703 31,000 165 486 0
2019-10-22 23:21:24 GMT 40.097538 11.187703 31,000 165 486 0
2019-10-22 23:21:17 GMT 40.112343 11.182834 31,000 165 486 0
2019-10-22 23:21:14 GMT 40.118904 11.180649 31,000 165 486 0
2019-10-22 23:21:06 GMT 40.137131 11.174622 31,000 165 486 0
2019-10-22 23:21:03 GMT 40.142807 11.172791 31,000 165 486 0
2019-10-22 23:20:55 GMT 40.161804 11.166565 31,000 165 486 0
2019-10-22 23:20:52 GMT 40.166248 11.165106 31,000 165 486 0
2019-10-22 23:20:45 GMT 40.183411 11.159424 31,000 165 486 0
2019-10-22 23:20:41 GMT 40.190269 11.157178 31,000 165 486 0
2019-10-22 23:20:35 GMT 40.206188 11.151997 31,000 165 486 0
2019-10-22 23:20:31 GMT 40.213074 11.149719 31,000 165 486 0
2019-10-22 23:20:25 GMT 40.226807 11.145203 31,000 165 486 0
2019-10-22 23:20:22 GMT 40.231842 11.143555 31,000 165 486 0
2019-10-22 23:20:18 GMT 40.241756 11.140262 31,000 165 486 0
2019-10-22 23:20:12 GMT 40.254185 11.136142 31,000 165 486 0
2019-10-22 23:20:08 GMT 40.270432 11.130798 31,000 165 486 0
2019-10-22 23:20:02 GMT 40.276020 11.128963 31,000 165 486 0
2019-10-22 23:19:58 GMT 40.284393 11.126221 31,000 165 486 0
2019-10-22 23:19:55 GMT 40.291809 11.123779 31,000 165 486 0
2019-10-22 23:19:51 GMT 40.299107 11.121348 31,000 165 486 0
2019-10-22 23:19:48 GMT 40.307209 11.118726 31,000 165 486 0
2019-10-22 23:19:45 GMT 40.312546 11.116943 31,000 165 486 0
2019-10-22 23:19:42 GMT 40.321060 11.114136 31,000 165 486 0
2019-10-22 23:19:38 GMT 40.328934 11.111572 31,000 165 486 0
2019-10-22 23:19:35 GMT 40.335373 11.109425 31,000 165 486 0
2019-10-22 23:19:31 GMT 40.343845 11.106616 31,000 165 486 0
2019-10-22 23:19:28 GMT 40.351364 11.104126 31,000 165 486 0
2019-10-22 23:19:25 GMT 40.357811 11.101997 31,000 165 486 0
2019-10-22 23:19:21 GMT 40.366013 11.099243 31,000 165 486 0
2019-10-22 23:19:18 GMT 40.373611 11.096741 31,000 165 487 0
2019-10-22 23:19:14 GMT 40.380295 11.094506 31,000 165 486 0
2019-10-22 23:19:11 GMT 40.387932 11.092009 31,000 165 486 0
2019-10-22 23:19:08 GMT 40.395676 11.089417 31,000 165 486 0
2019-10-22 23:19:04 GMT 40.403618 11.086828 31,000 165 486 0
2019-10-22 23:19:01 GMT 40.409866 11.084778 31,000 165 486 0
2019-10-22 23:18:57 GMT 40.418468 11.081959 31,000 165 486 0
2019-10-22 23:18:54 GMT 40.425110 11.079773 31,000 165 486 0
2019-10-22 23:18:51 GMT 40.432854 11.077153 31,000 165 486 0
2019-10-22 23:18:47 GMT 40.440720 11.074531 31,000 165 486 0
2019-10-22 23:18:43 GMT 40.448540 11.071909 31,000 165 486 0
2019-10-22 23:18:40 GMT 40.455872 11.069519 31,000 165 485 0
2019-10-22 23:18:36 GMT 40.464462 11.066666 31,000 165 486 0
2019-10-22 23:18:30 GMT 40.477661 11.062317 31,000 165 486 0
2019-10-22 23:18:26 GMT 40.485077 11.059875 31,000 165 486 0
2019-10-22 23:18:19 GMT 40.500549 11.054688 31,000 165 486 0
2019-10-22 23:18:16 GMT 40.508652 11.052002 31,000 165 486 0
2019-10-22 23:18:09 GMT 40.522797 11.047302 31,000 165 486 0
2019-10-22 23:18:05 GMT 40.530750 11.044631 31,000 165 485 0
2019-10-22 23:17:59 GMT 40.545914 11.039612 31,000 165 485 0
2019-10-22 23:17:55 GMT 40.552353 11.037514 31,000 165 485 0
2019-10-22 23:17:52 GMT 40.560638 11.034705 31,000 165 485 0
2019-10-22 23:17:49 GMT 40.567390 11.032458 31,000 165 486 0
2019-10-22 23:17:45 GMT 40.575989 11.029602 31,000 165 486 0
2019-10-22 23:17:38 GMT 40.590061 11.024968 31,000 165 487 0
2019-10-22 23:17:35 GMT 40.597694 11.022408 31,000 165 487 0
2019-10-22 23:17:29 GMT 40.613297 11.017212 31,000 165 487 0
2019-10-22 23:17:25 GMT 40.619843 11.015015 31,000 165 486 0
2019-10-22 23:17:19 GMT 40.632610 11.010735 31,000 165 487 -64
2019-10-22 23:17:14 GMT 40.642429 11.007489 31,000 165 487 0
2019-10-22 23:17:10 GMT 40.650532 11.004805 31,000 165 486 0
2019-10-22 23:17:07 GMT 40.657513 11.002433 31,000 165 486 0
2019-10-22 23:17:04 GMT 40.664497 11.000123 31,000 165 487 0
2019-10-22 23:16:58 GMT 40.678883 10.995317 31,000 165 486 0
2019-10-22 23:16:53 GMT 40.687500 10.992432 31,000 165 486 0
2019-10-22 23:16:47 GMT 40.701553 10.987701 31,000 165 486 0
2019-10-22 23:16:43 GMT 40.710571 10.984680 31,000 165 486 0
2019-10-22 23:16:38 GMT 40.722919 10.980585 31,000 165 485 0
2019-10-22 23:16:33 GMT 40.732277 10.977464 31,000 165 486 0
2019-10-22 23:16:27 GMT 40.746895 10.972595 31,000 165 486 0
2019-10-22 23:16:23 GMT 40.754528 10.970036 31,000 165 486 0
2019-10-22 23:16:17 GMT 40.768112 10.965454 31,000 165 486 0
2019-10-22 23:16:12 GMT 40.778271 10.962046 31,000 165 486 0
2019-10-22 23:16:09 GMT 40.785439 10.959674 31,000 165 486 0
2019-10-22 23:16:05 GMT 40.792740 10.957214 31,000 165 486 0
2019-10-22 23:16:02 GMT 40.800709 10.954555 31,000 165 485 0
2019-10-22 23:15:58 GMT 40.808529 10.951933 31,000 165 485 0
2019-10-22 23:15:55 GMT 40.815170 10.949707 31,000 165 485 0
2019-10-22 23:15:50 GMT 40.824638 10.946565 31,000 165 485 0
2019-10-22 23:15:44 GMT 40.840393 10.941284 31,000 165 485 0
2019-10-22 23:15:41 GMT 40.845959 10.939387 31,000 165 485 0
2019-10-22 23:15:36 GMT 40.857876 10.935392 31,000 165 484 0
2019-10-22 23:15:32 GMT 40.865616 10.932800 31,000 165 483 0
2019-10-22 23:15:28 GMT 40.873936 10.930023 31,000 165 483 0
2019-10-22 23:15:25 GMT 40.880585 10.927795 31,000 165 484 0
2019-10-22 23:15:22 GMT 40.887314 10.925537 31,000 165 484 0
2019-10-22 23:15:19 GMT 40.892838 10.923656 31,000 165 484 0
2019-10-22 23:15:15 GMT 40.902237 10.920471 31,000 165 484 0
2019-10-22 23:15:11 GMT 40.909733 10.917976 31,000 165 482 0
2019-10-22 23:15:08 GMT 40.917206 10.915466 31,000 165 482 0
2019-10-22 23:15:05 GMT 40.924026 10.913169 31,000 165 482 0
2019-10-22 23:15:01 GMT 40.931946 10.910522 31,000 165 482 0
2019-10-22 23:14:58 GMT 40.939388 10.908051 31,000 165 483 0
2019-10-22 23:14:55 GMT 40.945999 10.905823 31,000 165 482 0
2019-10-22 23:14:51 GMT 40.954651 10.902893 31,000 165 481 0
2019-10-22 23:14:47 GMT 40.961452 10.900560 31,000 165 481 -64
2019-10-22 23:14:44 GMT 40.968807 10.898125 31,000 165 481 0
2019-10-22 23:14:40 GMT 40.977234 10.895316 31,000 165 481 -64
2019-10-22 23:14:37 GMT 40.983810 10.893066 31,000 165 481 0
2019-10-22 23:14:34 GMT 40.991482 10.890510 31,000 165 481 0
2019-10-22 23:14:30 GMT 40.999252 10.887888 31,000 165 482 0
2019-10-22 23:14:27 GMT 41.005959 10.885641 31,000 165 482 0
2019-10-22 23:14:24 GMT 41.012100 10.883545 31,000 165 481 0
2019-10-22 23:14:19 GMT 41.021805 10.880249 31,000 165 480 0
2019-10-22 23:14:14 GMT 41.034866 10.875841 31,000 165 481 0
2019-10-22 23:14:10 GMT 41.043182 10.872986 31,000 165 481 0
2019-10-22 23:14:04 GMT 41.056419 10.868537 31,000 165 482 0
2019-10-22 23:13:59 GMT 41.066570 10.865042 31,000 165 481 0
2019-10-22 23:13:54 GMT 41.078568 10.861023 31,000 165 481 0
2019-10-22 23:13:49 GMT 41.088501 10.857666 31,000 165 481 0
2019-10-22 23:13:43 GMT 41.101158 10.853431 31,000 165 481 0
2019-10-22 23:13:38 GMT 41.110977 10.850098 31,000 165 483 0
2019-10-22 23:13:35 GMT 41.118008 10.847688 31,000 165 482 0
2019-10-22 23:13:32 GMT 41.123520 10.845825 31,000 165 482 0
2019-10-22 23:13:28 GMT 41.133270 10.842529 31,000 165 482 0
2019-10-22 23:13:22 GMT 41.145241 10.838450 31,000 165 481 0
2019-10-22 23:13:18 GMT 41.154785 10.835266 31,000 165 481 0
2019-10-22 23:13:13 GMT 41.166889 10.831146 31,000 165 481 0
2019-10-22 23:13:07 GMT 41.177811 10.827454 31,000 165 482 0
2019-10-22 23:13:02 GMT 41.189373 10.823531 31,000 165 482 64
2019-10-22 23:12:57 GMT 41.200241 10.819824 31,000 165 481 0
2019-10-22 23:12:52 GMT 41.211044 10.816223 31,000 165 481 0
2019-10-22 23:12:47 GMT 41.222145 10.812420 31,000 165 481 0
2019-10-22 23:12:42 GMT 41.232944 10.808799 31,000 165 481 0
2019-10-22 23:12:36 GMT 41.244816 10.804742 31,000 165 481 0
2019-10-22 23:12:31 GMT 41.255569 10.801059 31,000 165 481 0
2019-10-22 23:12:26 GMT 41.267761 10.796936 31,000 165 480 0
2019-10-22 23:12:21 GMT 41.277466 10.793640 31,000 165 480 -64
2019-10-22 23:12:16 GMT 41.289181 10.789698 31,000 165 479 0
2019-10-22 23:12:12 GMT 41.298862 10.786389 31,000 165 479 0
2019-10-22 23:12:06 GMT 41.310921 10.782270 31,000 165 480 64
2019-10-22 23:12:01 GMT 41.321255 10.778711 31,000 165 479 64
2019-10-22 23:11:55 GMT 41.333359 10.774597 31,000 165 479 64
2019-10-22 23:11:51 GMT 41.342606 10.771423 31,000 165 479 0
2019-10-22 23:11:45 GMT 41.355377 10.767039 31,000 165 479 0
2019-10-22 23:11:40 GMT 41.365250 10.763668 31,000 165 479 0
2019-10-22 23:11:34 GMT 41.377808 10.759399 31,000 165 479 0
2019-10-22 23:11:30 GMT 41.386520 10.756446 31,000 165 479 0
2019-10-22 23:11:25 GMT 41.399231 10.752102 31,000 165 480 0
2019-10-22 23:11:20 GMT 41.408867 10.748781 31,000 165 480 0
2019-10-22 23:11:13 GMT 41.423630 10.743755 31,000 165 480 0
2019-10-22 23:11:09 GMT 41.432331 10.740796 31,000 165 480 0
2019-10-22 23:11:04 GMT 41.444275 10.736701 31,000 165 480 0
2019-10-22 23:10:59 GMT 41.454067 10.733323 31,000 165 480 0
2019-10-22 23:10:54 GMT 41.467484 10.728711 31,000 165 480 0
2019-10-22 23:10:49 GMT 41.475346 10.726042 31,000 165 480 0
2019-10-22 23:10:46 GMT 41.482002 10.723742 31,000 165 480 0
2019-10-22 23:10:43 GMT 41.489124 10.721315 31,000 165 479 0
2019-10-22 23:10:37 GMT 41.502548 10.716726 31,000 165 479 64
2019-10-22 23:10:32 GMT 41.511284 10.713778 31,000 165 479 0
2019-10-22 23:10:27 GMT 41.522919 10.709754 31,000 165 480 0
2019-10-22 23:10:22 GMT 41.533672 10.706113 31,000 165 480 0
2019-10-22 23:10:16 GMT 41.546677 10.701620 31,000 165 481 0
2019-10-22 23:10:12 GMT 41.555832 10.698512 31,000 165 480 -64
2019-10-22 23:10:08 GMT 41.563187 10.696021 31,000 165 481 -64
2019-10-22 23:10:04 GMT 41.571568 10.693146 31,000 165 481 0
2019-10-22 23:10:01 GMT 41.578457 10.690783 31,000 165 480 0
2019-10-22 23:09:58 GMT 41.585999 10.688164 31,000 165 481 0
2019-10-22 23:09:55 GMT 41.591904 10.686202 31,000 165 481 0
2019-10-22 23:09:52 GMT 41.599358 10.683629 31,000 165 480 0
2019-10-22 23:09:48 GMT 41.608292 10.680521 31,000 165 480 0
2019-10-22 23:09:41 GMT 41.621704 10.675900 31,000 165 480 0
2019-10-22 23:09:38 GMT 41.629349 10.673280 31,000 165 480 0
2019-10-22 23:09:34 GMT 41.639347 10.669769 31,000 165 479 64
2019-10-22 23:09:31 GMT 41.643631 10.668299 31,000 165 479 64
2019-10-22 23:09:28 GMT 41.651592 10.665553 31,000 165 479 0
2019-10-22 23:09:21 GMT 41.666061 10.660484 31,000 165 479 0
2019-10-22 23:09:17 GMT 41.673157 10.658049 31,000 165 479 -64
2019-10-22 23:09:10 GMT 41.688042 10.652906 31,000 165 479 0
2019-10-22 23:09:07 GMT 41.695679 10.650309 31,000 165 479 0
2019-10-22 23:09:00 GMT 41.710384 10.645241 31,000 165 479 0
2019-10-22 23:08:56 GMT 41.718201 10.642506 31,000 165 479 0
2019-10-22 23:08:50 GMT 41.731934 10.637762 31,000 165 479 0
2019-10-22 23:08:46 GMT 41.739342 10.635149 31,000 165 479 0
2019-10-22 23:08:40 GMT 41.754684 10.629834 31,000 165 479 0
2019-10-22 23:08:37 GMT 41.761322 10.627525 31,000 165 479 0
2019-10-22 23:08:29 GMT 41.777328 10.621991 31,000 165 479 0
2019-10-22 23:08:26 GMT 41.783020 10.620034 31,000 165 479 0
2019-10-22 23:08:19 GMT 41.799728 10.614291 31,000 165 479 0
2019-10-22 23:08:16 GMT 41.804981 10.612474 31,000 165 479 0
2019-10-22 23:08:09 GMT 41.820435 10.607108 31,000 165 479 0
2019-10-22 23:08:05 GMT 41.828163 10.604425 31,000 165 478 0
2019-10-22 23:07:59 GMT 41.840927 10.599996 31,000 165 478 0
2019-10-22 23:07:56 GMT 41.864502 10.591819 31,000 165 478 0
2019-10-22 23:07:48 GMT 41.864502 10.591819 31,000 165 479 0
2019-10-22 23:07:45 GMT 41.871780 10.589260 31,000 165 479 0
2019-10-22 23:07:38 GMT 41.887024 10.584016 31,000 165 479 0
2019-10-22 23:07:35 GMT 41.893105 10.581942 31,000 165 479 0
2019-10-22 23:07:29 GMT 41.904785 10.577899 31,000 165 479 0
2019-10-22 23:07:26 GMT 41.916706 10.573766 31,000 165 478 0
2019-10-22 23:07:17 GMT 41.930511 10.569035 31,000 165 479 0
2019-10-22 23:07:13 GMT 41.940170 10.565727 31,000 165 478 0
2019-10-22 23:07:07 GMT 41.952690 10.561374 31,000 165 478 0
2019-10-22 23:07:03 GMT 41.961182 10.558486 31,000 165 478 0
2019-10-22 23:06:56 GMT 41.974991 10.553773 31,000 165 478 0
2019-10-22 23:06:52 GMT 41.984627 10.550452 31,000 165 478 0
2019-10-22 23:06:48 GMT 41.994495 10.547067 31,000 165 478 0
2019-10-22 23:06:44 GMT 42.004257 10.543691 31,000 165 477 0
2019-10-22 23:06:41 GMT 42.008228 10.542340 31,000 165 477 0
2019-10-22 23:06:38 GMT 42.013580 10.540551 31,000 165 477 0
2019-10-22 23:06:35 GMT 42.020966 10.538011 31,000 165 477 0
2019-10-22 23:06:32 GMT 42.027603 10.535764 31,000 165 477 0
2019-10-22 23:06:29 GMT 42.034344 10.533398 31,000 165 478 0
2019-10-22 23:06:26 GMT 42.041290 10.531020 31,000 165 478 64
2019-10-22 23:06:22 GMT 42.049332 10.528288 31,000 165 478 0
2019-10-22 23:06:17 GMT 42.058086 10.525222 31,000 165 478 0
2019-10-22 23:06:14 GMT 42.067722 10.521900 31,000 165 477 -64
2019-10-22 23:06:08 GMT 42.078846 10.518004 31,000 165 477 0
2019-10-22 23:06:05 GMT 42.084389 10.516088 31,000 165 477 0
2019-10-22 23:06:00 GMT 42.096451 10.511856 31,000 165 477 0
2019-10-22 23:05:57 GMT 42.111832 10.506363 31,000 164 477 0
2019-10-22 23:05:53 GMT 42.111832 10.506363 31,000 164 477 64
2019-10-22 23:05:50 GMT 42.117905 10.504143 31,000 164 477 0
2019-10-22 23:05:47 GMT 42.134106 10.498139 31,000 164 477 0
2019-10-22 23:05:42 GMT 42.134106 10.498139 31,000 164 477 -64
2019-10-22 23:05:39 GMT 42.141369 10.495520 31,000 164 477 -64
2019-10-22 23:05:36 GMT 42.146576 10.493691 31,025 165 477 -64
2019-10-22 23:05:32 GMT 42.155426 10.490602 31,025 165 476 64
2019-10-22 23:05:29 GMT 42.167809 10.486259 31,000 162 477 0
2019-10-22 23:05:23 GMT 42.175919 10.482892 31,000 161 477 0
2019-10-22 23:05:20 GMT 42.183125 10.479488 31,000 157 477 0
2019-10-22 23:05:14 GMT 42.199326 10.469907 31,000 155 478 -64
2019-10-22 23:05:07 GMT 42.207413 10.464103 31,000 149 479 -64
2019-10-22 23:05:02 GMT 42.217255 10.456051 31,000 147 479 -64
2019-10-22 23:04:58 GMT 42.224075 10.449808 31,000 144 480 128
2019-10-22 23:04:54 GMT 42.232544 10.441069 30,975 139 483 128
2019-10-22 23:04:51 GMT 42.242851 10.428772 30,975 136 484 -64
2019-10-22 23:04:48 GMT 42.242851 10.428772 30,975 127 487 0
2019-10-22 23:04:45 GMT 42.245041 10.425770 31,000 127 487 0
2019-10-22 23:04:41 GMT 42.251175 10.416724 31,000 130 487 -64
2019-10-22 23:04:38 GMT 42.255524 10.409733 31,000 127 488 0
2019-10-22 23:04:35 GMT 42.259689 10.402617 31,000 127 488 0

Making use of Plane Finder data

You are free to use the raw flight data, aircraft information and images provided in this report for your own purposes provided the data is correctly attributed to Plane Finder. We ask that you please credit Plane Finder and link to planefinder.net in close proximity to the content.

Optionally one of the following logos (no smaller then 150x24px) can be used and must link to planefinder.net

Embedding the Plane Finder map

You are welcome to embed the Plane Finder playback map on your website to offer visitors a more interactive experience. We suggest using the following HTML code:

<iframe src="//planefinder.net/data/report/5Y8240-N415MC-7700-squawk-2019-10-23/map" width="800" height="600" seamless="seamless"></iframe>

Where our data comes from

Plane Finder has a global network of data feeds and antenna radars that receive data broadcast directly from aircraft. The primary technologies used are ADS-B and MLAT. We also show feeds from the FAA and a FLARM glider feed.

Click here to find out more about the Plane Finder network.

How we collect our data